
Distance (Route):
Temperature : -22.1°C
Humidity : 73.6%
Pressure : 433.6hPa| Receiver | Frames | First received | Last received |
|---|---|---|---|
| DL1XH-west | 316 | 2026-09-03 23:46:15 | 2026-09-04 00:42:47 |
| DM0DOS-11 | 205 | 2026-09-03 23:55:23 | 2026-09-04 00:36:52 |
| DL1XH-15 | 99 | 2026-09-04 00:13:34 | 2026-09-04 00:35:40 |
| DJ2DS-15 | 93 | 2026-09-03 23:40:39 | 2026-09-04 00:44:22 |
| GOEST3-10 | 69 | 2026-09-04 00:19:33 | 2026-09-04 00:32:34 |
| BIOWL1-15 | 63 | 2026-09-04 00:16:19 | 2026-09-04 00:34:21 |
| BIOWL9-15 | 9 | 2026-09-04 00:16:25 | 2026-09-04 00:33:30 |
| BIOWL7-15 | 3 | 2026-09-04 00:16:51 | 2026-09-04 00:33:52 |
| Receiver | Date | Latitude | Longitude | Direction | Speed | Altitude | Climb | Temperature | Humidity | Pressure | Voltage | Killtimer | Uptime | BKT | XDATA |
|---|---|---|---|---|---|---|---|---|---|---|---|---|---|---|---|
| DJ2DS-15 | 2026-09-04 00:44:22 | 56.61814 | 6.18351 | 88° | 133km/h | 6672m | -12.6m/s | -22.1°C | 73.6% | 433.6hPa | 2.5V | 00:00:00 | 00:00:00 | 00:00:00 | |
| DJ2DS-15 | 2026-09-04 00:43:07 | 56.61923 | 6.15184 | 99° | 175km/h | 7339m | -13.7m/s | -26.1°C | 47.9% | 395.5hPa | 2.5V | 00:00:00 | 01:46:16 | 00:00:00 | |
| DL1XH-west | 2026-09-04 00:42:47 | 56.62021 | 6.13607 | 96° | 186km/h | 7618m | -14.1m/s | -26.5°C | 70.2% | 380.7hPa | 2.5V | 08:19:26 | 01:45:56 | 00:00:00 | |
| DL1XH-west | 2026-09-04 00:42:37 | 56.62061 | 6.12640 | 93° | 203km/h | 7768m | -14.6m/s | -27.8°C | 75.5% | 372.8hPa | 2.4V | 08:19:26 | 01:45:45 | 00:00:00 | |
| DL1XH-west | 2026-09-04 00:42:25 | 56.62074 | 6.11565 | 90° | 217km/h | 7929m | -16.2m/s | -27.1°C | 79.4% | 364.6hPa | 2.4V | 08:19:26 | 01:45:34 | 00:00:00 | |
| DL1XH-west | 2026-09-04 00:42:15 | 56.62064 | 6.10540 | 88° | 228km/h | 8081m | -16.9m/s | -27.6°C | 79.7% | 356.9hPa | 2.4V | 08:19:26 | 01:45:24 | 00:00:00 | |
| DL1XH-west | 2026-09-04 00:42:05 | 56.62040 | 6.09388 | 86° | 232km/h | 8252m | -15.6m/s | -28.7°C | 77.7% | 348.6hPa | 2.4V | 08:20:17 | 01:45:13 | 00:00:00 | |
| DL1XH-west | 2026-09-04 00:41:54 | 56.61999 | 6.08224 | 86° | 232km/h | 8415m | -16.4m/s | -30.1°C | 80.4% | 340.7hPa | 2.4V | 08:20:17 | 01:45:02 | 00:00:00 | |
| DL1XH-west | 2026-09-04 00:41:44 | 56.61958 | 6.07166 | 86° | 230km/h | 8562m | -14.7m/s | -31.2°C | 75.2% | 333.8hPa | 2.4V | 08:20:17 | 01:44:52 | 00:00:00 | |
| DL1XH-west | 2026-09-04 00:41:33 | 56.61926 | 6.06107 | 87° | 232km/h | 8716m | -16.1m/s | -32.6°C | 80.4% | 326.6hPa | 2.5V | 08:20:17 | 01:44:42 | 00:00:00 | |
| DL1XH-west | 2026-09-04 00:41:22 | 56.61890 | 6.04936 | 87° | 232km/h | 8879m | -15.6m/s | -34°C | 76.9% | 319.1hPa | 2.4V | 08:21:08 | 01:44:31 | 00:00:00 | |
| DL1XH-west | 2026-09-04 00:41:11 | 56.61860 | 6.03767 | 88° | 230km/h | 9047m | -15.6m/s | -35.5°C | 78.4% | 311.5hPa | 2.5V | 08:21:08 | 01:44:20 | 00:00:00 | |
| DL1XH-west | 2026-09-04 00:41:00 | 56.61842 | 6.02493 | 89° | 230km/h | 9236m | -17m/s | -37.2°C | 75.7% | 303.1hPa | 2.5V | 08:21:08 | 01:44:08 | 00:00:00 | |
| DL1XH-west | 2026-09-04 00:40:48 | 56.61829 | 6.01323 | 89° | 234km/h | 9409m | -16.9m/s | -38.7°C | 79.4% | 295.6hPa | 2.4V | 08:21:08 | 01:43:57 | 00:00:00 | |
| DL1XH-west | 2026-09-04 00:40:38 | 56.61820 | 6.00134 | 89° | 237km/h | 9589m | -17.6m/s | -40.3°C | 83.4% | 288hPa | 2.4V | 08:21:08 | 01:43:46 | 00:00:00 | |
| DL1XH-west | 2026-09-04 00:40:26 | 56.61813 | 5.98945 | 90° | 234km/h | 9771m | -16.3m/s | -41.7°C | 87.9% | 280.3hPa | 2.5V | 08:21:59 | 01:43:35 | 00:00:00 | |
| DL1XH-west | 2026-09-04 00:40:16 | 56.61810 | 5.97763 | 90° | 239km/h | 9947m | -18.3m/s | -43.1°C | 82.2% | 273.2hPa | 2.4V | 08:21:59 | 01:43:24 | 00:00:00 | |
| DL1XH-west | 2026-09-04 00:40:05 | 56.61827 | 5.96555 | 92° | 239km/h | 10131m | -15.8m/s | -44.4°C | 75.6% | 265.7hPa | 2.5V | 08:21:59 | 01:43:13 | 00:00:00 | |
| DL1XH-west | 2026-09-04 00:39:54 | 56.61855 | 5.95337 | 93° | 243km/h | 10321m | -17.7m/s | -46.1°C | 88.3% | 258.2hPa | 2.4V | 08:21:59 | 01:43:02 | 00:00:00 | |
| DL1XH-west | 2026-09-04 00:39:42 | 56.61887 | 5.94118 | 93° | 243km/h | 10526m | -19.6m/s | -47.7°C | 77.8% | 250.5hPa | 2.4V | 08:21:59 | 01:42:51 | 00:00:00 | |
| DL1XH-west | 2026-09-04 00:39:32 | 56.61930 | 5.92774 | 94° | 246km/h | 10748m | -20.3m/s | -49.6°C | 81% | 242.1hPa | 2.5V | 08:22:50 | 01:42:39 | 00:00:00 | |
| DL1XH-west | 2026-09-04 00:39:21 | 56.61977 | 5.91534 | 95° | 248km/h | 10961m | -22.3m/s | -51.6°C | 76.6% | 234.4hPa | 2.4V | 08:22:50 | 01:42:28 | 00:00:00 | |
| DL1XH-west | 2026-09-04 00:39:09 | 56.62022 | 5.90419 | 94° | 239km/h | 11170m | -21m/s | -53.2°C | 67.8% | 226.8hPa | 2.4V | 08:22:50 | 01:42:18 | 00:00:00 | |
| DL1XH-west | 2026-09-04 00:38:59 | 56.62059 | 5.89104 | 91° | 237km/h | 11421m | -22.4m/s | -55.3°C | 58.5% | 218.1hPa | 2.4V | 08:22:50 | 01:42:06 | 00:00:00 | |
| DL1XH-west | 2026-09-04 00:38:46 | 56.62059 | 5.87918 | 89° | 234km/h | 11670m | -23.5m/s | -57.3°C | 45.2% | 209.8hPa | 2.5V | 08:23:41 | 01:41:55 | 00:00:00 | |
| DL1XH-west | 2026-09-04 00:38:35 | 56.62065 | 5.86710 | 92° | 243km/h | 11905m | -21.6m/s | -58.5°C | 28.7% | 202.1hPa | 2.4V | 08:23:41 | 01:41:44 | 00:00:00 | |
| DL1XH-west | 2026-09-04 00:38:25 | 56.62123 | 5.85450 | 96° | 214km/h | 12150m | -21.1m/s | -57.7°C | 11.5% | 194.4hPa | 2.4V | 08:23:41 | 01:41:32 | 00:00:00 | |
| DL1XH-west | 2026-09-04 00:38:14 | 56.62163 | 5.84620 | 94° | 193km/h | 12325m | -20m/s | -57.9°C | 6.3% | 189.1hPa | 2.5V | 08:23:41 | 01:41:23 | 00:00:00 | |
| DL1XH-west | 2026-09-04 00:38:04 | 56.62183 | 5.83810 | 92° | 162km/h | 12515m | -22.3m/s | -55.5°C | 1.9% | 183.4hPa | 2.4V | 08:23:41 | 01:41:13 | 00:00:00 | |
| DL1XH-west | 2026-09-04 00:37:54 | 56.62191 | 5.83051 | 90° | 142km/h | 12747m | -23.2m/s | -53.4°C | 0.9% | 176.9hPa | 2.5V | 08:24:32 | 01:41:02 | 00:00:00 | |
| DJ2DS-15 | 2026-09-04 00:37:46 | 56.62189 | 5.82544 | 88° | 133km/h | 12925m | -21.0m/s | -53.0°C | 1.5% | 172.0hPa | 2.4V | 00:00:00 | 00:00:00 | 00:00:00 | |
| DL1XH-west | 2026-09-04 00:37:43 | 56.62187 | 5.82420 | 87° | 133km/h | 12965m | -20.3m/s | -52.9°C | 0.7% | 170.9hPa | 2.4V | 08:24:32 | 01:40:52 | 00:00:00 | |
| DL1XH-west | 2026-09-04 00:37:33 | 56.62170 | 5.81812 | 89° | 133km/h | 13167m | -22.3m/s | -53°C | 0.7% | 165.7hPa | 2.4V | 08:24:32 | 01:40:42 | 00:00:00 | |
| DL1XH-west | 2026-09-04 00:37:22 | 56.62171 | 5.81117 | 90° | 119km/h | 13408m | -19.2m/s | -52.8°C | 0.5% | 159.6hPa | 2.5V | 08:24:32 | 01:40:30 | 00:00:00 | |
| DL1XH-west | 2026-09-04 00:37:11 | 56.62157 | 5.80529 | 86° | 119km/h | 13639m | -21.8m/s | -52.2°C | 0.3% | 153.9hPa | 2.5V | 08:24:32 | 01:40:19 | 00:00:00 | |
| DL1XH-west | 2026-09-04 00:37:00 | 56.62142 | 5.79948 | 89° | 128km/h | 13848m | -20.3m/s | -52.2°C | 0.2% | 149.1hPa | 2.4V | 08:25:23 | 01:40:09 | 00:00:00 | |
| DM0DOS-11 | 2026-09-04 00:36:52 | 56.62161 | 5.79381 | 97° | 99km/h | 14070m | -22m/s | -50.5°C | 3.3% | 144.1hPa | 2.5V | 08:24:52 | 01:39:58 | 00:00:00 | |
| DL1XH-west | 2026-09-04 00:36:50 | 56.62161 | 5.79381 | 98° | 99km/h | 14070m | -22m/s | -50.5°C | 0% | 144.1hPa | 2.5V | 08:25:23 | 01:39:58 | 00:00:00 | |
| DJ2DS-15 | 2026-09-04 00:36:46 | 56.62170 | 5.79252 | 96° | 93km/h | 14131m | -21.7m/s | -50.6°C | 3.3% | 142.7hPa | 2.4V | 00:00:00 | 01:39:55 | 00:00:00 | |
| DM0DOS-11 | 2026-09-04 00:36:40 | 56.62181 | 5.78961 | 93° | 91km/h | 14288m | -23.6m/s | -51.4°C | 3.5% | 139.3hPa | 2.4V | 08:25:02 | 01:39:48 | 00:00:00 | |
| DL1XH-west | 2026-09-04 00:36:40 | 56.62181 | 5.78961 | 93° | 91km/h | 14288m | -23.6m/s | -51.4°C | 0% | 139.3hPa | 2.4V | 08:25:23 | 01:39:48 | 00:00:00 | |
| DM0DOS-11 | 2026-09-04 00:36:34 | 56.62193 | 5.78528 | 91° | 99km/h | 14487m | -21.5m/s | -51.9°C | 3.6% | 135.1hPa | 2.4V | 08:25:12 | 01:39:38 | 00:00:00 | |
| DL1XH-west | 2026-09-04 00:36:29 | 56.62193 | 5.78528 | 92° | 99km/h | 14487m | -21.5m/s | -51.9°C | 0% | 135.1hPa | 2.4V | 08:25:23 | 01:39:38 | 00:00:00 | |
| DJ2DS-15 | 2026-09-04 00:36:26 | 56.62194 | 5.78391 | 91° | 91km/h | 14552m | -21.7m/s | -51.9°C | 3.6% | 133.7hPa | 2.4V | 00:00:00 | 01:39:35 | 00:00:00 | |
| DM0DOS-11 | 2026-09-04 00:36:23 | 56.62209 | 5.78064 | 98° | 100km/h | 14689m | -21.1m/s | -51.9°C | 3.6% | 130.9hPa | 2.4V | 08:25:22 | 01:39:28 | 00:00:00 | |
| DL1XH-west | 2026-09-04 00:36:19 | 56.62209 | 5.78064 | 98° | 100km/h | 14689m | -21.1m/s | -51.9°C | 0% | 130.9hPa | 2.4V | 08:25:23 | 01:39:28 | 00:00:00 | |
| DM0DOS-11 | 2026-09-04 00:36:10 | 56.62245 | 5.77662 | 97° | 73km/h | 14897m | -22.8m/s | -51.4°C | 3.3% | 126.8hPa | 2.4V | 08:25:32 | 01:39:18 | 00:00:00 | |
| DL1XH-west | 2026-09-04 00:36:08 | 56.62247 | 5.77629 | 95° | 73km/h | 14921m | -24.2m/s | -51.4°C | 0% | 126.4hPa | 2.4V | 08:26:14 | 01:39:17 | 00:00:00 | |
| DJ2DS-15 | 2026-09-04 00:36:06 | 56.62249 | 5.77565 | 93° | 75km/h | 14970m | -24.8m/s | -51.5°C | 3.4% | 125.4hPa | 2.4V | 00:00:00 | 01:39:15 | 00:00:00 | |
| DM0DOS-11 | 2026-09-04 00:36:04 | 56.62246 | 5.77314 | 88° | 77km/h | 15151m | -21.7m/s | -51.7°C | 3.4% | 122hPa | 2.4V | 08:25:43 | 01:39:07 | 00:00:00 | |
| DL1XH-west | 2026-09-04 00:35:59 | 56.62245 | 5.77279 | 88° | 77km/h | 15174m | -24m/s | -51.8°C | 0% | 121.5hPa | 2.4V | 08:26:14 | 01:39:06 | 00:00:00 | |
| DJ2DS-15 | 2026-09-04 00:35:57 | 56.62245 | 5.77279 | 87° | 77km/h | 15174m | -24.0m/s | -51.8°C | 0.9% | 121.5hPa | 2.4V | 00:00:00 | 00:00:00 | 00:00:00 | |
| DM0DOS-11 | 2026-09-04 00:35:52 | 56.62245 | 5.76938 | 90° | 78km/h | 15380m | -20.1m/s | -52.4°C | 3.7% | 117.6hPa | 2.4V | 08:25:53 | 01:38:57 | 00:00:00 | |
| DL1XH-west | 2026-09-04 00:35:47 | 56.62245 | 5.76867 | 90° | 73km/h | 15420m | -21.2m/s | -52.1°C | 0% | 116.9hPa | 2.4V | 08:26:14 | 01:38:55 | 00:00:00 | |
| DJ2DS-15 | 2026-09-04 00:35:46 | 56.62245 | 5.76867 | 90° | 75km/h | 15420m | -21.1m/s | -52.1°C | 3.6% | 116.8hPa | 2.4V | 00:00:00 | 01:38:55 | 00:00:00 | |
| DM0DOS-11 | 2026-09-04 00:35:41 | 56.62236 | 5.76609 | 83° | 71km/h | 15595m | -22.6m/s | -52°C | 3.5% | 113.8hPa | 2.5V | 08:26:03 | 01:38:47 | 00:00:00 | |
| DL1XH-15 | 2026-09-04 00:35:40 | 56.62232 | 5.76542 | 86° | 73km/h | 15639m | -22.6m/s | -51.9°C | 3.5% | 113hPa | 2.4V | 08:26:05 | 01:38:45 | 00:00:00 | |
| DL1XH-west | 2026-09-04 00:35:35 | 56.62232 | 5.76508 | 88° | 75km/h | 15661m | -22m/s | -51.8°C | 0% | 112.7hPa | 2.4V | 08:26:14 | 01:38:44 | 00:00:00 | |
| DM0DOS-11 | 2026-09-04 00:35:31 | 56.62233 | 5.76255 | 90° | 77km/h | 15806m | -22.3m/s | -52.1°C | 3.6% | 110.2hPa | 2.5V | 08:26:13 | 01:38:37 | 00:00:00 | |
| DL1XH-west | 2026-09-04 00:35:24 | 56.62230 | 5.76117 | 83° | 75km/h | 15898m | -24.6m/s | -51.7°C | 0% | 108.7hPa | 2.4V | 08:27:05 | 01:38:33 | 00:00:00 | |
| DL1XH-15 | 2026-09-04 00:35:22 | 56.62193 | 5.75863 | 72° | 73km/h | 16087m | -20.7m/s | -52.1°C | 3.7% | 105.4hPa | 2.5V | 08:26:25 | 01:38:25 | 00:00:00 | |
| DM0DOS-11 | 2026-09-04 00:35:21 | 56.62204 | 5.75926 | 71° | 73km/h | 16045m | -23.2m/s | -52°C | 3.7% | 106.2hPa | 2.4V | 08:26:23 | 01:38:27 | 00:00:00 | |
| DL1XH-west | 2026-09-04 00:35:13 | 56.62179 | 5.75764 | 79° | 73km/h | 16148m | -20.9m/s | -51.6°C | 0% | 104.5hPa | 2.4V | 08:27:05 | 01:38:22 | 00:00:00 | |
| DL1XH-15 | 2026-09-04 00:35:11 | 56.62173 | 5.75530 | 92° | 75km/h | 16303m | -23.5m/s | -50.4°C | 3.3% | 102hPa | 2.4V | 08:26:35 | 01:38:15 | 00:00:00 | |
| DM0DOS-11 | 2026-09-04 00:35:11 | 56.62172 | 5.75564 | 91° | 75km/h | 16279m | -24.9m/s | -50.9°C | 3.4% | 102.4hPa | 2.5V | 08:26:34 | 01:38:16 | 00:00:00 | |
| DL1XH-west | 2026-09-04 00:35:03 | 56.62173 | 5.75430 | 90° | 71km/h | 16369m | -22.1m/s | -50.3°C | 0% | 101hPa | 2.4V | 08:27:05 | 01:38:12 | 00:00:00 | |
| DL1XH-15 | 2026-09-04 00:35:01 | 56.62159 | 5.75202 | 80° | 71km/h | 16522m | -21.7m/s | -50.7°C | 3.4% | 98.6hPa | 2.4V | 08:26:45 | 01:38:05 | 00:00:00 | |
| DL1XH-west | 2026-09-04 00:34:53 | 56.62147 | 5.75075 | 81° | 71km/h | 16611m | -23.7m/s | -50°C | 0% | 97.3hPa | 2.5V | 08:27:05 | 01:38:01 | 00:00:00 | |
| DM0DOS-11 | 2026-09-04 00:34:50 | 56.62136 | 5.74907 | 85° | 75km/h | 16721m | -24.2m/s | -49.9°C | 3.1% | 95.7hPa | 2.4V | 08:26:54 | 01:37:56 | 00:00:00 | |
| DJ2DS-15 | 2026-09-04 00:34:45 | 56.62134 | 5.74839 | 87° | 73km/h | 16769m | -24.7m/s | -49.9°C | 0.7% | 95.0hPa | 2.4V | 00:00:00 | 00:00:00 | 00:00:00 | |
| DL1XH-west | 2026-09-04 00:34:41 | 56.62133 | 5.74705 | 90° | 69km/h | 16860m | -22.6m/s | -49.3°C | 0% | 93.7hPa | 2.4V | 08:27:05 | 01:37:50 | 00:00:00 | |
| DL1XH-west | 2026-09-04 00:34:30 | 56.62143 | 5.74365 | 94° | 68km/h | 17114m | -24m/s | -50°C | 0% | 90.1hPa | 2.4V | 08:27:56 | 01:37:39 | 00:00:00 | |
| DM0DOS-11 | 2026-09-04 00:34:29 | 56.62149 | 5.74243 | 94° | 68km/h | 17204m | -21.4m/s | -50.7°C | 3.2% | 88.8hPa | 2.4V | 08:27:15 | 01:37:35 | 00:00:00 | |
| DL1XH-15 | 2026-09-04 00:34:26 | 56.62152 | 5.74181 | 95° | 66km/h | 17250m | -24.2m/s | -51°C | 3.2% | 88.3hPa | 2.4V | 08:27:17 | 01:37:33 | 00:00:00 | |
| BIOWL1-15 | 2026-09-04 00:34:21 | 56.62161 | 5.74059 | 99° | 66km/h | 17349m | -23.7m/s | -51.4°C | 0% | 86.9hPa | 2.5V | 08:27:56 | 01:37:29 | 00:00:00 | |
| DL1XH-west | 2026-09-04 00:34:19 | 56.62163 | 5.74030 | 100° | 64km/h | 17372m | -23.9m/s | -51.5°C | 0% | 86.6hPa | 2.5V | 08:27:56 | 01:37:28 | 00:00:00 | |
| DM0DOS-11 | 2026-09-04 00:34:18 | 56.62172 | 5.73945 | 102° | 60km/h | 17443m | -25.3m/s | -51.7°C | 3.4% | 85.6hPa | 2.4V | 08:27:25 | 01:37:25 | 00:00:00 | |
| BIOWL1-15 | 2026-09-04 00:34:11 | 56.62193 | 5.73817 | 113° | 58km/h | 17581m | -28.6m/s | -50.9°C | 0% | 83.9hPa | 2.5V | 08:27:56 | 01:37:20 | 00:00:00 | |
| DL1XH-west | 2026-09-04 00:34:09 | 56.62204 | 5.73768 | 114° | 57km/h | 17635m | -25.8m/s | -51°C | 0% | 83.2hPa | 2.4V | 08:27:56 | 01:37:18 | 00:00:00 | |
| DM0DOS-11 | 2026-09-04 00:34:08 | 56.62222 | 5.73701 | 117° | 53km/h | 17713m | -24.8m/s | -51.5°C | 3.4% | 82.2hPa | 2.4V | 08:27:35 | 01:37:15 | 00:00:00 | |
| BIOWL1-15 | 2026-09-04 00:34:00 | 56.62263 | 5.73553 | 112° | 38km/h | 17907m | -22.9m/s | -51°C | 0% | 79.7hPa | 2.4V | 08:27:56 | 01:37:07 | 00:00:00 | |
| DL1XH-west | 2026-09-04 00:33:59 | 56.62259 | 5.73570 | 111° | 40km/h | 17884m | -24.1m/s | -51°C | 0% | 80hPa | 2.4V | 08:27:56 | 01:37:08 | 00:00:00 | |
| DM0DOS-11 | 2026-09-04 00:33:58 | 56.62270 | 5.73520 | 109° | 35km/h | 17953m | -24.7m/s | -51.3°C | 3.4% | 79.2hPa | 2.5V | 08:27:45 | 01:37:05 | 00:00:00 | |
| BIOWL7-15 | 2026-09-04 00:33:52 | 56.62277 | 5.73474 | 106° | 35km/h | 18028m | -24.8m/s | -51.8°C | 0% | 78.2hPa | 2.4V | 08:27:00 | 00:00:00 | 00:00:00 | |
| DM0DOS-11 | 2026-09-04 00:33:48 | 56.62278 | 5.73380 | 72° | 31km/h | 18218m | -28.9m/s | -50.8°C | 3.2% | 76hPa | 2.4V | 08:27:55 | 01:36:55 | 00:00:00 | |
| DL1XH-west | 2026-09-04 00:33:48 | 56.62280 | 5.73393 | 78° | 31km/h | 18189m | -29.4m/s | -51.2°C | 0% | 76.4hPa | 2.5V | 08:27:56 | 01:36:56 | 00:00:00 | |
| DJ2DS-15 | 2026-09-04 00:33:46 | 56.62278 | 5.73380 | 73° | 47km/h | 18218m | -28.8m/s | -50.8°C | 3.2% | 75.9hPa | 2.4V | 00:00:00 | 01:36:55 | 00:00:00 | |
| DM0DOS-11 | 2026-09-04 00:33:38 | 56.62233 | 5.73211 | 67° | 49km/h | 18482m | -26.9m/s | -51.5°C | 3.4% | 72.9hPa | 2.4V | 08:28:05 | 01:36:45 | 00:00:00 | |
| DL1XH-west | 2026-09-04 00:33:37 | 56.62233 | 5.73211 | 68° | 49km/h | 18482m | -27m/s | -51.5°C | 0% | 72.9hPa | 2.4V | 08:28:47 | 01:36:45 | 00:00:00 | |
| DL1XH-15 | 2026-09-04 00:33:37 | 56.62212 | 5.73098 | 74° | 57km/h | 18616m | -23.5m/s | -51°C | 3.2% | 71.4hPa | 2.5V | 08:28:10 | 01:36:40 | 00:00:00 | |
| BIOWL9-15 | 2026-09-04 00:33:30 | 56.62206 | 5.73048 | 77° | 55km/h | 18662m | -23.8m/s | -51.3°C | 0.7% | 71.0hPa | 2.4V | 00:00:00 | 00:00:00 | 00:00:00 | |
| DM0DOS-11 | 2026-09-04 00:33:28 | 56.62197 | 5.72971 | 80° | 57km/h | 18733m | -23.5m/s | -51.8°C | 3.4% | 70.2hPa | 2.4V | 08:28:15 | 01:36:35 | 00:00:00 | |
| DL1XH-west | 2026-09-04 00:33:26 | 56.62195 | 5.72944 | 83° | 60km/h | 18757m | -25.1m/s | -51.9°C | 0% | 70hPa | 2.5V | 08:28:47 | 01:36:34 | 00:00:00 | |
| BIOWL1-15 | 2026-09-04 00:33:26 | 56.62197 | 5.72971 | 81° | 57km/h | 18733m | -23.5m/s | -51.8°C | 0% | 70.2hPa | 2.4V | 08:29:38 | 01:36:35 | 00:00:00 | |
| DL1XH-15 | 2026-09-04 00:33:26 | 56.62188 | 5.72836 | 85° | 58km/h | 18850m | -22.3m/s | -51.7°C | 3.5% | 68.9hPa | 2.4V | 08:28:20 | 01:36:30 | 00:00:00 | |
| DJ2DS-15 | 2026-09-04 00:33:26 | 56.62197 | 5.72971 | 81° | 51km/h | 18734m | -23.5m/s | -51.8°C | 3.4% | 70.1hPa | 2.5V | 00:00:00 | 01:36:35 | 00:00:00 | |
| DM0DOS-11 | 2026-09-04 00:33:17 | 56.62181 | 5.72712 | 85° | 49km/h | 18963m | -23.9m/s | -52°C | 3.7% | 67.7hPa | 2.5V | 08:28:25 | 01:36:25 | 00:00:00 | |
| DL1XH-west | 2026-09-04 00:33:14 | 56.62177 | 5.72646 | 84° | 46km/h | 19036m | -24.3m/s | -51.7°C | 0% | 67hPa | 2.4V | 08:28:47 | 01:36:22 | 00:00:00 | |
| DL1XH-15 | 2026-09-04 00:33:14 | 56.62173 | 5.72605 | 77° | 46km/h | 19087m | -26.8m/s | -51.6°C | 3.5% | 66.5hPa | 2.4V | 08:28:30 | 01:36:20 | 00:00:00 | |
| DM0DOS-11 | 2026-09-04 00:33:08 | 56.62162 | 5.72500 | 84° | 47km/h | 19228m | -28.9m/s | -51.8°C | 3.6% | 65hPa | 2.4V | 08:28:35 | 01:36:15 | 00:00:00 | |
| DJ2DS-15 | 2026-09-04 00:33:06 | 56.62162 | 5.72500 | 85° | 44km/h | 19228m | -28.9m/s | -51.8°C | 3.6% | 65.0hPa | 2.5V | 00:00:00 | 01:36:15 | 00:00:00 | |
| DL1XH-15 | 2026-09-04 00:33:04 | 56.62162 | 5.72390 | 97° | 49km/h | 19349m | -24.6m/s | -51.3°C | 3.4% | 63.8hPa | 2.5V | 08:28:40 | 01:36:10 | 00:00:00 | |
| DL1XH-west | 2026-09-04 00:33:02 | 56.62161 | 5.72412 | 96° | 49km/h | 19326m | -23.8m/s | -51.5°C | 0% | 64hPa | 2.4V | 08:28:47 | 01:36:11 | 00:00:00 | |
| DM0DOS-11 | 2026-09-04 00:32:57 | 56.62174 | 5.72280 | 101° | 47km/h | 19473m | -23.9m/s | -51°C | 3.3% | 62.6hPa | 2.4V | 08:28:45 | 01:36:05 | 00:00:00 | |
| DL1XH-15 | 2026-09-04 00:32:54 | 56.62190 | 5.72189 | 110° | 37km/h | 19597m | -25.8m/s | -50.4°C | 3.1% | 61.4hPa | 2.5V | 08:28:50 | 01:36:00 | 00:00:00 | |
| DL1XH-west | 2026-09-04 00:32:52 | 56.62187 | 5.72205 | 111° | 38km/h | 19572m | -25.6m/s | -50.4°C | 0% | 61.6hPa | 2.5V | 08:29:38 | 01:36:01 | 00:00:00 | |
| DM0DOS-11 | 2026-09-04 00:32:47 | 56.62205 | 5.72122 | 117° | 27km/h | 19722m | -24.8m/s | -50.5°C | 3.1% | 60.2hPa | 2.4V | 08:28:55 | 01:35:55 | 00:00:00 | |
| DJ2DS-15 | 2026-09-04 00:32:46 | 56.62205 | 5.72122 | 118° | 31km/h | 19722m | -24.7m/s | -50.4°C | 3.1% | 60.2hPa | 2.4V | 00:00:00 | 01:35:55 | 00:00:00 | |
| DL1XH-15 | 2026-09-04 00:32:44 | 56.62219 | 5.72039 | 88° | 27km/h | 19926m | -26.6m/s | -51.2°C | 3.4% | 58.4hPa | 2.4V | 08:29:03 | 01:35:47 | 00:00:00 | |
| DL1XH-west | 2026-09-04 00:32:42 | 56.62217 | 5.72071 | 107° | 22km/h | 19846m | -26.3m/s | -51.1°C | 0% | 59hPa | 2.4V | 08:29:38 | 01:35:50 | 00:00:00 | |
| GOEST3-10 | 2026-09-04 00:32:34 | 56.62220 | 5.71982 | 95° | 37km/h | 20028m | -26.1m/s | -51.4°C | 3.5% | 57.4hPa | 2.4V | 00:00:00 | 01:35:43 | 00:00:00 | |
| DL1XH-15 | 2026-09-04 00:32:33 | 56.62228 | 5.71898 | 105° | 38km/h | 20160m | -27m/s | -51.7°C | 3.5% | 56.3hPa | 2.5V | 08:29:12 | 01:35:38 | 00:00:00 | |
| DL1XH-west | 2026-09-04 00:32:31 | 56.62223 | 5.71931 | 100° | 38km/h | 20106m | -27.9m/s | -51.7°C | 0% | 56.8hPa | 2.4V | 08:29:38 | 01:35:40 | 00:00:00 | |
| GOEST3-10 | 2026-09-04 00:32:29 | 56.62227 | 5.71898 | 106° | 37km/h | 20160m | -27.0m/s | -51.7°C | 3.5% | 56.2hPa | 2.4V | 00:00:00 | 00:00:00 | 00:00:00 | |
| DM0DOS-11 | 2026-09-04 00:32:27 | 56.62235 | 5.71849 | 107° | 37km/h | 20239m | -27.5m/s | -51.5°C | 3.5% | 55.6hPa | 2.4V | 08:29:15 | 01:35:35 | 00:00:00 | |
| BIOWL1-15 | 2026-09-04 00:32:25 | 56.62241 | 5.71818 | 106° | 37km/h | 20292m | -26.6m/s | -51.5°C | 0% | 55.1hPa | 2.5V | 08:29:38 | 01:35:33 | 00:00:00 | |
| DL1XH-15 | 2026-09-04 00:32:23 | 56.62258 | 5.71747 | 118° | 31km/h | 20429m | -27.2m/s | -51.3°C | 3.4% | 54hPa | 2.4V | 08:29:22 | 01:35:28 | 00:00:00 | |
| DL1XH-west | 2026-09-04 00:32:21 | 56.62254 | 5.71760 | 114° | 31km/h | 20402m | -26.5m/s | -51.5°C | 0% | 54.3hPa | 2.4V | 08:29:38 | 01:35:29 | 00:00:00 | |
| DJ2DS-15 | 2026-09-04 00:32:21 | 56.62254 | 5.71760 | 113° | 31km/h | 20402m | -26.5m/s | -51.5°C | 0.7% | 54.3hPa | 2.5V | 00:00:00 | 00:00:00 | 00:00:00 | |
| DM0DOS-11 | 2026-09-04 00:32:19 | 56.62270 | 5.71713 | 122° | 26km/h | 20507m | -25.5m/s | -51°C | 3.3% | 53.3hPa | 2.5V | 08:29:25 | 01:35:25 | 00:00:00 | |
| GOEST3-10 | 2026-09-04 00:32:18 | 56.62262 | 5.71734 | 122° | 27km/h | 20455m | -26.0m/s | -51.1°C | 3.4% | 53.7hPa | 2.5V | 00:00:00 | 00:00:00 | 00:00:00 | |
| DL1XH-15 | 2026-09-04 00:32:13 | 56.62282 | 5.71658 | 81° | 16km/h | 20693m | -25.9m/s | -51.1°C | 3.4% | 51.8hPa | 2.4V | 08:29:32 | 01:35:18 | 00:00:00 | |
| DL1XH-west | 2026-09-04 00:32:10 | 56.62282 | 5.71658 | 82° | 16km/h | 20693m | -25.9m/s | -51.1°C | 0% | 51.8hPa | 2.4V | 08:29:38 | 01:35:18 | 00:00:00 | |
| GOEST3-10 | 2026-09-04 00:32:08 | 56.62281 | 5.71650 | 83° | 18km/h | 20720m | -27.6m/s | -51.1°C | 3.4% | 51.6hPa | 2.5V | 00:00:00 | 00:00:00 | 00:00:00 | |
| DM0DOS-11 | 2026-09-04 00:32:07 | 56.62279 | 5.71636 | 71° | 20km/h | 20774m | -28.7m/s | -51.2°C | 3.4% | 51.2hPa | 2.5V | 08:29:35 | 01:35:15 | 00:00:00 | |
| DJ2DS-15 | 2026-09-04 00:32:06 | 56.62279 | 5.71636 | 72° | 26km/h | 20774m | -28.6m/s | -51.2°C | 3.4% | 51.2hPa | 2.5V | 00:00:00 | 01:35:15 | 00:00:00 | |
| DL1XH-15 | 2026-09-04 00:32:03 | 56.62265 | 5.71577 | 64° | 22km/h | 20953m | -29.5m/s | -51.7°C | 3.5% | 49.8hPa | 2.5V | 08:30:00 | 01:35:08 | 00:00:00 | |
| BIOWL1-15 | 2026-09-04 00:32:02 | 56.62272 | 5.71602 | 66° | 20km/h | 20873m | -25.7m/s | -51.7°C | 0% | 50.4hPa | 2.4V | 18:12:15 | 01:35:11 | 00:00:00 | |
| DM0DOS-11 | 2026-09-04 00:31:59 | 56.62258 | 5.71549 | 64° | 22km/h | 21048m | -31.9m/s | -51.3°C | 3.4% | 49.1hPa | 2.4V | 08:30:00 | 01:35:05 | 00:00:00 | |
| DL1XH-west | 2026-09-04 00:31:58 | 56.62263 | 5.71568 | 69° | 22km/h | 20984m | -31.9m/s | -51.6°C | 0% | 49.6hPa | 2.4V | 18:12:15 | 01:35:07 | 00:00:00 | |
| GOEST3-10 | 2026-09-04 00:31:58 | 56.62263 | 5.71568 | 70° | 24km/h | 20984m | -31.8m/s | -51.6°C | 3.5% | 49.5hPa | 2.5V | 00:00:00 | 00:00:00 | 00:00:00 | |
| DL1XH-15 | 2026-09-04 00:31:53 | 56.62236 | 5.71467 | 67° | 35km/h | 21238m | -26.6m/s | -51.1°C | 3.3% | 47.6hPa | 2.5V | 08:30:00 | 01:34:58 | 00:00:00 | |
| GOEST3-10 | 2026-09-04 00:31:53 | 56.62250 | 5.71519 | 62° | 31km/h | 21131m | -28.2m/s | -51.2°C | 3.4% | 48.4hPa | 2.4V | 00:00:00 | 01:35:02 | 00:00:00 | |
| DM0DOS-11 | 2026-09-04 00:31:49 | 56.62227 | 5.71422 | 74° | 35km/h | 21314m | -24.7m/s | -51.2°C | 3.4% | 47hPa | 2.4V | 08:30:00 | 01:34:55 | 00:00:00 | |
| DL1XH-west | 2026-09-04 00:31:47 | 56.62229 | 5.71437 | 70° | 35km/h | 21290m | -26.3m/s | -51.1°C | 0% | 47.3hPa | 2.4V | 18:12:15 | 01:34:56 | 00:00:00 | |
| DJ2DS-15 | 2026-09-04 00:31:46 | 56.62227 | 5.71422 | 75° | 31km/h | 21314m | -24.6m/s | -51.2°C | 3.4% | 47.0hPa | 2.4V | 00:00:00 | 01:34:55 | 08:30:00 | |
| GOEST3-10 | 2026-09-04 00:31:43 | 56.62220 | 5.71377 | 80° | 31km/h | 21389m | -24.3m/s | -51.2°C | 3.4% | 46.5hPa | 2.4V | 00:00:00 | 01:34:52 | 00:00:00 | |
| DM0DOS-11 | 2026-09-04 00:31:38 | 56.62222 | 5.71283 | 98° | 27km/h | 21573m | -28.2m/s | -51.3°C | 3.4% | 45.2hPa | 2.4V | 08:30:00 | 01:34:45 | 00:00:00 | |
| DL1XH-west | 2026-09-04 00:31:36 | 56.62222 | 5.71283 | 98° | 27km/h | 21573m | -28.2m/s | -51.3°C | 0% | 45.2hPa | 2.4V | 18:12:15 | 01:34:45 | 00:00:00 | |
| GOEST3-10 | 2026-09-04 00:31:33 | 56.62225 | 5.71246 | 95° | 29km/h | 21658m | -28.1m/s | -51.1°C | 3.5% | 44.6hPa | 2.5V | 00:00:00 | 01:34:42 | 00:00:00 | |
| DM0DOS-11 | 2026-09-04 00:31:28 | 56.62219 | 5.71146 | 82° | 38km/h | 21851m | -26.9m/s | -51.2°C | 3.4% | 43.4hPa | 2.5V | 08:30:00 | 01:34:35 | 00:00:00 | |
| DL1XH-west | 2026-09-04 00:31:26 | 56.62219 | 5.71146 | 82° | 38km/h | 21851m | -26.9m/s | -51.3°C | 0% | 43.4hPa | 2.5V | 18:12:15 | 01:34:35 | 00:00:00 | |
| BIOWL1-15 | 2026-09-04 00:31:24 | 56.62233 | 5.70928 | 105° | 24km/h | 22193m | -11.1m/s | -51.1°C | 0% | 41.1hPa | 2.4V | 18:12:15 | 01:34:21 | 00:00:00 | |
| GOEST3-10 | 2026-09-04 00:31:23 | 56.62216 | 5.71093 | 89° | 40km/h | 21926m | -26.5m/s | -51.1°C | 3.3% | 42.8hPa | 2.4V | 00:00:00 | 01:34:32 | 00:00:00 | |
| DL1XH-15 | 2026-09-04 00:31:21 | 56.62221 | 5.71004 | 102° | 35km/h | 22061m | -26.6m/s | -51.2°C | 3.2% | 41.9hPa | 2.4V | 08:30:00 | 01:34:27 | 00:00:00 | |
| GOEST3-10 | 2026-09-04 00:31:18 | 56.62221 | 5.71004 | 103° | 31km/h | 22061m | -26.6m/s | -51.2°C | 3.2% | 41.9hPa | 2.4V | 00:00:00 | 00:00:00 | 08:30:00 | |
| DM0DOS-11 | 2026-09-04 00:31:17 | 56.62225 | 5.70976 | 106° | 29km/h | 22114m | -24.3m/s | -51.3°C | 3.2% | 41.6hPa | 2.5V | 08:30:00 | 01:34:25 | 00:00:00 | |
| DL1XH-west | 2026-09-04 00:31:16 | 56.62227 | 5.70963 | 108° | 29km/h | 22137m | -22.6m/s | -51.3°C | 0% | 41.4hPa | 2.5V | 18:12:15 | 01:34:24 | 00:00:00 | |
| BIOWL1-15 | 2026-09-04 00:31:14 | 56.62240 | 5.70888 | 110° | 26km/h | 22188m | 3.5m/s | -51.2°C | 0% | 41.1hPa | 2.4V | 18:12:15 | 01:34:17 | 00:00:00 | |
| GOEST3-10 | 2026-09-04 00:31:13 | 56.62231 | 5.70939 | 107° | 24km/h | 22179m | -18.1m/s | -51.1°C | 3.3% | 41.1hPa | 2.4V | 00:00:00 | 01:34:22 | 00:00:00 | |
| DM0DOS-11 | 2026-09-04 00:31:07 | 56.62244 | 5.70863 | 107° | 33km/h | 22178m | 4.8m/s | -51.3°C | 3.4% | 41.1hPa | 2.4V | 08:30:00 | 01:34:15 | 00:00:00 | |
| DL1XH-west | 2026-09-04 00:31:05 | 56.62250 | 5.70832 | 114° | 38km/h | 22168m | 5.3m/s | -51.4°C | 0% | 41.2hPa | 2.5V | 18:12:15 | 01:34:13 | 00:00:00 | |
| DL1XH-15 | 2026-09-04 00:31:03 | 56.62275 | 5.70734 | 106° | 35km/h | 22140m | 4.9m/s | -51.5°C | 3.5% | 41.4hPa | 2.4V | 08:30:00 | 01:34:07 | 00:00:00 | |
| GOEST3-10 | 2026-09-04 00:31:03 | 56.62255 | 5.70816 | 119° | 38km/h | 22164m | 4.2m/s | -51.4°C | 3.5% | 41.2hPa | 2.4V | 00:00:00 | 01:34:12 | 00:00:00 | |
| DM0DOS-11 | 2026-09-04 00:31:01 | 56.62278 | 5.70704 | 101° | 33km/h | 22130m | 4m/s | -51.4°C | 3.4% | 41.4hPa | 2.4V | 08:30:00 | 01:34:05 | 00:00:00 | |
| BIOWL1-15 | 2026-09-04 00:30:59 | 56.62283 | 5.70637 | 103° | 40km/h | 22111m | 4.9m/s | -51.5°C | 0% | 0hPa | 2.4V | 18:12:15 | 01:34:01 | 00:00:00 | |
| DL1XH-west | 2026-09-04 00:30:53 | 56.62282 | 5.70655 | 97° | 38km/h | 22116m | 4.4m/s | -51.5°C | 0% | 41.5hPa | 2.5V | 18:12:15 | 01:34:02 | 00:00:00 | |
| GOEST3-10 | 2026-09-04 00:30:52 | 56.62283 | 5.70637 | 103° | 44km/h | 22111m | 4.8m/s | -51.5°C | 3.5% | 41.5hPa | 2.4V | 00:00:00 | 01:34:01 | 00:00:00 | |
| DL1XH-15 | 2026-09-04 00:30:50 | 56.62299 | 5.70520 | 102° | 46km/h | 22084m | 5m/s | -51.4°C | 3.5% | 41.7hPa | 2.4V | 08:30:00 | 01:33:55 | 00:00:00 | |
| BIOWL1-15 | 2026-09-04 00:30:47 | 56.62299 | 5.70520 | 102° | 46km/h | 22084m | 5m/s | -51.4°C | 0% | 0hPa | 2.4V | 18:12:15 | 01:33:55 | 00:00:00 | |
| DL1XH-west | 2026-09-04 00:30:43 | 56.62306 | 5.70460 | 100° | 44km/h | 22069m | 5.4m/s | -51.4°C | 0% | 41.8hPa | 2.5V | 18:12:15 | 01:33:52 | 00:00:00 | |
| GOEST3-10 | 2026-09-04 00:30:42 | 56.62307 | 5.70440 | 94° | 40km/h | 22064m | 4.5m/s | -51.4°C | 3.5% | 41.8hPa | 2.4V | 00:00:00 | 01:33:51 | 00:00:00 | |
| DL1XH-15 | 2026-09-04 00:30:37 | 56.62311 | 5.70335 | 92° | 38km/h | 22037m | 5.1m/s | -51.4°C | 3.5% | 42hPa | 2.4V | 08:30:00 | 01:33:45 | 00:00:00 | |
| BIOWL1-15 | 2026-09-04 00:30:36 | 56.62311 | 5.70317 | 91° | 40km/h | 22032m | 4.5m/s | -51.4°C | 0% | 0hPa | 2.4V | 18:12:15 | 01:33:44 | 00:00:00 | |
| DL1XH-west | 2026-09-04 00:30:34 | 56.62312 | 5.70262 | 94° | 38km/h | 22018m | 4m/s | -51.3°C | 0% | 42.1hPa | 2.5V | 18:12:15 | 01:33:41 | 00:00:00 | |
| GOEST3-10 | 2026-09-04 00:30:34 | 56.62312 | 5.70262 | 94° | 40km/h | 22018m | 4.0m/s | -51.3°C | 3.4% | 42.1hPa | 2.5V | 00:00:00 | 01:33:41 | 08:30:00 | |
| DM0DOS-11 | 2026-09-04 00:30:30 | 56.62315 | 5.70153 | 91° | 35km/h | 21990m | 4.3m/s | -51.2°C | 3.4% | 42.3hPa | 2.5V | 08:30:00 | 01:33:35 | 00:00:00 | |
| BIOWL1-15 | 2026-09-04 00:30:28 | 56.62304 | 5.70003 | 82° | 40km/h | 21948m | 4.2m/s | 0°C | 0% | 0hPa | 2.4V | 18:12:15 | 01:33:26 | 00:00:00 | |
| DL1XH-west | 2026-09-04 00:30:23 | 56.62312 | 5.70087 | 82° | 37km/h | 21972m | 4.5m/s | -51.2°C | 0% | 42.5hPa | 2.4V | 18:12:15 | 01:33:31 | 00:00:00 | |
| BIOWL1-15 | 2026-09-04 00:30:22 | 56.62303 | 5.69985 | 84° | 38km/h | 21943m | 5.3m/s | 0°C | 0% | 0hPa | 2.5V | 18:12:15 | 01:33:25 | 00:00:00 | |
| GOEST3-10 | 2026-09-04 00:30:21 | 56.62310 | 5.70071 | 81° | 37km/h | 21967m | 5.0m/s | -51.2°C | 3.4% | 42.5hPa | 2.5V | 00:00:00 | 01:33:30 | 00:00:00 | |
| DM0DOS-11 | 2026-09-04 00:30:18 | 56.62303 | 5.69985 | 84° | 38km/h | 21943m | 5.3m/s | -51.5°C | 3.5% | 42.6hPa | 2.5V | 08:30:00 | 01:33:25 | 00:00:00 | |
| DL1XH-west | 2026-09-04 00:30:12 | 56.62298 | 5.69913 | 80° | 40km/h | 21922m | 4m/s | -51.5°C | 0% | 42.8hPa | 2.4V | 18:12:15 | 01:33:21 | 00:00:00 | |
| BIOWL1-15 | 2026-09-04 00:30:06 | 56.62278 | 5.69785 | 76° | 35km/h | 21884m | 4.9m/s | 0°C | 0% | 0hPa | 2.5V | 18:12:15 | 01:33:13 | 00:00:00 | |
| DL1XH-west | 2026-09-04 00:30:02 | 56.62272 | 5.69737 | 77° | 38km/h | 21869m | 4m/s | -51.5°C | 0% | 43.1hPa | 2.4V | 18:12:15 | 01:33:10 | 00:00:00 | |
| DL1XH-15 | 2026-09-04 00:29:57 | 56.62260 | 5.69644 | 76° | 33km/h | 21841m | 3.7m/s | -51.2°C | 3.4% | 43.3hPa | 2.4V | 08:30:00 | 01:33:04 | 00:00:00 | |
| DM0DOS-11 | 2026-09-04 00:29:51 | 56.62241 | 5.69521 | 74° | 24km/h | 21793m | 4.7m/s | -51.5°C | 3.5% | 43.6hPa | 2.4V | 08:30:00 | 01:32:54 | 00:00:00 | |
| DL1XH-west | 2026-09-04 00:29:50 | 56.62251 | 5.69579 | 76° | 31km/h | 21817m | 4.2m/s | -51.3°C | 0% | 43.5hPa | 2.4V | 18:12:15 | 01:32:59 | 00:00:00 | |
| BIOWL1-15 | 2026-09-04 00:29:49 | 56.62249 | 5.69565 | 75° | 29km/h | 21813m | 4m/s | 0°C | 0% | 0hPa | 2.4V | 18:12:15 | 01:32:58 | 00:00:00 | |
| DL1XH-15 | 2026-09-04 00:29:46 | 56.62239 | 5.69510 | 78° | 26km/h | 21788m | 5.2m/s | -51.5°C | 3.6% | 43.7hPa | 2.4V | 08:30:00 | 01:32:53 | 00:00:00 | |
| GOEST3-10 | 2026-09-04 00:29:46 | 56.62241 | 5.69521 | 75° | 29km/h | 21793m | 4.6m/s | -51.5°C | 3.5% | 43.6hPa | 2.4V | 00:00:00 | 00:00:00 | 00:00:00 | |
| DM0DOS-11 | 2026-09-04 00:29:40 | 56.62243 | 5.69398 | 100° | 22km/h | 21742m | 4.5m/s | -51.2°C | 3.5% | 44hPa | 2.4V | 08:30:00 | 01:32:44 | 00:00:00 | |
| DL1XH-west | 2026-09-04 00:29:40 | 56.62238 | 5.69462 | 96° | 27km/h | 21767m | 4.7m/s | -51.3°C | 0% | 43.8hPa | 2.4V | 18:12:15 | 01:32:49 | 00:00:00 | |
| GOEST3-10 | 2026-09-04 00:29:32 | 56.62245 | 5.69370 | 89° | 22km/h | 21728m | 4.9m/s | -51.2°C | 3.4% | 44.0hPa | 2.4V | 00:00:00 | 00:00:00 | 00:00:00 | |
| DL1XH-15 | 2026-09-04 00:29:30 | 56.62245 | 5.69338 | 89° | 22km/h | 21714m | 5.2m/s | -51.2°C | 3.4% | 44.1hPa | 2.4V | 08:30:00 | 01:32:38 | 00:00:00 | |
| DL1XH-west | 2026-09-04 00:29:30 | 56.62245 | 5.69338 | 90° | 22km/h | 21714m | 5.2m/s | -51.2°C | 0% | 44.1hPa | 2.4V | 18:12:15 | 01:32:38 | 00:00:00 | |
| DJ2DS-15 | 2026-09-04 00:29:26 | 56.62245 | 5.69306 | 93° | 27km/h | 21700m | 5.6m/s | -51.2°C | 3.4% | 44.2hPa | 2.4V | 00:00:00 | 01:32:35 | 00:00:00 | |
| DL1XH-15 | 2026-09-04 00:29:20 | 56.62254 | 5.69219 | 111° | 26km/h | 21665m | 3.7m/s | -51.3°C | 3.4% | 44.5hPa | 2.4V | 08:30:00 | 01:32:28 | 00:00:00 | |
| DL1XH-west | 2026-09-04 00:29:19 | 56.62258 | 5.69200 | 114° | 20km/h | 21655m | 4.8m/s | -51.5°C | 0% | 44.6hPa | 2.4V | 18:12:15 | 01:32:26 | 00:00:00 | |
| DM0DOS-11 | 2026-09-04 00:29:16 | 56.62262 | 5.69182 | 108° | 22km/h | 21646m | 5m/s | -51.5°C | 3.5% | 44.6hPa | 2.5V | 08:30:00 | 01:32:24 | 00:00:00 | |
| GOEST3-10 | 2026-09-04 00:29:15 | 56.62262 | 5.69182 | 109° | 26km/h | 21646m | 4.9m/s | -51.5°C | 3.5% | 44.6hPa | 2.4V | 00:00:00 | 01:32:24 | 00:00:00 | |
| DM0DOS-11 | 2026-09-04 00:29:11 | 56.62277 | 5.69052 | 119° | 27km/h | 21598m | 3.8m/s | -51.5°C | 3.5% | 45hPa | 2.4V | 08:30:00 | 01:32:14 | 00:00:00 | |
| DL1XH-15 | 2026-09-04 00:29:10 | 56.62269 | 5.69093 | 103° | 33km/h | 21612m | 4.8m/s | -51.6°C | 3.5% | 44.9hPa | 2.4V | 08:30:00 | 01:32:17 | 00:00:00 | |
| DL1XH-west | 2026-09-04 00:29:09 | 56.62267 | 5.69107 | 98° | 33km/h | 21617m | 5.5m/s | -51.6°C | 0% | 44.8hPa | 2.5V | 18:12:15 | 01:32:18 | 00:00:00 | |
| DJ2DS-15 | 2026-09-04 00:29:06 | 56.62274 | 5.69064 | 114° | 27km/h | 21603m | 5.2m/s | -51.5°C | 3.5% | 44.9hPa | 2.5V | 00:00:00 | 01:32:15 | 00:00:00 | |
| GOEST3-10 | 2026-09-04 00:29:04 | 56.62281 | 5.69041 | 122° | 29km/h | 21594m | 4.0m/s | -51.5°C | 3.5% | 44.9hPa | 2.5V | 00:00:00 | 01:32:13 | 00:00:00 | |
| DL1XH-15 | 2026-09-04 00:29:00 | 56.62293 | 5.68942 | 86° | 29km/h | 21555m | 4.2m/s | -51.4°C | 3.4% | 45.3hPa | 2.4V | 08:30:00 | 01:32:05 | 00:00:00 | |
| DM0DOS-11 | 2026-09-04 00:28:59 | 56.62292 | 5.68929 | 87° | 27km/h | 21551m | 3.5m/s | -51.3°C | 3.4% | 45.3hPa | 2.4V | 08:30:00 | 01:32:04 | 00:00:00 | |
| DL1XH-west | 2026-09-04 00:28:59 | 56.62294 | 5.68968 | 86° | 27km/h | 21565m | 4.8m/s | -51.4°C | 0% | 45.2hPa | 2.5V | 18:12:15 | 01:32:07 | 00:00:00 | |
| GOEST3-10 | 2026-09-04 00:28:54 | 56.62292 | 5.68917 | 88° | 26km/h | 21547m | 4.9m/s | -51.3°C | 3.4% | 45.3hPa | 2.4V | 00:00:00 | 01:32:03 | 00:00:00 | |
| DM0DOS-11 | 2026-09-04 00:28:51 | 56.62297 | 5.68812 | 89° | 29km/h | 21504m | 5.1m/s | -51°C | 3.4% | 45.6hPa | 2.4V | 08:30:00 | 01:31:54 | 00:00:00 | |
| DL1XH-15 | 2026-09-04 00:28:50 | 56.62297 | 5.68824 | 90° | 26km/h | 21509m | 4.5m/s | -51°C | 3.3% | 45.6hPa | 2.4V | 08:30:00 | 01:31:55 | 00:00:00 | |
| DL1XH-west | 2026-09-04 00:28:47 | 56.62297 | 5.68836 | 93° | 26km/h | 21513m | 3.7m/s | -51.1°C | 0% | 45.5hPa | 2.5V | 18:12:15 | 01:31:56 | 00:00:00 | |
| DJ2DS-15 | 2026-09-04 00:28:46 | 56.62297 | 5.68824 | 91° | 29km/h | 21509m | 4.5m/s | -51.0°C | 3.3% | 45.5hPa | 2.4V | 00:00:00 | 01:31:55 | 08:30:00 | |
| GOEST3-10 | 2026-09-04 00:28:44 | 56.62297 | 5.68798 | 87° | 27km/h | 21499m | 3.7m/s | -51.0°C | 3.4% | 45.6hPa | 2.5V | 00:00:00 | 01:31:53 | 00:00:00 | |
| DL1XH-15 | 2026-09-04 00:28:40 | 56.62291 | 5.68702 | 83° | 27km/h | 21463m | 5m/s | -51.3°C | 3.4% | 45.9hPa | 2.5V | 08:30:00 | 01:31:45 | 00:00:00 | |
| GOEST3-10 | 2026-09-04 00:28:39 | 56.62293 | 5.68739 | 86° | 27km/h | 21477m | 5.0m/s | -51.1°C | 3.4% | 45.8hPa | 2.4V | 00:00:00 | 00:00:00 | 00:00:00 | |
| DM0DOS-11 | 2026-09-04 00:28:38 | 56.62291 | 5.68690 | 79° | 27km/h | 21459m | 4.4m/s | -51.3°C | 3.5% | 45.9hPa | 2.4V | 08:30:00 | 01:31:44 | 00:00:00 | |
| DL1XH-west | 2026-09-04 00:28:37 | 56.62292 | 5.68715 | 83° | 27km/h | 21468m | 3.7m/s | -51.3°C | 0% | 45.9hPa | 2.5V | 18:12:15 | 01:31:46 | 00:00:00 | |
| GOEST3-10 | 2026-09-04 00:28:34 | 56.62289 | 5.68677 | 80° | 33km/h | 21455m | 4.0m/s | -51.2°C | 3.4% | 45.9hPa | 2.4V | 00:00:00 | 01:31:43 | 08:30:00 | |
| DM0DOS-11 | 2026-09-04 00:28:31 | 56.62280 | 5.68544 | 78° | 33km/h | 21413m | 4.1m/s | -51.4°C | 3.4% | 46.3hPa | 2.5V | 08:30:00 | 01:31:34 | 00:00:00 | |
| GOEST3-10 | 2026-09-04 00:28:29 | 56.62283 | 5.68601 | 86° | 31km/h | 21431m | 4.6m/s | -51.2°C | 3.4% | 46.1hPa | 2.5V | 00:00:00 | 00:00:00 | 00:00:00 | |
| DL1XH-15 | 2026-09-04 00:28:27 | 56.62281 | 5.68558 | 82° | 31km/h | 21417m | 4.8m/s | -51.3°C | 3.4% | 46.2hPa | 2.5V | 08:30:00 | 01:31:35 | 00:00:00 | |
| DL1XH-west | 2026-09-04 00:28:26 | 56.62281 | 5.68558 | 82° | 31km/h | 21417m | 4.8m/s | -51.3°C | 0% | 46.2hPa | 2.5V | 18:12:15 | 01:31:35 | 00:00:00 | |
| DJ2DS-15 | 2026-09-04 00:28:26 | 56.62281 | 5.68558 | 83° | 31km/h | 21418m | 4.8m/s | -51.3°C | 3.4% | 46.2hPa | 2.4V | 00:00:00 | 01:31:35 | 00:00:00 | |
| GOEST3-10 | 2026-09-04 00:28:24 | 56.62278 | 5.68530 | 77° | 29km/h | 21409m | 3.9m/s | -51.4°C | 3.5% | 46.2hPa | 2.4V | 00:00:00 | 01:31:33 | 00:00:00 | |
| DL1XH-15 | 2026-09-04 00:28:21 | 56.62262 | 5.68421 | 80° | 33km/h | 21371m | 3.8m/s | -51.5°C | 3.5% | 46.6hPa | 2.4V | 08:30:00 | 01:31:25 | 00:00:00 | |
| DM0DOS-11 | 2026-09-04 00:28:19 | 56.62260 | 5.68406 | 79° | 35km/h | 21366m | 5.2m/s | -51.5°C | 3.5% | 46.6hPa | 2.5V | 08:30:00 | 01:31:24 | 00:00:00 | |
| DL1XH-west | 2026-09-04 00:28:15 | 56.62261 | 5.68406 | 80° | 35km/h | 21366m | 5.2m/s | -51.5°C | 0% | 46.6hPa | 2.5V | 18:12:15 | 01:31:24 | 00:00:00 | |
| GOEST3-10 | 2026-09-04 00:28:14 | 56.62259 | 5.68389 | 78° | 33km/h | 21361m | 4.3m/s | -51.4°C | 3.5% | 46.6hPa | 2.4V | 00:00:00 | 01:31:23 | 00:00:00 | |
| DM0DOS-11 | 2026-09-04 00:28:11 | 56.62230 | 5.68270 | 67° | 31km/h | 21323m | 5.1m/s | -51.4°C | 3.4% | 46.9hPa | 2.4V | 08:30:00 | 01:31:14 | 00:00:00 | |
| GOEST3-10 | 2026-09-04 00:28:09 | 56.62243 | 5.68320 | 61° | 31km/h | 21341m | 3.8m/s | -51.4°C | 3.5% | 46.7hPa | 2.4V | 00:00:00 | 00:00:00 | 00:00:00 | |
| DJ2DS-15 | 2026-09-04 00:28:08 | 56.62239 | 5.68309 | 62° | 29km/h | 21336m | 4.8m/s | -51.4°C | 0.7% | 46.9hPa | 2.4V | 00:00:00 | 00:00:00 | 00:00:00 | |
| DL1XH-15 | 2026-09-04 00:28:07 | 56.62233 | 5.68283 | 66° | 31km/h | 21327m | 3.8m/s | -51.4°C | 3.5% | 46.9hPa | 2.4V | 08:30:00 | 01:31:15 | 00:00:00 | |
| DL1XH-west | 2026-09-04 00:28:04 | 56.62226 | 5.68257 | 67° | 29km/h | 21318m | 4.3m/s | -51.4°C | 0% | 47hPa | 2.5V | 18:12:15 | 01:31:13 | 00:00:00 | |
| GOEST3-10 | 2026-09-04 00:28:04 | 56.62226 | 5.68257 | 67° | 31km/h | 21318m | 4.3m/s | -51.3°C | 3.5% | 46.9hPa | 2.5V | 00:00:00 | 01:31:13 | 00:00:00 | |
| DL1XH-15 | 2026-09-04 00:28:01 | 56.62209 | 5.68145 | 79° | 33km/h | 21280m | 4.4m/s | -51.3°C | 3.4% | 47.2hPa | 2.4V | 08:30:00 | 01:31:05 | 00:00:00 | |
| DM0DOS-11 | 2026-09-04 00:28:01 | 56.62207 | 5.68130 | 78° | 33km/h | 21276m | 3.5m/s | -51.3°C | 3.4% | 47.3hPa | 2.4V | 08:30:00 | 01:31:04 | 00:00:00 | |
| DL1XH-west | 2026-09-04 00:27:53 | 56.62204 | 5.68104 | 76° | 27km/h | 21267m | 3.7m/s | -51.3°C | 0% | 47.3hPa | 2.5V | 18:12:15 | 01:31:02 | 00:00:00 | |
| GOEST3-10 | 2026-09-04 00:27:53 | 56.62204 | 5.68104 | 77° | 27km/h | 21267m | 3.6m/s | -51.2°C | 3.4% | 47.3hPa | 2.4V | 00:00:00 | 01:31:02 | 00:00:00 | |
| DM0DOS-11 | 2026-09-04 00:27:49 | 56.62181 | 5.68009 | 62° | 29km/h | 21231m | 5.1m/s | -51.4°C | 3.5% | 47.6hPa | 2.4V | 08:30:00 | 01:30:54 | 00:00:00 | |
| BIOWL9-15 | 2026-09-04 00:27:49 | 56.62191 | 5.68044 | 63° | 29km/h | 21245m | 4.5m/s | -51.4°C | 0.7% | 47.5hPa | 2.5V | 00:00:00 | 00:00:00 | 00:00:00 | |
| DL1XH-15 | 2026-09-04 00:27:47 | 56.62184 | 5.68020 | 62° | 27km/h | 21235m | 3.7m/s | -51.4°C | 3.5% | 47.6hPa | 2.5V | 08:30:00 | 01:30:55 | 00:00:00 | |
| BIOWL1-15 | 2026-09-04 00:27:42 | 56.62171 | 5.67973 | 64° | 27km/h | 21217m | 5.2m/s | -51.5°C | 0% | 47.7hPa | 2.5V | 18:12:15 | 01:30:51 | 00:00:00 | |
| DM0DOS-11 | 2026-09-04 00:27:40 | 56.62144 | 5.67900 | 52° | 26km/h | 21185m | 3.9m/s | -51.5°C | 3.5% | 47.9hPa | 2.5V | 08:30:00 | 01:30:44 | 00:00:00 | |
| DL1XH-west | 2026-09-04 00:27:32 | 56.62130 | 5.67860 | 63° | 24km/h | 21167m | 5.5m/s | -51.5°C | 0% | 48.1hPa | 2.5V | 18:12:15 | 01:30:40 | 00:00:00 | |
| BIOWL1-15 | 2026-09-04 00:27:32 | 56.62123 | 5.67833 | 64° | 24km/h | 21153m | 4.9m/s | -51.6°C | 0% | 48.1hPa | 2.4V | 18:12:15 | 01:30:37 | 00:00:00 | |
| GOEST3-10 | 2026-09-04 00:27:31 | 56.62130 | 5.67860 | 64° | 24km/h | 21167m | 5.4m/s | -51.5°C | 3.5% | 48.0hPa | 2.6V | 00:00:00 | 00:00:00 | 00:00:00 | |
| DM0DOS-11 | 2026-09-04 00:27:30 | 56.62115 | 5.67804 | 62° | 22km/h | 21141m | 4.7m/s | -51.6°C | 3.5% | 48.2hPa | 2.6V | 08:30:00 | 01:30:34 | 00:00:00 | |
| DL1XH-15 | 2026-09-04 00:27:27 | 56.62117 | 5.67813 | 61° | 24km/h | 21145m | 3.1m/s | -51.6°C | 3.5% | 48.2hPa | 2.4V | 08:30:00 | 01:30:35 | 00:00:00 | |
| DL1XH-west | 2026-09-04 00:27:22 | 56.62101 | 5.67766 | 47° | 18km/h | 21118m | 4.5m/s | -51.5°C | 0% | 48.5hPa | 2.5V | 18:12:15 | 01:30:29 | 00:00:00 | |
| DL1XH-15 | 2026-09-04 00:27:21 | 56.62089 | 5.67749 | 35° | 16km/h | 21099m | 4.4m/s | -51.5°C | 3.5% | 48.6hPa | 2.4V | 08:30:00 | 01:30:25 | 00:00:00 | |
| DM0DOS-11 | 2026-09-04 00:27:21 | 56.62086 | 5.67744 | 36° | 16km/h | 21096m | 3.3m/s | -51.6°C | 3.4% | 48.6hPa | 2.5V | 08:30:00 | 01:30:24 | 00:00:00 | |
| BIOWL1-15 | 2026-09-04 00:27:18 | 56.62092 | 5.67753 | 34° | 15km/h | 21104m | 4.5m/s | -51.5°C | 0% | 48.5hPa | 2.4V | 18:12:15 | 01:30:26 | 00:00:00 | |
| BIOWL9-15 | 2026-09-04 00:27:17 | 56.62092 | 5.67753 | 33° | 13km/h | 21104m | 4.5m/s | -51.5°C | 0.7% | 48.5hPa | 2.4V | 00:00:00 | 00:00:00 | 00:00:00 | |
| GOEST3-10 | 2026-09-04 00:27:14 | 56.62082 | 5.67740 | 39° | 15km/h | 21092m | 4.5m/s | -51.5°C | 3.5% | 48.6hPa | 2.4V | 00:00:00 | 01:30:23 | 00:00:00 | |
| DM0DOS-11 | 2026-09-04 00:27:10 | 56.62069 | 5.67687 | 75° | 15km/h | 21049m | 4.2m/s | -51.8°C | 3.5% | 48.9hPa | 2.4V | 08:30:00 | 01:30:14 | 00:00:00 | |
| DL1XH-west | 2026-09-04 00:27:09 | 56.62070 | 5.67699 | 84° | 13km/h | 21058m | 4.1m/s | -51.7°C | 0% | 48.9hPa | 2.4V | 18:12:15 | 01:30:16 | 00:00:00 | |
| DL1XH-15 | 2026-09-04 00:27:09 | 56.62070 | 5.67693 | 80° | 13km/h | 21053m | 4.8m/s | -51.8°C | 3.5% | 48.9hPa | 2.4V | 08:30:00 | 01:30:15 | 00:00:00 | |
| BIOWL1-15 | 2026-09-04 00:27:07 | 56.62068 | 5.67675 | 78° | 11km/h | 21040m | 4.9m/s | -51.9°C | 0% | 49hPa | 2.5V | 18:12:15 | 01:30:12 | 00:00:00 | |
| DJ2DS-15 | 2026-09-04 00:27:06 | 56.62070 | 5.67693 | 81° | 16km/h | 21054m | 4.7m/s | -51.7°C | 3.5% | 48.9hPa | 2.4V | 00:00:00 | 01:30:15 | 00:00:00 | |
| GOEST3-10 | 2026-09-04 00:27:03 | 56.62068 | 5.67675 | 78° | 11km/h | 21040m | 4.8m/s | -51.8°C | 3.5% | 48.9hPa | 2.4V | 00:00:00 | 01:30:12 | 00:00:00 | |
| DL1XH-15 | 2026-09-04 00:27:01 | 56.62062 | 5.67636 | 90° | 15km/h | 21009m | 3.5m/s | -52.1°C | 3.5% | 49.2hPa | 2.4V | 08:30:00 | 01:30:05 | 00:00:00 | |
| DL1XH-west | 2026-09-04 00:26:58 | 56.62062 | 5.67636 | 91° | 15km/h | 21009m | 3.6m/s | -52.1°C | 0% | 49.2hPa | 2.4V | 18:12:15 | 01:30:05 | 00:00:00 | |
| DM0DOS-11 | 2026-09-04 00:26:57 | 56.62062 | 5.67629 | 88° | 16km/h | 21005m | 4.2m/s | -52.1°C | 3.6% | 49.3hPa | 2.4V | 08:30:00 | 01:30:04 | 00:00:00 | |
| BIOWL1-15 | 2026-09-04 00:26:51 | 56.62059 | 5.67593 | 80° | 20km/h | 20986m | 4.8m/s | -52.3°C | 0% | 49.4hPa | 2.5V | 18:12:15 | 01:30:00 | 00:00:00 | |
| DM0DOS-11 | 2026-09-04 00:26:50 | 56.62047 | 5.67534 | 58° | 20km/h | 20960m | 4.6m/s | -52.1°C | 3.7% | 49.6hPa | 2.4V | 08:30:00 | 01:29:54 | 00:00:00 | |
| GOEST3-10 | 2026-09-04 00:26:48 | 56.62055 | 5.67564 | 73° | 22km/h | 20973m | 5.0m/s | -52.2°C | 3.7% | 49.5hPa | 2.5V | 00:00:00 | 00:00:00 | 00:00:00 | |
| DL1XH-15 | 2026-09-04 00:26:47 | 56.62050 | 5.67543 | 62° | 24km/h | 20964m | 3.5m/s | -52.2°C | 3.6% | 49.6hPa | 2.5V | 08:30:00 | 01:29:55 | 00:00:00 | |
| DL1XH-west | 2026-09-04 00:26:46 | 56.62047 | 5.67534 | 59° | 20km/h | 20960m | 4.6m/s | -52.1°C | 0% | 49.6hPa | 2.4V | 18:12:15 | 01:29:54 | 00:00:00 | |
| DJ2DS-15 | 2026-09-04 00:26:46 | 56.62050 | 5.67543 | 63° | 20km/h | 20965m | 3.4m/s | -52.1°C | 3.6% | 49.6hPa | 2.5V | 00:00:00 | 01:29:55 | 00:00:00 | |
| GOEST3-10 | 2026-09-04 00:26:43 | 56.62041 | 5.67521 | 51° | 20km/h | 20952m | 4.1m/s | -52.0°C | 3.6% | 49.6hPa | 2.5V | 00:00:00 | 01:29:52 | 00:00:00 | |
| DL1XH-15 | 2026-09-04 00:26:42 | 56.62017 | 5.67461 | 61° | 24km/h | 20916m | 3.6m/s | -52.1°C | 3.6% | 50hPa | 2.5V | 08:30:00 | 01:29:44 | 00:00:00 | |
| BIOWL1-15 | 2026-09-04 00:26:41 | 56.62020 | 5.67470 | 59° | 24km/h | 20920m | 4.2m/s | -52°C | 0% | 50hPa | 2.6V | 18:12:15 | 01:29:45 | 00:00:00 | |
| DL1XH-west | 2026-09-04 00:26:34 | 56.62015 | 5.67452 | 63° | 22km/h | 20911m | 4.9m/s | -52.1°C | 0% | 50hPa | 2.4V | 18:12:15 | 01:29:43 | 00:00:00 | |
| GOEST3-10 | 2026-09-04 00:26:33 | 56.62012 | 5.67443 | 65° | 18km/h | 20907m | 4.0m/s | -52.0°C | 3.6% | 50.0hPa | 2.6V | 00:00:00 | 01:29:42 | 00:00:00 | |
| DM0DOS-11 | 2026-09-04 00:26:30 | 56.61995 | 5.67386 | 51° | 20km/h | 20871m | 3.5m/s | -52°C | 3.6% | 50.3hPa | 2.6V | 08:30:00 | 01:29:34 | 00:00:00 | |
| BIOWL1-15 | 2026-09-04 00:26:29 | 56.61984 | 5.67361 | 53° | 15km/h | 20855m | 3.8m/s | -51.9°C | 0% | 50.5hPa | 2.4V | 18:12:15 | 01:29:30 | 00:00:00 | |
| GOEST3-10 | 2026-09-04 00:26:28 | 56.62002 | 5.67405 | 62° | 18km/h | 20885m | 4.1m/s | -52.0°C | 3.6% | 50.2hPa | 2.5V | 00:00:00 | 00:00:00 | 00:00:00 | |
| DL1XH-15 | 2026-09-04 00:26:27 | 56.61998 | 5.67393 | 54° | 18km/h | 20876m | 4.8m/s | -52°C | 3.6% | 50.3hPa | 2.5V | 08:30:00 | 01:29:35 | 00:00:00 | |
| DL1XH-west | 2026-09-04 00:26:24 | 56.61989 | 5.67372 | 50° | 18km/h | 20864m | 5.2m/s | -51.9°C | 0% | 50.4hPa | 2.4V | 18:12:15 | 01:29:32 | 00:00:00 | |
| GOEST3-10 | 2026-09-04 00:26:23 | 56.61989 | 5.67372 | 50° | 16km/h | 20864m | 5.2m/s | -51.9°C | 3.6% | 50.3hPa | 2.4V | 00:00:00 | 01:29:32 | 00:00:00 | |
| DL1XH-15 | 2026-09-04 00:26:21 | 56.61974 | 5.67331 | 67° | 11km/h | 20834m | 3.9m/s | -51.7°C | 3.5% | 50.6hPa | 2.4V | 08:30:00 | 01:29:25 | 00:00:00 | |
| BIOWL1-15 | 2026-09-04 00:26:19 | 56.61980 | 5.67349 | 62° | 16km/h | 20846m | 3.6m/s | -51.8°C | 0% | 50.5hPa | 2.6V | 18:12:15 | 01:29:28 | 00:00:00 | |
| GOEST3-10 | 2026-09-04 00:26:18 | 56.61977 | 5.67342 | 64° | 13km/h | 20843m | 3.4m/s | -51.7°C | 3.6% | 50.5hPa | 2.5V | 00:00:00 | 00:00:00 | 00:00:00 | |
| DM0DOS-11 | 2026-09-04 00:26:17 | 56.61974 | 5.67326 | 70° | 11km/h | 20830m | 3.9m/s | -51.7°C | 3.6% | 50.6hPa | 2.5V | 08:30:00 | 01:29:24 | 00:00:00 | |
| DL1XH-west | 2026-09-04 00:26:14 | 56.61972 | 5.67320 | 71° | 13km/h | 20825m | 4.5m/s | -51.7°C | 0% | 50.7hPa | 2.5V | 18:12:15 | 01:29:23 | 00:00:00 | |
| GOEST3-10 | 2026-09-04 00:26:13 | 56.61971 | 5.67315 | 73° | 11km/h | 20821m | 3.9m/s | -51.6°C | 3.5% | 50.7hPa | 2.4V | 00:00:00 | 01:29:22 | 00:00:00 | |
| DM0DOS-11 | 2026-09-04 00:26:11 | 56.61965 | 5.67274 | 88° | 9km/h | 20786m | 3.9m/s | -51.7°C | 3.5% | 51hPa | 2.4V | 08:30:00 | 01:29:14 | 00:00:00 | |
| BIOWL1-15 | 2026-09-04 00:26:08 | 56.61968 | 5.67290 | 71° | 13km/h | 20798m | 3.7m/s | -51.7°C | 0% | 50.9hPa | 2.6V | 18:12:15 | 01:29:17 | 00:00:00 | |
| GOEST3-10 | 2026-09-04 00:26:08 | 56.61968 | 5.67290 | 71° | 11km/h | 20798m | 3.7m/s | -51.7°C | 3.5% | 50.8hPa | 2.6V | 00:00:00 | 00:00:00 | 08:30:00 | |
| DL1XH-15 | 2026-09-04 00:26:07 | 56.61965 | 5.67279 | 75° | 11km/h | 20791m | 4.3m/s | -51.7°C | 3.6% | 50.9hPa | 2.4V | 08:30:00 | 01:29:15 | 00:00:00 | |
| DL1XH-west | 2026-09-04 00:26:04 | 56.61965 | 5.67269 | 98° | 9km/h | 20782m | 3.5m/s | -51.7°C | 0% | 51hPa | 2.5V | 18:12:15 | 01:29:13 | 00:00:00 | |
| GOEST3-10 | 2026-09-04 00:26:03 | 56.61965 | 5.67265 | 101° | 13km/h | 20778m | 4.2m/s | -51.7°C | 3.6% | 51.0hPa | 2.5V | 00:00:00 | 01:29:12 | 00:00:00 | |
| DL1XH-15 | 2026-09-04 00:26:01 | 56.61964 | 5.67224 | 93° | 15km/h | 20750m | 4.3m/s | -51.7°C | 3.5% | 51.3hPa | 2.5V | 08:30:00 | 01:29:05 | 00:00:00 | |
| GOEST3-10 | 2026-09-04 00:25:58 | 56.61964 | 5.67236 | 90° | 15km/h | 20758m | 3.5m/s | -51.7°C | 3.5% | 51.2hPa | 2.5V | 00:00:00 | 00:00:00 | 00:00:00 | |
| DM0DOS-11 | 2026-09-04 00:25:57 | 56.61963 | 5.67198 | 79° | 11km/h | 20734m | 3.9m/s | -51.7°C | 3.5% | 51.4hPa | 2.5V | 08:30:00 | 01:29:01 | 00:00:00 | |
| DL1XH-west | 2026-09-04 00:25:53 | 56.61964 | 5.67203 | 85° | 13km/h | 20739m | 4.5m/s | -51.7°C | 0% | 51.4hPa | 2.5V | 18:12:15 | 01:29:02 | 00:00:00 | |
| GOEST3-10 | 2026-09-04 00:25:53 | 56.61964 | 5.67203 | 85° | 11km/h | 20739m | 4.5m/s | -51.6°C | 3.5% | 51.3hPa | 2.5V | 00:00:00 | 01:29:02 | 00:00:00 | |
| GOEST3-10 | 2026-09-04 00:25:48 | 56.61964 | 5.67178 | 111° | 15km/h | 20718m | 3.6m/s | -51.6°C | 3.5% | 51.5hPa | 2.5V | 00:00:00 | 00:00:00 | 00:00:00 | |
| DL1XH-15 | 2026-09-04 00:25:47 | 56.61967 | 5.67167 | 128° | 13km/h | 20709m | 4.1m/s | -51.6°C | 3.5% | 51.6hPa | 2.5V | 08:30:00 | 01:28:55 | 00:00:00 | |
| BIOWL1-15 | 2026-09-04 00:25:45 | 56.61969 | 5.67162 | 134° | 16km/h | 20705m | 3.8m/s | -51.6°C | 0% | 51.6hPa | 2.6V | 18:12:15 | 01:28:54 | 00:00:00 | |
| DM0DOS-11 | 2026-09-04 00:25:43 | 56.61980 | 5.67143 | 135° | 22km/h | 20692m | 3.5m/s | -51.5°C | 3.5% | 51.8hPa | 2.4V | 08:30:00 | 01:28:51 | 00:00:00 | |
| DL1XH-west | 2026-09-04 00:25:42 | 56.61989 | 5.67126 | 129° | 15km/h | 20680m | 3.4m/s | -51.5°C | 0% | 51.9hPa | 2.5V | 18:12:15 | 01:28:48 | 00:00:00 | |
| DL1XH-15 | 2026-09-04 00:25:41 | 56.61995 | 5.67106 | 114° | 20km/h | 20668m | 3.6m/s | -51.5°C | 3.5% | 51.9hPa | 2.4V | 08:30:00 | 01:28:45 | 00:00:00 | |
| GOEST3-10 | 2026-09-04 00:25:38 | 56.61991 | 5.67121 | 119° | 18km/h | 20676m | 4.7m/s | -51.4°C | 3.5% | 51.8hPa | 2.6V | 00:00:00 | 00:00:00 | 00:00:00 | |
| DM0DOS-11 | 2026-09-04 00:25:37 | 56.62004 | 5.67076 | 123° | 22km/h | 20651m | 4.2m/s | -51.4°C | 3.5% | 52.1hPa | 2.5V | 08:30:00 | 01:28:41 | 00:00:00 | |
| BIOWL1-15 | 2026-09-04 00:25:35 | 56.61997 | 5.67098 | 116° | 20km/h | 20664m | 4.2m/s | -51.5°C | 0% | 52hPa | 2.4V | 18:12:15 | 01:28:44 | 00:00:00 | |
| DL1XH-west | 2026-09-04 00:25:29 | 56.62015 | 5.67047 | 126° | 26km/h | 20636m | 5.1m/s | -51.4°C | 0% | 52.2hPa | 2.4V | 18:12:15 | 01:28:38 | 00:00:00 | |
| DL1XH-15 | 2026-09-04 00:25:28 | 56.62026 | 5.67018 | 123° | 27km/h | 20622m | 4.8m/s | -51.4°C | 3.4% | 52.3hPa | 2.6V | 08:30:00 | 01:28:35 | 00:00:00 | |
| BIOWL1-15 | 2026-09-04 00:25:26 | 56.62033 | 5.66999 | 123° | 24km/h | 20614m | 4.9m/s | -51.4°C | 0% | 52.4hPa | 2.5V | 18:12:15 | 01:28:33 | 00:00:00 | |
| DJ2DS-15 | 2026-09-04 00:25:26 | 56.62026 | 5.67018 | 124° | 27km/h | 20623m | 4.7m/s | -51.4°C | 3.4% | 52.2hPa | 2.4V | 00:00:00 | 01:28:35 | 00:00:00 | |
| DM0DOS-11 | 2026-09-04 00:25:24 | 56.62039 | 5.66982 | 120° | 20km/h | 20606m | 2.9m/s | -51.5°C | 3.4% | 52.4hPa | 2.4V | 08:30:00 | 01:28:31 | 00:00:00 | |
| GOEST3-10 | 2026-09-04 00:25:23 | 56.62036 | 5.66990 | 124° | 24km/h | 20609m | 4.0m/s | -51.5°C | 3.4% | 52.4hPa | 2.4V | 00:00:00 | 01:28:32 | 08:30:00 | |
| DL1XH-15 | 2026-09-04 00:25:21 | 56.62061 | 5.66921 | 136° | 31km/h | 20580m | 3.4m/s | -51.8°C | 3.5% | 52.7hPa | 2.5V | 08:30:00 | 01:28:25 | 00:00:00 | |
| DL1XH-west | 2026-09-04 00:25:19 | 56.62048 | 5.66953 | 121° | 29km/h | 20593m | 3.5m/s | -51.7°C | 0% | 52.5hPa | 2.6V | 18:12:15 | 01:28:28 | 00:00:00 | |
| GOEST3-10 | 2026-09-04 00:25:18 | 56.62052 | 5.66942 | 124° | 31km/h | 20589m | 4.1m/s | -51.7°C | 3.5% | 52.5hPa | 2.4V | 00:00:00 | 00:00:00 | 00:00:00 | |
| DM0DOS-11 | 2026-09-04 00:25:17 | 56.62084 | 5.66881 | 132° | 29km/h | 20563m | 3.5m/s | -51.9°C | 3.5% | 52.8hPa | 2.4V | 08:30:00 | 01:28:21 | 00:00:00 | |
| BIOWL1-15 | 2026-09-04 00:25:15 | 56.62089 | 5.66871 | 134° | 27km/h | 20559m | 4.8m/s | -51.9°C | 0% | 52.8hPa | 2.4V | 18:12:15 | 01:28:20 | 00:00:00 | |
| DL1XH-west | 2026-09-04 00:25:08 | 56.62102 | 5.66846 | 129° | 27km/h | 20547m | 4.5m/s | -51.9°C | 0% | 52.9hPa | 2.5V | 18:12:15 | 01:28:17 | 00:00:00 | |
| GOEST3-10 | 2026-09-04 00:25:08 | 56.62102 | 5.66845 | 130° | 35km/h | 20547m | 4.5m/s | -51.9°C | 3.5% | 52.9hPa | 2.5V | 00:00:00 | 00:00:00 | 00:00:00 | |
| DJ2DS-15 | 2026-09-04 00:25:06 | 56.62112 | 5.66821 | 123° | 35km/h | 20539m | 3.8m/s | -51.9°C | 3.5% | 53.0hPa | 2.5V | 00:00:00 | 01:28:15 | 00:00:00 | |
| DM0DOS-11 | 2026-09-04 00:25:03 | 56.62131 | 5.66762 | 115° | 38km/h | 20522m | 4m/s | -52°C | 3.5% | 53.1hPa | 2.5V | 08:30:00 | 01:28:11 | 00:00:00 | |
| BIOWL1-15 | 2026-09-04 00:25:03 | 56.62127 | 5.66777 | 118° | 38km/h | 20526m | 3.8m/s | -51.9°C | 0% | 53.1hPa | 2.4V | 18:12:15 | 01:28:12 | 00:00:00 | |
| DL1XH-west | 2026-09-04 00:24:57 | 56.62152 | 5.66687 | 126° | 31km/h | 20501m | 2.7m/s | -52.2°C | 0% | 53.3hPa | 2.5V | 18:12:15 | 01:28:06 | 00:00:00 | |
| DL1XH-15 | 2026-09-04 00:24:57 | 56.62157 | 5.66676 | 124° | 29km/h | 20497m | 4.5m/s | -52.1°C | 3.5% | 53.3hPa | 2.5V | 08:30:00 | 01:28:05 | 00:00:00 | |
| BIOWL1-15 | 2026-09-04 00:24:52 | 56.62174 | 5.66599 | 107° | 31km/h | 20470m | 3.4m/s | -52.3°C | 0% | 53.5hPa | 2.5V | 18:12:15 | 01:27:59 | 00:00:00 | |
| DL1XH-15 | 2026-09-04 00:24:52 | 56.62181 | 5.66538 | 103° | 35km/h | 20452m | 4.3m/s | -52.5°C | 3.7% | 53.7hPa | 2.5V | 08:30:00 | 01:27:55 | 00:00:00 | |
| DM0DOS-11 | 2026-09-04 00:24:52 | 56.62178 | 5.66570 | 100° | 35km/h | 20461m | 4.4m/s | -52.5°C | 3.7% | 53.6hPa | 2.6V | 08:30:00 | 01:27:57 | 00:00:00 | |
| DL1XH-west | 2026-09-04 00:24:47 | 56.62179 | 5.66554 | 101° | 37km/h | 20456m | 3.8m/s | -52.5°C | 0% | 53.6hPa | 2.6V | 18:12:15 | 01:27:56 | 00:00:00 | |
| GOEST3-10 | 2026-09-04 00:24:43 | 56.62187 | 5.66497 | 106° | 27km/h | 20440m | 4.4m/s | -52.5°C | 3.7% | 53.8hPa | 2.5V | 00:00:00 | 01:27:52 | 00:00:00 | |
| BIOWL9-15 | 2026-09-04 00:24:42 | 56.62190 | 5.66471 | 98° | 27km/h | 20430m | 3.5m/s | -52.6°C | 0.8% | 53.9hPa | 2.5V | 00:00:00 | 00:00:00 | 00:00:00 | |
| DL1XH-15 | 2026-09-04 00:24:41 | 56.62197 | 5.66411 | 105° | 29km/h | 20408m | 4.6m/s | -52.5°C | 3.7% | 54.1hPa | 2.5V | 08:30:00 | 01:27:45 | 00:00:00 | |
| BIOWL1-15 | 2026-09-04 00:24:41 | 56.62200 | 5.66397 | 109° | 31km/h | 20403m | 3.4m/s | -52.5°C | 0.1% | 54.1hPa | 2.5V | 18:12:15 | 01:27:44 | 00:00:00 | |
| DL1XH-west | 2026-09-04 00:24:37 | 56.62198 | 5.66411 | 105° | 29km/h | 20408m | 4.6m/s | -52.5°C | 0.1% | 54.1hPa | 2.5V | 18:12:15 | 01:27:45 | 00:00:00 | |
| GOEST3-10 | 2026-09-04 00:24:33 | 56.62205 | 5.66372 | 116° | 27km/h | 20395m | 4.7m/s | -52.4°C | 3.7% | 54.1hPa | 2.5V | 00:00:00 | 01:27:42 | 00:00:00 | |
| DJ2DS-15 | 2026-09-04 00:24:32 | 56.62212 | 5.66349 | 114° | 27km/h | 20386m | 5.1m/s | -52.4°C | 0.8% | 54.3hPa | 2.5V | 00:00:00 | 00:00:00 | 00:00:00 | |
| DL1XH-15 | 2026-09-04 00:24:31 | 56.62225 | 5.66295 | 111° | 26km/h | 20362m | 4.4m/s | -52.2°C | 3.6% | 54.5hPa | 2.5V | 08:30:00 | 01:27:35 | 00:00:00 | |
| DL1XH-west | 2026-09-04 00:24:27 | 56.62224 | 5.66295 | 112° | 26km/h | 20362m | 4.4m/s | -52.3°C | 0% | 54.5hPa | 2.5V | 18:12:15 | 01:27:35 | 00:00:00 | |
| BIOWL1-15 | 2026-09-04 00:24:25 | 56.62236 | 5.66240 | 117° | 35km/h | 20344m | 4.1m/s | -52.2°C | 0% | 54.6hPa | 2.5V | 18:12:15 | 01:27:31 | 00:00:00 | |
| DM0DOS-11 | 2026-09-04 00:24:23 | 56.62255 | 5.66167 | 114° | 33km/h | 20320m | 5.4m/s | -52.3°C | 3.6% | 54.8hPa | 2.5V | 08:30:00 | 01:27:26 | 00:00:00 | |
| DL1XH-15 | 2026-09-04 00:24:21 | 56.62259 | 5.66154 | 113° | 31km/h | 20316m | 4.1m/s | -52.4°C | 3.7% | 54.8hPa | 2.5V | 08:30:00 | 01:27:25 | 00:00:00 | |
| DL1XH-west | 2026-09-04 00:24:17 | 56.62262 | 5.66141 | 110° | 31km/h | 20312m | 3.8m/s | -52.4°C | 0% | 54.9hPa | 2.5V | 18:12:15 | 01:27:24 | 00:00:00 | |
| BIOWL1-15 | 2026-09-04 00:24:14 | 56.62267 | 5.66102 | 104° | 29km/h | 20298m | 4.1m/s | -52.5°C | 0% | 55hPa | 2.6V | 18:12:15 | 01:27:21 | 00:00:00 | |
| GOEST3-10 | 2026-09-04 00:24:13 | 56.62266 | 5.66115 | 103° | 29km/h | 20303m | 3.7m/s | -52.4°C | 3.7% | 54.9hPa | 2.5V | 00:00:00 | 01:27:22 | 00:00:00 | |
| DM0DOS-11 | 2026-09-04 00:24:11 | 56.62283 | 5.66015 | 106° | 38km/h | 20271m | 4.4m/s | -52.5°C | 3.7% | 55.2hPa | 2.5V | 08:30:00 | 01:27:15 | 00:00:00 | |
| DL1XH-west | 2026-09-04 00:24:06 | 56.62286 | 5.65999 | 110° | 38km/h | 20266m | 4.6m/s | -52.6°C | 0% | 55.3hPa | 2.6V | 18:12:15 | 01:27:14 | 00:00:00 | |
| BIOWL1-15 | 2026-09-04 00:24:02 | 56.62304 | 5.65868 | 99° | 37km/h | 20230m | 5.2m/s | -52.5°C | 0% | 55.6hPa | 2.6V | 18:12:15 | 01:27:06 | 00:00:00 | |
| DL1XH-15 | 2026-09-04 00:24:01 | 56.62305 | 5.65852 | 95° | 37km/h | 20225m | 4.5m/s | -52.6°C | 3.7% | 55.6hPa | 2.6V | 08:30:00 | 01:27:05 | 00:00:00 | |
| DL1XH-west | 2026-09-04 00:23:55 | 56.62307 | 5.65818 | 98° | 38km/h | 20216m | 5.4m/s | -52.6°C | 0.1% | 55.7hPa | 2.4V | 18:12:15 | 01:27:03 | 00:00:00 | |
| GOEST3-10 | 2026-09-04 00:23:54 | 56.62307 | 5.65818 | 98° | 38km/h | 20216m | 5.3m/s | -52.6°C | 3.7% | 55.7hPa | 2.5V | 00:00:00 | 00:00:00 | 00:00:00 | |
| DL1XH-15 | 2026-09-04 00:23:51 | 56.62317 | 5.65677 | 96° | 40km/h | 20178m | 5m/s | -52.5°C | 3.7% | 56hPa | 2.5V | 08:30:00 | 01:26:55 | 00:00:00 | |
| BIOWL1-15 | 2026-09-04 00:23:47 | 56.62317 | 5.65677 | 96° | 40km/h | 20178m | 5m/s | -52.5°C | 0% | 56hPa | 2.5V | 18:12:15 | 01:26:55 | 00:00:00 | |
| DL1XH-west | 2026-09-04 00:23:43 | 56.62317 | 5.65622 | 89° | 40km/h | 20164m | 5.2m/s | -52.4°C | 0% | 56.1hPa | 2.4V | 18:12:15 | 01:26:52 | 00:00:00 | |
| DM0DOS-11 | 2026-09-04 00:23:43 | 56.62315 | 5.65539 | 90° | 33km/h | 20141m | 4.7m/s | -52.2°C | 3.6% | 56.3hPa | 2.5V | 08:30:00 | 01:26:47 | 00:00:00 | |
| GOEST3-10 | 2026-09-04 00:23:43 | 56.62317 | 5.65622 | 90° | 38km/h | 20164m | 5.2m/s | -52.3°C | 3.7% | 56.1hPa | 2.5V | 00:00:00 | 00:00:00 | 00:00:00 | |
| DL1XH-15 | 2026-09-04 00:23:41 | 56.62315 | 5.65508 | 96° | 33km/h | 20131m | 4.2m/s | -52.2°C | 3.6% | 56.4hPa | 2.5V | 08:30:00 | 01:26:45 | 00:00:00 | |
| DL1XH-west | 2026-09-04 00:23:32 | 56.62318 | 5.65444 | 92° | 35km/h | 20112m | 5.1m/s | -52.2°C | 0% | 56.6hPa | 2.6V | 18:12:15 | 01:26:41 | 00:00:00 | |
| DM0DOS-11 | 2026-09-04 00:23:31 | 56.62314 | 5.65385 | 71° | 31km/h | 20093m | 4m/s | -52.2°C | 3.6% | 56.8hPa | 2.5V | 08:30:00 | 01:26:37 | 00:00:00 | |
| BIOWL1-15 | 2026-09-04 00:23:24 | 56.62307 | 5.65337 | 81° | 27km/h | 20075m | 4.9m/s | -52.2°C | 0% | 56.9hPa | 2.6V | 18:12:15 | 01:26:33 | 00:00:00 | |
| DL1XH-west | 2026-09-04 00:23:21 | 56.62306 | 5.65300 | 96° | 26km/h | 20062m | 5.3m/s | -52.1°C | 0% | 57.1hPa | 2.5V | 18:12:15 | 01:26:30 | 00:00:00 | |
| BIOWL1-15 | 2026-09-04 00:23:14 | 56.62313 | 5.65221 | 91° | 20km/h | 20028m | 4.3m/s | -52°C | 0% | 57.3hPa | 2.5V | 18:12:15 | 01:26:23 | 00:00:00 | |
| DL1XH-west | 2026-09-04 00:23:11 | 56.62310 | 5.65181 | 82° | 22km/h | 20010m | 4.1m/s | -52°C | 0% | 57.5hPa | 2.5V | 18:12:15 | 01:26:19 | 00:00:00 | |
| BIOWL1-15 | 2026-09-04 00:23:04 | 56.62316 | 5.65118 | 99° | 16km/h | 19973m | 4m/s | -51.8°C | 0% | 57.8hPa | 2.5V | 18:12:15 | 01:26:11 | 00:00:00 | |
| DL1XH-west | 2026-09-04 00:23:01 | 56.62317 | 5.65102 | 90° | 18km/h | 19963m | 3.9m/s | -51.8°C | 0% | 57.9hPa | 2.6V | 18:12:15 | 01:26:09 | 00:00:00 | |
| GOEST3-10 | 2026-09-04 00:22:58 | 56.62317 | 5.65086 | 94° | 15km/h | 19954m | 5.5m/s | -51.7°C | 3.6% | 58.0hPa | 2.5V | 00:00:00 | 00:00:00 | 00:00:00 | |
| DM0DOS-11 | 2026-09-04 00:22:57 | 56.62318 | 5.65073 | 105° | 15km/h | 19945m | 4.3m/s | -51.7°C | 3.6% | 58.1hPa | 2.5V | 08:30:00 | 01:26:05 | 00:00:00 | |
| BIOWL1-15 | 2026-09-04 00:22:51 | 56.62332 | 5.65022 | 125° | 20km/h | 19912m | 5.6m/s | -51.7°C | 0% | 58.4hPa | 2.5V | 18:12:15 | 01:25:58 | 00:00:00 | |
| DL1XH-west | 2026-09-04 00:22:51 | 56.62329 | 5.65029 | 126° | 18km/h | 19917m | 4.6m/s | -51.7°C | 0% | 58.4hPa | 2.5V | 18:12:15 | 01:25:59 | 00:00:00 | |
| DM0DOS-11 | 2026-09-04 00:22:50 | 56.62341 | 5.64999 | 127° | 18km/h | 19898m | 5m/s | -51.6°C | 3.6% | 58.5hPa | 2.5V | 08:30:00 | 01:25:55 | 00:00:00 | |
| DL1XH-west | 2026-09-04 00:22:40 | 56.62358 | 5.64947 | 123° | 18km/h | 19864m | 4.2m/s | -51.5°C | 0% | 58.8hPa | 2.5V | 18:12:15 | 01:25:48 | 00:00:00 | |
| BIOWL1-15 | 2026-09-04 00:22:40 | 56.62361 | 5.64940 | 127° | 20km/h | 19860m | 3.6m/s | -51.5°C | 0% | 58.8hPa | 2.5V | 18:12:15 | 01:25:47 | 00:00:00 | |
| DL1XH-15 | 2026-09-04 00:22:39 | 56.62375 | 5.64906 | 128° | 24km/h | 19840m | 5.3m/s | -51.3°C | 3.5% | 59hPa | 2.5V | 08:30:00 | 01:25:43 | 00:00:00 | |
| GOEST3-10 | 2026-09-04 00:22:38 | 56.62361 | 5.64940 | 128° | 22km/h | 19860m | 3.5m/s | -51.4°C | 3.5% | 58.8hPa | 2.6V | 00:00:00 | 00:00:00 | 00:00:00 | |
| DM0DOS-11 | 2026-09-04 00:22:36 | 56.62368 | 5.64924 | 127° | 26km/h | 19850m | 4.6m/s | -51.4°C | 3.5% | 58.9hPa | 2.6V | 08:30:00 | 01:25:45 | 00:00:00 | |
| DM0DOS-11 | 2026-09-04 00:22:31 | 56.62406 | 5.64829 | 129° | 27km/h | 19803m | 4.1m/s | -51.1°C | 3.5% | 59.4hPa | 2.5V | 08:30:00 | 01:25:35 | 00:00:00 | |
| DL1XH-west | 2026-09-04 00:22:29 | 56.62397 | 5.64849 | 126° | 27km/h | 19812m | 5.2m/s | -51.2°C | 0% | 59.3hPa | 2.6V | 18:12:15 | 01:25:37 | 00:00:00 | |
| DL1XH-west | 2026-09-04 00:22:18 | 56.62436 | 5.64722 | 102° | 27km/h | 19759m | 5.5m/s | -51°C | 0% | 59.8hPa | 2.5V | 18:12:15 | 01:25:26 | 00:00:00 | |
| DM0DOS-11 | 2026-09-04 00:22:17 | 56.62438 | 5.64711 | 105° | 24km/h | 19754m | 4.3m/s | -50.9°C | 3.5% | 59.8hPa | 2.5V | 08:30:00 | 01:25:25 | 00:00:00 | |
| DL1XH-15 | 2026-09-04 00:22:16 | 56.62442 | 5.64688 | 114° | 29km/h | 19746m | 4m/s | -50.9°C | 3.4% | 59.9hPa | 2.5V | 08:30:00 | 01:25:23 | 00:00:00 | |
| GOEST3-10 | 2026-09-04 00:22:16 | 56.62438 | 5.64711 | 106° | 29km/h | 19754m | 4.3m/s | -50.9°C | 3.5% | 59.8hPa | 2.5V | 00:00:00 | 00:00:00 | 00:00:00 | |
| DM0DOS-11 | 2026-09-04 00:22:10 | 56.62467 | 5.64583 | 105° | 29km/h | 19708m | 4m/s | -50.8°C | 3.4% | 60.2hPa | 2.5V | 08:30:00 | 01:25:15 | 00:00:00 | |
| DL1XH-west | 2026-09-04 00:22:08 | 56.62463 | 5.64610 | 111° | 29km/h | 19718m | 5.1m/s | -50.8°C | 0% | 60.1hPa | 2.5V | 18:12:15 | 01:25:17 | 00:00:00 | |
| DJ2DS-15 | 2026-09-04 00:22:08 | 56.62465 | 5.64597 | 107° | 29km/h | 19713m | 4.6m/s | -50.8°C | 0.8% | 60.2hPa | 2.6V | 00:00:00 | 00:00:00 | 00:00:00 | |
| GOEST3-10 | 2026-09-04 00:22:07 | 56.62465 | 5.64597 | 108° | 29km/h | 19713m | 4.5m/s | -50.8°C | 3.4% | 60.2hPa | 2.6V | 00:00:00 | 01:25:16 | 00:00:00 | |
| DL1XH-15 | 2026-09-04 00:22:06 | 56.62471 | 5.64558 | 105° | 27km/h | 19699m | 3.9m/s | -50.8°C | 3.4% | 60.4hPa | 2.6V | 08:30:00 | 01:25:13 | 00:00:00 | |
| DL1XH-west | 2026-09-04 00:21:58 | 56.62492 | 5.64454 | 114° | 38km/h | 19667m | 4.9m/s | -50.8°C | 0% | 60.6hPa | 2.6V | 18:12:15 | 01:25:06 | 00:00:00 | |
| DM0DOS-11 | 2026-09-04 00:21:58 | 56.62496 | 5.64438 | 111° | 40km/h | 19661m | 4.7m/s | -50.8°C | 3.4% | 60.7hPa | 2.6V | 08:30:00 | 01:25:05 | 00:00:00 | |
| GOEST3-10 | 2026-09-04 00:21:57 | 56.62492 | 5.64454 | 115° | 38km/h | 19667m | 4.8m/s | -50.8°C | 3.4% | 60.6hPa | 2.6V | 00:00:00 | 01:25:06 | 08:30:00 | |
| DL1XH-15 | 2026-09-04 00:21:56 | 56.62503 | 5.64404 | 109° | 37km/h | 19652m | 5.3m/s | -50.8°C | 3.4% | 60.8hPa | 2.5V | 08:30:00 | 01:25:03 | 00:00:00 | |
| GOEST3-10 | 2026-09-04 00:21:52 | 56.62508 | 5.64373 | 107° | 40km/h | 19644m | 4.0m/s | -50.8°C | 3.4% | 60.8hPa | 2.5V | 00:00:00 | 00:00:00 | 00:00:00 | |
| DM0DOS-11 | 2026-09-04 00:21:51 | 56.62521 | 5.64273 | 101° | 38km/h | 19616m | 5.3m/s | -50.8°C | 3.4% | 61.1hPa | 2.5V | 08:30:00 | 01:24:55 | 00:00:00 | |
| DL1XH-west | 2026-09-04 00:21:47 | 56.62521 | 5.64273 | 102° | 38km/h | 19616m | 5.3m/s | -50.8°C | 0% | 61.1hPa | 2.5V | 18:12:15 | 01:24:55 | 00:00:00 | |
| DL1XH-15 | 2026-09-04 00:21:46 | 56.62526 | 5.64236 | 103° | 42km/h | 19607m | 3.7m/s | -50.8°C | 3.4% | 61.2hPa | 2.5V | 08:30:00 | 01:24:53 | 00:00:00 | |
| DJ2DS-15 | 2026-09-04 00:21:46 | 56.62521 | 5.64273 | 102° | 40km/h | 19616m | 5.2m/s | -50.8°C | 3.4% | 61.0hPa | 2.5V | 00:00:00 | 01:24:55 | 00:00:00 | |
| GOEST3-10 | 2026-09-04 00:21:38 | 56.62545 | 5.64128 | 108° | 42km/h | 19581m | 4.2m/s | -51.0°C | 3.4% | 61.4hPa | 2.5V | 00:00:00 | 01:24:47 | 00:00:00 | |
| DM0DOS-11 | 2026-09-04 00:21:37 | 56.62551 | 5.64091 | 106° | 42km/h | 19572m | 3.8m/s | -51.1°C | 3.4% | 61.5hPa | 2.5V | 08:30:00 | 01:24:45 | 00:00:00 | |
| DL1XH-15 | 2026-09-04 00:21:36 | 56.62557 | 5.64054 | 104° | 44km/h | 19563m | 4.2m/s | -51.2°C | 3.4% | 61.6hPa | 2.5V | 08:30:00 | 01:24:43 | 00:00:00 | |
| DL1XH-west | 2026-09-04 00:21:36 | 56.62554 | 5.64073 | 106° | 44km/h | 19568m | 4.8m/s | -51.1°C | 0% | 61.6hPa | 2.5V | 18:12:15 | 01:24:44 | 00:00:00 | |
| BIOWL1-15 | 2026-09-04 00:21:31 | 56.62564 | 5.63998 | 103° | 38km/h | 19550m | 3.7m/s | -51.3°C | 0% | 61.8hPa | 2.6V | 18:12:15 | 01:24:40 | 00:00:00 | |
| DM0DOS-11 | 2026-09-04 00:21:30 | 56.62575 | 5.63909 | 102° | 42km/h | 19527m | 3m/s | -51.3°C | 3.5% | 62hPa | 2.5V | 08:30:00 | 01:24:35 | 00:00:00 | |
| DL1XH-15 | 2026-09-04 00:21:26 | 56.62580 | 5.63868 | 102° | 49km/h | 19519m | 5.1m/s | -51.3°C | 3.4% | 62hPa | 2.6V | 08:30:00 | 01:24:33 | 00:00:00 | |
| DL1XH-west | 2026-09-04 00:21:26 | 56.62577 | 5.63890 | 103° | 46km/h | 19524m | 3.6m/s | -51.3°C | 0% | 62hPa | 2.6V | 18:12:15 | 01:24:34 | 00:00:00 | |
| GOEST3-10 | 2026-09-04 00:21:21 | 56.62589 | 5.63795 | 102° | 51km/h | 19507m | 4.7m/s | -51.3°C | 3.5% | 62.1hPa | 2.5V | 00:00:00 | 00:00:00 | 00:00:00 | |
| BIOWL1-15 | 2026-09-04 00:21:21 | 56.62602 | 5.63663 | 99° | 42km/h | 19481m | 5.4m/s | -51.5°C | 0% | 62.4hPa | 2.6V | 18:12:15 | 01:24:24 | 00:00:00 | |
| DL1XH-15 | 2026-09-04 00:21:16 | 56.62603 | 5.63644 | 102° | 40km/h | 19476m | 3.4m/s | -51.5°C | 3.5% | 62.4hPa | 2.5V | 08:30:00 | 01:24:23 | 00:00:00 | |
| DL1XH-west | 2026-09-04 00:21:14 | 56.62603 | 5.63644 | 103° | 40km/h | 19476m | 3.4m/s | -51.5°C | 0% | 62.4hPa | 2.5V | 18:12:15 | 01:24:23 | 00:00:00 | |
| GOEST3-10 | 2026-09-04 00:21:11 | 56.62610 | 5.63586 | 100° | 49km/h | 19464m | 3.6m/s | 0°C | 0% | 0hPa | 2.5V | 00:00:00 | 00:00:00 | 00:00:00 | |
| DM0DOS-11 | 2026-09-04 00:21:10 | 56.62618 | 5.63475 | 96° | 51km/h | 19442m | 4.9m/s | -51.6°C | 3.5% | 62.8hPa | 2.5V | 08:30:00 | 01:24:15 | 00:00:00 | |
| DL1XH-15 | 2026-09-04 00:21:06 | 56.62621 | 5.63429 | 95° | 47km/h | 19434m | 4.5m/s | -51.7°C | 3.5% | 62.9hPa | 2.5V | 08:30:00 | 01:24:13 | 00:00:00 | |
| BIOWL1-15 | 2026-09-04 00:21:05 | 56.62626 | 5.63347 | 98° | 44km/h | 19416m | 4m/s | -51.8°C | 0% | 63hPa | 2.6V | 18:12:15 | 01:24:09 | 00:00:00 | |
| DL1XH-west | 2026-09-04 00:21:03 | 56.62622 | 5.63408 | 97° | 46km/h | 19429m | 4.4m/s | -51.7°C | 0% | 62.9hPa | 2.5V | 18:12:15 | 01:24:12 | 00:00:00 | |
| GOEST3-10 | 2026-09-04 00:21:01 | 56.62625 | 5.63368 | 97° | 44km/h | 19421m | 4.6m/s | 0°C | 0% | 0hPa | 2.5V | 00:00:00 | 00:00:00 | 08:30:00 | |
| DM0DOS-11 | 2026-09-04 00:20:58 | 56.62631 | 5.63268 | 94° | 46km/h | 19398m | 5m/s | -51.9°C | 3.5% | 63.2hPa | 2.5V | 08:30:00 | 01:24:05 | 00:00:00 | |
| DL1XH-west | 2026-09-04 00:20:53 | 56.62633 | 5.63202 | 91° | 47km/h | 19385m | 4.2m/s | -51.9°C | 0% | 63.4hPa | 2.6V | 18:12:15 | 01:24:02 | 00:00:00 | |
| BIOWL1-15 | 2026-09-04 00:20:51 | 56.62627 | 5.62919 | 76° | 47km/h | 19326m | 4.3m/s | -52°C | 0% | 63.9hPa | 2.5V | 18:12:15 | 01:23:48 | 00:00:00 | |
| DM0DOS-11 | 2026-09-04 00:20:50 | 56.62630 | 5.63057 | 92° | 38km/h | 19356m | 3.4m/s | -52°C | 3.6% | 63.6hPa | 2.5V | 08:30:00 | 01:23:55 | 00:00:00 | |
| BIOWL1-15 | 2026-09-04 00:20:49 | 56.62624 | 5.62898 | 75° | 49km/h | 19322m | 4.2m/s | -52°C | 0% | 64hPa | 2.5V | 18:12:15 | 01:23:47 | 00:00:00 | |
| DL1XH-15 | 2026-09-04 00:20:46 | 56.62632 | 5.63020 | 95° | 42km/h | 19347m | 3.9m/s | -52°C | 3.5% | 63.7hPa | 2.6V | 08:30:00 | 01:23:53 | 00:00:00 | |
| DL1XH-west | 2026-09-04 00:20:43 | 56.62632 | 5.62980 | 88° | 44km/h | 19339m | 4.8m/s | -52°C | 0% | 63.8hPa | 2.5V | 18:12:15 | 01:23:51 | 00:00:00 | |
| GOEST3-10 | 2026-09-04 00:20:40 | 56.62629 | 5.62940 | 78° | 46km/h | 19330m | 3.3m/s | 0°C | 0% | 0hPa | 2.5V | 00:00:00 | 00:00:00 | 00:00:00 | |
| DL1XH-15 | 2026-09-04 00:20:35 | 56.62611 | 5.62819 | 74° | 44km/h | 19304m | 4.1m/s | -52°C | 3.6% | 64.1hPa | 2.5V | 08:30:00 | 01:23:43 | 00:00:00 | |
| DL1XH-west | 2026-09-04 00:20:31 | 56.62605 | 5.62761 | 82° | 42km/h | 19292m | 4.5m/s | -52.2°C | 0% | 64.2hPa | 2.5V | 18:12:15 | 01:23:40 | 00:00:00 | |
| DM0DOS-11 | 2026-09-04 00:20:31 | 56.62594 | 5.62665 | 72° | 44km/h | 19271m | 4.8m/s | -52.4°C | 3.7% | 64.5hPa | 2.5V | 08:30:00 | 01:23:35 | 00:00:00 | |
| BIOWL1-15 | 2026-09-04 00:20:29 | 56.62581 | 5.62609 | 65° | 46km/h | 19258m | 4.6m/s | -52.4°C | 0% | 64.6hPa | 2.5V | 18:12:15 | 01:23:32 | 00:00:00 | |
| DL1XH-15 | 2026-09-04 00:20:29 | 56.62586 | 5.62628 | 65° | 44km/h | 19262m | 3.5m/s | -52.4°C | 3.7% | 64.5hPa | 2.6V | 08:30:00 | 01:23:33 | 00:00:00 | |
| DL1XH-west | 2026-09-04 00:20:21 | 56.62568 | 5.62552 | 67° | 42km/h | 19246m | 4.5m/s | -52.3°C | 0% | 64.7hPa | 2.5V | 18:12:15 | 01:23:29 | 00:00:00 | |
| GOEST3-10 | 2026-09-04 00:20:20 | 56.62568 | 5.62552 | 68° | 42km/h | 19246m | 4.5m/s | 0°C | 0% | 0hPa | 2.5V | 00:00:00 | 00:00:00 | 00:00:00 | |
| DM0DOS-11 | 2026-09-04 00:20:18 | 56.62554 | 5.62481 | 70° | 44km/h | 19229m | 3.2m/s | -52.3°C | 3.7% | 64.9hPa | 2.5V | 08:30:00 | 01:23:25 | 00:00:00 | |
| DL1XH-15 | 2026-09-04 00:20:16 | 56.62545 | 5.62446 | 64° | 42km/h | 19220m | 3.9m/s | -52.3°C | 3.7% | 65hPa | 2.6V | 08:30:00 | 01:23:23 | 00:00:00 | |
| BIOWL1-15 | 2026-09-04 00:20:15 | 56.62536 | 5.62411 | 63° | 44km/h | 19212m | 4.5m/s | -52.3°C | 0.1% | 65hPa | 2.5V | 18:12:15 | 01:23:21 | 00:00:00 | |
| GOEST3-10 | 2026-09-04 00:20:15 | 56.62550 | 5.62463 | 67° | 42km/h | 19225m | 4.6m/s | 0°C | 0% | 0hPa | 2.5V | 00:00:00 | 01:23:24 | 08:30:00 | |
| DM0DOS-11 | 2026-09-04 00:20:10 | 56.62514 | 5.62304 | 77° | 44km/h | 19187m | 4.6m/s | -52.4°C | 3.7% | 65.3hPa | 2.5V | 08:30:00 | 01:23:15 | 00:00:00 | |
| DL1XH-west | 2026-09-04 00:20:09 | 56.62523 | 5.62357 | 70° | 40km/h | 19199m | 4m/s | -52.3°C | 0% | 65.2hPa | 2.6V | 18:12:15 | 01:23:18 | 00:00:00 | |
| DL1XH-west | 2026-09-04 00:19:59 | 56.62494 | 5.62167 | 70° | 44km/h | 19157m | 3.6m/s | -52.2°C | 0% | 65.6hPa | 2.5V | 18:12:15 | 01:23:08 | 00:00:00 | |
| DM0DOS-11 | 2026-09-04 00:19:58 | 56.62483 | 5.62114 | 69° | 40km/h | 19144m | 4.2m/s | -52.2°C | 3.6% | 65.7hPa | 2.5V | 08:30:00 | 01:23:05 | 00:00:00 | |
| GOEST3-10 | 2026-09-04 00:19:54 | 56.62476 | 5.62079 | 73° | 38km/h | 19135m | 3.2m/s | 0°C | 0% | 0hPa | 2.6V | 00:00:00 | 01:23:03 | 00:00:00 | |
| DM0DOS-11 | 2026-09-04 00:19:51 | 56.62455 | 5.61936 | 71° | 44km/h | 19100m | 4m/s | -52.1°C | 3.6% | 66.2hPa | 2.6V | 08:30:00 | 01:22:55 | 00:00:00 | |
| DL1XH-15 | 2026-09-04 00:19:49 | 56.62448 | 5.61897 | 71° | 46km/h | 19091m | 3.7m/s | -52.1°C | 3.6% | 66.3hPa | 2.5V | 08:30:00 | 01:22:53 | 00:00:00 | |
| DL1XH-west | 2026-09-04 00:19:49 | 56.62464 | 5.61993 | 76° | 42km/h | 19113m | 3.8m/s | -52.2°C | 0% | 66.1hPa | 2.5V | 18:12:15 | 01:22:58 | 00:00:00 | |
| BIOWL1-15 | 2026-09-04 00:19:48 | 56.62461 | 5.61974 | 75° | 42km/h | 19109m | 4.2m/s | -52.2°C | 0% | 66.1hPa | 2.5V | 18:12:15 | 01:22:57 | 00:00:00 | |
| BIOWL1-15 | 2026-09-04 00:19:39 | 56.62424 | 5.61734 | 78° | 42km/h | 19056m | 3.7m/s | -52.2°C | 0% | 66.7hPa | 2.5V | 18:12:15 | 01:22:44 | 00:00:00 | |
| DL1XH-west | 2026-09-04 00:19:38 | 56.62432 | 5.61790 | 77° | 40km/h | 19068m | 4.1m/s | -52.2°C | 0.1% | 66.5hPa | 2.5V | 18:12:15 | 01:22:47 | 00:00:00 | |
| DM0DOS-11 | 2026-09-04 00:19:38 | 56.62427 | 5.61753 | 75° | 42km/h | 19060m | 4.1m/s | -52.2°C | 3.7% | 66.6hPa | 2.5V | 08:30:00 | 01:22:45 | 00:00:00 | |
| DL1XH-15 | 2026-09-04 00:19:35 | 56.62423 | 5.61714 | 81° | 44km/h | 19052m | 3.9m/s | -52.2°C | 3.6% | 66.7hPa | 2.5V | 08:30:00 | 01:22:43 | 00:00:00 | |
| GOEST3-10 | 2026-09-04 00:19:33 | 56.62421 | 5.61693 | 85° | 46km/h | 19048m | 4.5m/s | 0°C | 0% | 0hPa | 2.5V | 00:00:00 | 01:22:42 | 00:00:00 | |
| BIOWL9-15 | 2026-09-04 00:19:31 | 56.62419 | 5.61650 | 88° | 46km/h | 19039m | 4.8m/s | -52.1°C | 0.9% | 66.8hPa | 2.5V | 00:00:00 | 00:00:00 | 00:00:00 | |
| DM0DOS-11 | 2026-09-04 00:19:30 | 56.62416 | 5.61546 | 84° | 47km/h | 19019m | 4.2m/s | -52.1°C | 3.6% | 67hPa | 2.5V | 08:30:00 | 01:22:35 | 00:00:00 | |
| DL1XH-15 | 2026-09-04 00:19:29 | 56.62413 | 5.61503 | 81° | 46km/h | 19010m | 3.6m/s | -52.1°C | 3.6% | 67.1hPa | 2.6V | 08:30:00 | 01:22:33 | 00:00:00 | |
| DL1XH-west | 2026-09-04 00:19:27 | 56.62417 | 5.61567 | 86° | 46km/h | 19023m | 4.4m/s | -52.1°C | 0% | 67hPa | 2.5V | 18:12:15 | 01:22:36 | 00:00:00 | |
| BIOWL1-15 | 2026-09-04 00:19:24 | 56.62406 | 5.61342 | 88° | 49km/h | 18980m | 3.8m/s | -52.1°C | 0% | 67.4hPa | 2.6V | 18:12:15 | 01:22:26 | 00:00:00 | |
| DM0DOS-11 | 2026-09-04 00:19:17 | 56.62406 | 5.61319 | 86° | 49km/h | 18976m | 4.5m/s | -52.2°C | 3.7% | 67.5hPa | 2.5V | 08:30:00 | 01:22:25 | 00:00:00 | |
| DL1XH-west | 2026-09-04 00:19:17 | 56.62406 | 5.61319 | 87° | 49km/h | 18976m | 4.5m/s | -52.2°C | 0.1% | 67.5hPa | 2.5V | 18:12:15 | 01:22:25 | 00:00:00 | |
| DL1XH-15 | 2026-09-04 00:19:16 | 56.62404 | 5.61274 | 84° | 49km/h | 18967m | 3.5m/s | -52.3°C | 3.6% | 67.6hPa | 2.5V | 08:30:00 | 01:22:23 | 00:00:00 | |
| DM0DOS-11 | 2026-09-04 00:19:10 | 56.62384 | 5.61080 | 78° | 57km/h | 18933m | 3.8m/s | -52.2°C | 3.7% | 67.9hPa | 2.5V | 08:30:00 | 01:22:15 | 00:00:00 | |
| BIOWL1-15 | 2026-09-04 00:19:07 | 56.62384 | 5.61080 | 79° | 57km/h | 18934m | 3.8m/s | -52.2°C | 0.1% | 67.9hPa | 2.5V | 18:12:15 | 01:22:15 | 00:00:00 | |
| DL1XH-west | 2026-09-04 00:19:05 | 56.62381 | 5.61054 | 79° | 58km/h | 18929m | 4.6m/s | -52.1°C | 0% | 68hPa | 2.5V | 18:12:15 | 01:22:14 | 00:00:00 | |
| DL1XH-15 | 2026-09-04 00:19:05 | 56.62378 | 5.61028 | 80° | 57km/h | 18924m | 3.6m/s | -52.1°C | 3.6% | 68hPa | 2.6V | 08:30:00 | 01:22:13 | 00:00:00 | |
| BIOWL9-15 | 2026-09-04 00:19:00 | 56.62372 | 5.60930 | 84° | 53km/h | 18907m | 5.0m/s | -52.1°C | 0.9% | 68.2hPa | 2.6V | 00:00:00 | 00:00:00 | 00:00:00 | |
| DM0DOS-11 | 2026-09-04 00:18:57 | 56.62363 | 5.60830 | 77° | 55km/h | 18889m | 3.3m/s | -52.1°C | 3.7% | 68.4hPa | 2.6V | 08:30:00 | 01:22:05 | 00:00:00 | |
| DL1XH-west | 2026-09-04 00:18:55 | 56.62360 | 5.60805 | 77° | 58km/h | 18885m | 4.8m/s | -52.1°C | 0.1% | 68.4hPa | 2.6V | 18:12:15 | 01:22:04 | 00:00:00 | |
| DM0DOS-11 | 2026-09-04 00:18:51 | 56.62339 | 5.60573 | 82° | 57km/h | 18846m | 4m/s | -52°C | 3.6% | 68.9hPa | 2.5V | 08:30:00 | 01:21:55 | 00:00:00 | |
| BIOWL7-15 | 2026-09-04 00:18:48 | 56.62344 | 5.60652 | 84° | 58km/h | 18859m | 4.4m/s | -52.0°C | 0% | 0hPa | 2.5V | 00:00:00 | 00:00:00 | 00:00:00 | |
| DJ2DS-15 | 2026-09-04 00:18:46 | 56.62338 | 5.60573 | 83° | 57km/h | 18847m | 3.9m/s | -52.0°C | 3.6% | 68.8hPa | 2.5V | 00:00:00 | 01:21:55 | 00:00:00 | |
| DL1XH-15 | 2026-09-04 00:18:45 | 56.62334 | 5.60521 | 80° | 57km/h | 18838m | 3.8m/s | -52°C | 3.6% | 69hPa | 2.5V | 08:30:00 | 01:21:53 | 00:00:00 | |
| BIOWL1-15 | 2026-09-04 00:18:45 | 56.62320 | 5.60378 | 79° | 55km/h | 18814m | 4.5m/s | -52.3°C | 0.1% | 69.2hPa | 2.5V | 18:12:15 | 01:21:47 | 00:00:00 | |
| DL1XH-west | 2026-09-04 00:18:44 | 56.62334 | 5.60521 | 81° | 57km/h | 18838m | 3.8m/s | -52.1°C | 0% | 69hPa | 2.5V | 18:12:15 | 01:21:53 | 00:00:00 | |
| DM0DOS-11 | 2026-09-04 00:18:37 | 56.62315 | 5.60326 | 82° | 60km/h | 18807m | 3.3m/s | -52.3°C | 3.7% | 69.3hPa | 2.5V | 08:30:00 | 01:21:45 | 00:00:00 | |
| DL1XH-15 | 2026-09-04 00:18:35 | 56.62312 | 5.60271 | 82° | 58km/h | 18799m | 3.7m/s | -52.3°C | 3.7% | 69.4hPa | 2.6V | 08:30:00 | 01:21:43 | 00:00:00 | |
| DL1XH-west | 2026-09-04 00:18:34 | 56.62312 | 5.60271 | 83° | 58km/h | 18799m | 3.7m/s | -52.3°C | 0.1% | 69.4hPa | 2.6V | 18:12:15 | 01:21:43 | 00:00:00 | |
| DM0DOS-11 | 2026-09-04 00:18:30 | 56.62296 | 5.60068 | 82° | 55km/h | 18764m | 4.1m/s | -52.2°C | 3.7% | 69.8hPa | 2.5V | 08:30:00 | 01:21:35 | 00:00:00 | |
| DL1XH-15 | 2026-09-04 00:18:29 | 56.62292 | 5.60019 | 81° | 53km/h | 18756m | 3.9m/s | -52.1°C | 3.6% | 69.8hPa | 2.5V | 08:30:00 | 01:21:33 | 00:00:00 | |
| BIOWL1-15 | 2026-09-04 00:18:27 | 56.62294 | 5.60044 | 83° | 55km/h | 18760m | 4.7m/s | -52.2°C | 0.1% | 69.8hPa | 2.5V | 18:12:15 | 01:21:34 | 00:00:00 | |
| DL1XH-west | 2026-09-04 00:18:23 | 56.62290 | 5.59995 | 81° | 55km/h | 18752m | 4m/s | -52.1°C | 0.1% | 69.9hPa | 2.5V | 18:12:15 | 01:21:32 | 00:00:00 | |
| DM0DOS-11 | 2026-09-04 00:18:17 | 56.62274 | 5.59821 | 79° | 53km/h | 18721m | 3.2m/s | -51.9°C | 3.6% | 70.2hPa | 2.5V | 08:30:00 | 01:21:25 | 00:00:00 | |
| BIOWL1-15 | 2026-09-04 00:18:16 | 56.62274 | 5.59821 | 80° | 53km/h | 18721m | 3.2m/s | -52°C | 0% | 70.2hPa | 2.5V | 18:12:15 | 01:21:25 | 00:00:00 | |
| DL1XH-15 | 2026-09-04 00:18:15 | 56.62270 | 5.59774 | 80° | 49km/h | 18712m | 3.4m/s | -51.9°C | 3.7% | 70.3hPa | 2.6V | 08:30:00 | 01:21:23 | 00:00:00 | |
| DL1XH-west | 2026-09-04 00:18:13 | 56.62265 | 5.59728 | 79° | 53km/h | 18704m | 4.9m/s | -51.8°C | 0.1% | 70.4hPa | 2.6V | 18:12:15 | 01:21:21 | 00:00:00 | |
| DM0DOS-11 | 2026-09-04 00:18:10 | 56.62246 | 5.59586 | 71° | 57km/h | 18678m | 4.1m/s | -51.7°C | 3.6% | 70.7hPa | 2.6V | 08:30:00 | 01:21:15 | 00:00:00 | |
| DL1XH-15 | 2026-09-04 00:18:09 | 56.62237 | 5.59538 | 71° | 53km/h | 18669m | 4.5m/s | -51.6°C | 3.6% | 70.8hPa | 2.5V | 08:30:00 | 01:21:13 | 00:00:00 | |
| BIOWL1-15 | 2026-09-04 00:18:05 | 56.62242 | 5.59561 | 71° | 55km/h | 18674m | 3.8m/s | -51.7°C | 0% | 70.7hPa | 2.5V | 18:12:15 | 01:21:14 | 00:00:00 | |
| DL1XH-west | 2026-09-04 00:18:02 | 56.62230 | 5.59493 | 75° | 49km/h | 18661m | 4m/s | -51.6°C | 0% | 70.8hPa | 2.5V | 18:12:15 | 01:21:11 | 00:00:00 | |
| BIOWL9-15 | 2026-09-04 00:17:58 | 56.62218 | 5.59406 | 73° | 46km/h | 18644m | 4.4m/s | -51.6°C | 0.9% | 71.0hPa | 2.5V | 00:00:00 | 00:00:00 | 00:00:00 | |
| DL1XH-15 | 2026-09-04 00:17:55 | 56.62200 | 5.59320 | 65° | 55km/h | 18627m | 3.4m/s | -51.7°C | 3.6% | 71.2hPa | 2.5V | 08:30:00 | 01:21:03 | 00:00:00 | |
| BIOWL1-15 | 2026-09-04 00:17:54 | 56.62189 | 5.59276 | 67° | 53km/h | 18619m | 3.2m/s | -51.6°C | 0% | 71.3hPa | 2.6V | 18:12:15 | 01:21:01 | 00:00:00 | |
| DL1XH-west | 2026-09-04 00:17:51 | 56.62184 | 5.59254 | 70° | 51km/h | 18615m | 4m/s | -51.6°C | 0% | 71.3hPa | 2.6V | 18:12:15 | 01:21:00 | 00:00:00 | |
| DM0DOS-11 | 2026-09-04 00:17:50 | 56.62167 | 5.59142 | 72° | 46km/h | 18596m | 3.9m/s | -51.6°C | 3.5% | 71.6hPa | 2.6V | 08:30:00 | 01:20:55 | 00:00:00 | |
| DL1XH-15 | 2026-09-04 00:17:49 | 56.62161 | 5.59104 | 72° | 44km/h | 18588m | 4.6m/s | -51.6°C | 3.5% | 71.7hPa | 2.5V | 08:30:00 | 01:20:53 | 00:00:00 | |
| BIOWL1-15 | 2026-09-04 00:17:41 | 56.62145 | 5.59003 | 72° | 47km/h | 18567m | 4.3m/s | -52°C | 0% | 71.9hPa | 2.6V | 18:12:15 | 01:20:48 | 00:00:00 | |
| DL1XH-west | 2026-09-04 00:17:40 | 56.62148 | 5.59024 | 73° | 46km/h | 18571m | 3.9m/s | -51.9°C | 0% | 71.9hPa | 2.6V | 18:12:15 | 01:20:49 | 00:00:00 | |
| DM0DOS-11 | 2026-09-04 00:17:37 | 56.62133 | 5.58938 | 72° | 49km/h | 18553m | 3.5m/s | -52.2°C | 3.7% | 72.1hPa | 2.5V | 08:30:00 | 01:20:45 | 00:00:00 | |
| BIOWL1-15 | 2026-09-04 00:17:31 | 56.62115 | 5.58837 | 73° | 46km/h | 18533m | 3.7m/s | -52.1°C | 0.1% | 72.3hPa | 2.6V | 18:12:15 | 01:20:40 | 00:00:00 | |
| DM0DOS-11 | 2026-09-04 00:17:31 | 56.62094 | 5.58749 | 60° | 44km/h | 18511m | 4.2m/s | -52°C | 3.7% | 72.5hPa | 2.5V | 08:30:00 | 01:20:35 | 00:00:00 | |
| DL1XH-west | 2026-09-04 00:17:30 | 56.62108 | 5.58801 | 68° | 40km/h | 18525m | 4.2m/s | -52.1°C | 0.1% | 72.4hPa | 2.5V | 18:12:15 | 01:20:38 | 00:00:00 | |
| DL1XH-west | 2026-09-04 00:17:18 | 56.62049 | 5.58613 | 65° | 38km/h | 18478m | 4.8m/s | -51.8°C | 0% | 72.9hPa | 2.6V | 18:12:15 | 01:20:27 | 00:00:00 | |
| DM0DOS-11 | 2026-09-04 00:17:17 | 56.62038 | 5.58565 | 70° | 38km/h | 18464m | 3.9m/s | -51.7°C | 3.6% | 73.1hPa | 2.5V | 08:30:00 | 01:20:24 | 00:00:00 | |
| DM0DOS-11 | 2026-09-04 00:17:10 | 56.61984 | 5.58409 | 58° | 38km/h | 18422m | 4.4m/s | -51.5°C | 3.6% | 73.6hPa | 2.6V | 08:30:00 | 01:20:14 | 00:00:00 | |
| DL1XH-15 | 2026-09-04 00:17:09 | 56.61979 | 5.58394 | 63° | 38km/h | 18418m | 3.8m/s | -51.4°C | 3.6% | 73.6hPa | 2.6V | 08:30:00 | 01:20:13 | 00:00:00 | |
| DL1XH-west | 2026-09-04 00:17:08 | 56.62002 | 5.58452 | 50° | 42km/h | 18434m | 4.5m/s | -51.5°C | 0% | 73.4hPa | 2.5V | 18:12:15 | 01:20:17 | 00:00:00 | |
| BIOWL1-15 | 2026-09-04 00:17:08 | 56.61984 | 5.58409 | 59° | 38km/h | 18422m | 4.4m/s | -51.5°C | 0% | 73.6hPa | 2.6V | 18:12:15 | 01:20:14 | 00:00:00 | |
| DL1XH-west | 2026-09-04 00:16:58 | 56.61955 | 5.58305 | 59° | 38km/h | 18393m | 3.6m/s | -51.5°C | 0% | 73.9hPa | 2.6V | 18:12:15 | 01:20:07 | 00:00:00 | |
| DM0DOS-11 | 2026-09-04 00:16:58 | 56.61938 | 5.58263 | 46° | 37km/h | 18379m | 3.5m/s | -51.6°C | 3.6% | 74hPa | 2.5V | 08:30:00 | 01:20:04 | 00:00:00 | |
| BIOWL1-15 | 2026-09-04 00:16:57 | 56.61920 | 5.58225 | 54° | 37km/h | 18368m | 3.8m/s | -51.6°C | 0% | 74.2hPa | 2.5V | 18:12:15 | 01:20:01 | 00:00:00 | |
| BIOWL9-15 | 2026-09-04 00:16:56 | 56.61944 | 5.58276 | 50° | 37km/h | 18384m | 4.4m/s | -51.6°C | -1.0% | 74.0hPa | 2.5V | 00:00:00 | 00:00:00 | 00:00:00 | |
| DL1XH-15 | 2026-09-04 00:16:55 | 56.61932 | 5.58251 | 48° | 37km/h | 18376m | 3.8m/s | -51.5°C | 3.5% | 74.1hPa | 2.5V | 08:30:00 | 01:20:03 | 00:00:00 | |
| BIOWL7-15 | 2026-09-04 00:16:51 | 56.61920 | 5.58225 | 55° | 37km/h | 18368m | 3.8m/s | 0°C | 0% | 0hPa | 2.6V | 00:00:00 | 00:00:00 | 00:00:00 | |
| DL1XH-15 | 2026-09-04 00:16:49 | 56.61893 | 5.58121 | 65° | 26km/h | 18334m | 3.9m/s | -51.5°C | 3.5% | 74.6hPa | 2.6V | 08:30:00 | 01:19:53 | 00:00:00 | |
| DL1XH-west | 2026-09-04 00:16:47 | 56.61901 | 5.58158 | 71° | 31km/h | 18346m | 3.5m/s | -51.5°C | 0% | 74.4hPa | 2.5V | 18:12:15 | 01:19:56 | 00:00:00 | |
| BIOWL1-15 | 2026-09-04 00:16:42 | 56.61885 | 5.58089 | 68° | 29km/h | 18321m | 4.3m/s | 0°C | 0% | 74.7hPa | 2.5V | 18:12:15 | 01:19:50 | 00:00:00 | |
| DL1XH-west | 2026-09-04 00:16:37 | 56.61875 | 5.58022 | 82° | 33km/h | 18299m | 5.4m/s | -51.5°C | 0% | 75hPa | 2.5V | 18:12:15 | 01:19:45 | 00:00:00 | |
| DM0DOS-11 | 2026-09-04 00:16:37 | 56.61874 | 5.58007 | 82° | 33km/h | 18295m | 3.9m/s | -51.5°C | 3.5% | 75hPa | 2.5V | 08:30:00 | 01:19:44 | 00:00:00 | |
| DL1XH-15 | 2026-09-04 00:16:35 | 56.61872 | 5.57979 | 80° | 29km/h | 18286m | 3.8m/s | -51.5°C | 3.5% | 75.1hPa | 2.5V | 08:30:00 | 01:19:42 | 00:00:00 | |
| BIOWL1-15 | 2026-09-04 00:16:32 | 56.61867 | 5.57928 | 81° | 27km/h | 18269m | 3.7m/s | 0°C | 0% | 0hPa | 2.5V | 18:12:15 | 01:19:38 | 00:00:00 | |
| DL1XH-15 | 2026-09-04 00:16:28 | 56.61869 | 5.57860 | 107° | 29km/h | 18244m | 4.6m/s | -52°C | 3.5% | 75.6hPa | 2.5V | 08:30:00 | 01:19:32 | 00:00:00 | |
| DM0DOS-11 | 2026-09-04 00:16:27 | 56.61866 | 5.57885 | 97° | 26km/h | 18252m | 4.3m/s | -51.8°C | 3.5% | 75.5hPa | 2.6V | 08:30:00 | 01:19:34 | 00:00:00 | |
| DL1XH-west | 2026-09-04 00:16:26 | 56.61865 | 5.57896 | 92° | 22km/h | 18257m | 3.5m/s | -51.7°C | 0% | 75.5hPa | 2.5V | 18:12:15 | 01:19:35 | 00:00:00 | |
| DJ2DS-15 | 2026-09-04 00:16:26 | 56.61865 | 5.57896 | 92° | 29km/h | 18257m | 3.4m/s | -51.6°C | 3.5% | 75.4hPa | 2.5V | 00:00:00 | 01:19:35 | 00:00:00 | |
| BIOWL9-15 | 2026-09-04 00:16:25 | 56.61867 | 5.57873 | 103° | 27km/h | 18248m | 3.9m/s | 0°C | -1.0% | -1.0hPa | 2.5V | 00:00:00 | 00:00:00 | 00:00:00 | |
| DM0DOS-11 | 2026-09-04 00:16:19 | 56.61880 | 5.57751 | 89° | 26km/h | 18210m | 3.6m/s | -52.4°C | 3.7% | 76hPa | 2.5V | 08:30:00 | 01:19:24 | 00:00:00 | |
| BIOWL1-15 | 2026-09-04 00:16:19 | 56.61880 | 5.57791 | 94° | 33km/h | 18223m | 3.8m/s | 0°C | 0% | 0hPa | 2.6V | 18:12:15 | 01:19:27 | 00:00:00 | |
| DL1XH-west | 2026-09-04 00:16:16 | 56.61880 | 5.57764 | 90° | 27km/h | 18214m | 4.4m/s | -52.4°C | 0.1% | 76hPa | 2.5V | 18:12:15 | 01:19:25 | 00:00:00 | |
| DL1XH-15 | 2026-09-04 00:16:13 | 56.61882 | 5.57714 | 103° | 27km/h | 18198m | 3.8m/s | -52.4°C | 3.7% | 76.1hPa | 2.5V | 08:30:00 | 01:19:21 | 00:00:00 | |
| DM0DOS-11 | 2026-09-04 00:16:08 | 56.61900 | 5.57618 | 105° | 33km/h | 18169m | 3.9m/s | -52.5°C | 3.7% | 76.5hPa | 2.5V | 08:30:00 | 01:19:14 | 00:00:00 | |
| DL1XH-west | 2026-09-04 00:16:06 | 56.61898 | 5.57632 | 107° | 35km/h | 18174m | 4.5m/s | -52.5°C | 0.1% | 76.4hPa | 2.5V | 18:12:15 | 01:19:15 | 00:00:00 | |
| DJ2DS-15 | 2026-09-04 00:16:06 | 56.61898 | 5.57632 | 107° | 37km/h | 18174m | 4.4m/s | -52.5°C | 3.7% | 76.4hPa | 2.5V | 00:00:00 | 01:19:15 | 00:00:00 | |
| DL1XH-15 | 2026-09-04 00:16:03 | 56.61905 | 5.57573 | 97° | 35km/h | 18157m | 4.1m/s | -52.6°C | 3.8% | 76.6hPa | 2.5V | 08:30:00 | 01:19:11 | 00:00:00 | |
| DM0DOS-11 | 2026-09-04 00:15:57 | 56.61919 | 5.57464 | 108° | 37km/h | 18126m | 4m/s | -52.8°C | 3.8% | 77hPa | 2.5V | 08:30:00 | 01:19:04 | 00:00:00 | |
| DL1XH-west | 2026-09-04 00:15:55 | 56.61919 | 5.57464 | 109° | 37km/h | 18126m | 4m/s | -52.8°C | 0.1% | 77hPa | 2.5V | 18:12:15 | 01:19:04 | 00:00:00 | |
| DL1XH-15 | 2026-09-04 00:15:53 | 56.61927 | 5.57412 | 101° | 40km/h | 18114m | 3.4m/s | -52.8°C | 3.8% | 77.1hPa | 2.6V | 08:30:00 | 01:19:01 | 00:00:00 | |
| DM0DOS-11 | 2026-09-04 00:15:47 | 56.61936 | 5.57288 | 101° | 38km/h | 18087m | 3.3m/s | -52.7°C | 3.8% | 77.5hPa | 2.6V | 08:30:00 | 01:18:54 | 00:00:00 | |
| DL1XH-west | 2026-09-04 00:15:44 | 56.61938 | 5.57271 | 107° | 37km/h | 18083m | 4.6m/s | -52.7°C | 0.1% | 77.5hPa | 2.6V | 18:12:15 | 01:18:53 | 00:00:00 | |
| DL1XH-15 | 2026-09-04 00:15:43 | 56.61945 | 5.57239 | 112° | 38km/h | 18074m | 4.9m/s | -52.6°C | 3.8% | 0hPa | 2.5V | 08:30:00 | 01:18:51 | 00:00:00 | |
| DM0DOS-11 | 2026-09-04 00:15:37 | 56.61965 | 5.57121 | 97° | 42km/h | 18046m | 2.9m/s | -52.5°C | 3.8% | 77.9hPa | 2.5V | 08:30:00 | 01:18:44 | 00:00:00 | |
| DL1XH-15 | 2026-09-04 00:15:35 | 56.61970 | 5.57068 | 104° | 38km/h | 18034m | 3.8m/s | -52.4°C | 3.8% | 0hPa | 2.6V | 08:30:00 | 01:18:41 | 00:00:00 | |
| DL1XH-west | 2026-09-04 00:15:33 | 56.61968 | 5.57084 | 100° | 38km/h | 18037m | 3.8m/s | -52.4°C | 0.1% | 78.1hPa | 2.6V | 18:12:15 | 01:18:42 | 00:00:00 | |
| DJ2DS-15 | 2026-09-04 00:15:30 | 56.61976 | 5.57033 | 110° | 42km/h | 18026m | 4.5m/s | -52.4°C | 1.0% | 78.2hPa | 2.6V | 00:00:00 | 00:00:00 | 00:00:00 | |
| DM0DOS-11 | 2026-09-04 00:15:29 | 56.61999 | 5.56942 | 112° | 46km/h | 18005m | 4.7m/s | -52.2°C | 3.7% | 78.5hPa | 2.6V | 08:30:00 | 01:18:34 | 00:00:00 | |
| DJ2DS-15 | 2026-09-04 00:15:26 | 56.61995 | 5.56960 | 115° | 44km/h | 18009m | 4.1m/s | -52.2°C | 3.7% | 78.4hPa | 2.5V | 00:00:00 | 01:18:35 | 00:00:00 | |
| DL1XH-15 | 2026-09-04 00:15:23 | 56.62009 | 5.56886 | 105° | 40km/h | 17992m | 3.6m/s | -52.1°C | 0% | 0hPa | 2.5V | 08:30:00 | 01:18:31 | 00:00:00 | |
| DL1XH-west | 2026-09-04 00:15:22 | 56.62009 | 5.56886 | 105° | 40km/h | 17992m | 3.6m/s | -52.1°C | 0.1% | 78.6hPa | 2.5V | 18:12:15 | 01:18:31 | 00:00:00 | |
| DM0DOS-11 | 2026-09-04 00:15:17 | 56.62038 | 5.56764 | 121° | 46km/h | 17964m | 4m/s | -52°C | 3.7% | 78.9hPa | 2.5V | 08:30:00 | 01:18:24 | 00:00:00 | |
| DL1XH-15 | 2026-09-04 00:15:16 | 56.62056 | 5.56705 | 114° | 49km/h | 17953m | 3.8m/s | -51.9°C | 0% | 0hPa | 2.6V | 08:30:00 | 01:18:21 | 00:00:00 | |
| DL1XH-west | 2026-09-04 00:15:12 | 56.62065 | 5.56665 | 111° | 44km/h | 17944m | 4.2m/s | -51.9°C | 0% | 79.2hPa | 2.5V | 18:12:15 | 01:18:19 | 00:00:00 | |
| DM0DOS-11 | 2026-09-04 00:15:11 | 56.62084 | 5.56572 | 112° | 46km/h | 17923m | 5m/s | -51.9°C | 3.6% | 79.5hPa | 2.5V | 08:30:00 | 01:18:14 | 00:00:00 | |
| DJ2DS-15 | 2026-09-04 00:15:06 | 56.62080 | 5.56591 | 111° | 53km/h | 17928m | 3.9m/s | -51.8°C | 3.6% | 79.4hPa | 2.5V | 00:00:00 | 01:18:15 | 00:00:00 | |
| DL1XH-15 | 2026-09-04 00:15:03 | 56.62100 | 5.56511 | 116° | 53km/h | 17910m | 4.3m/s | 0°C | 0% | 0hPa | 2.5V | 00:00:00 | 01:18:11 | 00:00:00 | |
| DL1XH-west | 2026-09-04 00:15:02 | 56.62106 | 5.56489 | 116° | 53km/h | 17906m | 3.7m/s | -52.1°C | 0.1% | 79.7hPa | 2.6V | 18:12:15 | 01:18:10 | 00:00:00 | |
| DL1XH-15 | 2026-09-04 00:14:55 | 56.62156 | 5.56293 | 110° | 57km/h | 17867m | 5.1m/s | 0°C | 0% | 0hPa | 2.5V | 00:00:00 | 01:18:01 | 00:00:00 | |
| DL1XH-west | 2026-09-04 00:14:52 | 56.62167 | 5.56243 | 113° | 58km/h | 17859m | 3.7m/s | -52°C | 0.1% | 80.3hPa | 2.5V | 18:12:15 | 01:17:59 | 00:00:00 | |
| DJ2DS-15 | 2026-09-04 00:14:46 | 56.62190 | 5.56149 | 112° | 57km/h | 17842m | 4.7m/s | -51.9°C | 3.6% | 80.4hPa | 2.6V | 00:00:00 | 01:17:55 | 00:00:00 | |
| DL1XH-15 | 2026-09-04 00:14:44 | 56.62208 | 5.56055 | 108° | 57km/h | 17825m | 4.1m/s | 0°C | 0% | 0hPa | 2.5V | 00:00:00 | 01:17:51 | 00:00:00 | |
| DL1XH-west | 2026-09-04 00:14:40 | 56.62217 | 5.56005 | 107° | 58km/h | 17817m | 3.8m/s | -52.1°C | 0.1% | 80.8hPa | 2.6V | 18:12:15 | 01:17:49 | 00:00:00 | |
| DL1XH-15 | 2026-09-04 00:14:33 | 56.62259 | 5.55812 | 110° | 55km/h | 17784m | 3.6m/s | 0°C | 0% | 0hPa | 2.5V | 00:00:00 | 01:17:41 | 00:00:00 | |
| DL1XH-west | 2026-09-04 00:14:30 | 56.62267 | 5.55764 | 106° | 57km/h | 17775m | 3.6m/s | -52.3°C | 0.2% | 81.3hPa | 2.6V | 18:12:15 | 01:17:39 | 00:00:00 | |
| DJ2DS-15 | 2026-09-04 00:14:26 | 56.62284 | 5.55665 | 109° | 57km/h | 17759m | 3.5m/s | -52.1°C | 3.9% | 81.4hPa | 2.5V | 00:00:00 | 01:17:35 | 00:00:00 | |
| DM0DOS-11 | 2026-09-04 00:14:24 | 56.62310 | 5.55512 | 107° | 57km/h | 17734m | 4.1m/s | -52°C | 3.8% | 81.8hPa | 2.5V | 08:30:00 | 01:17:29 | 00:00:00 | |
| DL1XH-15 | 2026-09-04 00:14:23 | 56.62306 | 5.55537 | 107° | 57km/h | 17738m | 3.9m/s | 0°C | 0% | 0hPa | 2.5V | 00:00:00 | 01:17:30 | 00:00:00 | |
| DL1XH-west | 2026-09-04 00:14:20 | 56.62310 | 5.55512 | 107° | 57km/h | 17734m | 4.1m/s | -52°C | 0.2% | 81.8hPa | 2.5V | 18:12:15 | 01:17:29 | 00:00:00 | |
| DL1XH-west | 2026-09-04 00:14:10 | 56.62358 | 5.55266 | 105° | 57km/h | 17693m | 4.9m/s | -51.9°C | 0.1% | 82.4hPa | 2.6V | 18:12:15 | 01:17:19 | 00:00:00 | |
| DM0DOS-11 | 2026-09-04 00:14:09 | 56.62368 | 5.55189 | 103° | 58km/h | 17679m | 4.4m/s | -51.8°C | 3.6% | 82.5hPa | 2.5V | 08:30:00 | 01:17:16 | 00:00:00 | |
| DL1XH-west | 2026-09-04 00:13:59 | 56.62408 | 5.54985 | 109° | 58km/h | 17646m | 4.2m/s | -51.8°C | 0% | 82.9hPa | 2.6V | 18:12:15 | 01:17:08 | 00:00:00 | |
| DM0DOS-11 | 2026-09-04 00:13:58 | 56.62417 | 5.54933 | 106° | 60km/h | 17638m | 3.4m/s | -51.7°C | 3.6% | 83hPa | 2.6V | 08:30:00 | 01:17:06 | 00:00:00 | |
| DL1XH-west | 2026-09-04 00:13:49 | 56.62448 | 5.54723 | 107° | 66km/h | 17605m | 2.8m/s | -51.7°C | 0.1% | 83.4hPa | 2.5V | 18:12:15 | 01:16:58 | 00:00:00 | |
| DM0DOS-11 | 2026-09-04 00:13:48 | 56.62458 | 5.54664 | 106° | 68km/h | 17597m | 4.2m/s | -51.7°C | 3.6% | 83.5hPa | 2.6V | 08:30:00 | 01:16:56 | 00:00:00 | |
| DJ2DS-15 | 2026-09-04 00:13:46 | 56.62462 | 5.54635 | 108° | 66km/h | 17593m | 3.4m/s | -51.7°C | 3.6% | 83.6hPa | 2.6V | 00:00:00 | 01:16:55 | 08:30:00 | |
| DL1XH-15 | 2026-09-04 00:13:43 | 56.62492 | 5.54440 | 100° | 64km/h | 17565m | 4.9m/s | 0°C | 0% | 0hPa | 2.6V | 00:00:00 | 01:16:48 | 00:00:00 | |
| DL1XH-west | 2026-09-04 00:13:39 | 56.62492 | 5.54440 | 100° | 64km/h | 17565m | 4.9m/s | -52.3°C | 0.2% | 84hPa | 2.6V | 18:12:15 | 01:16:48 | 00:00:00 | |
| DM0DOS-11 | 2026-09-04 00:13:39 | 56.62498 | 5.54381 | 101° | 68km/h | 17556m | 4.1m/s | -52.3°C | 3.8% | 84.1hPa | 2.5V | 08:30:00 | 01:16:46 | 00:00:00 | |
| DL1XH-15 | 2026-09-04 00:13:34 | 56.62528 | 5.54102 | 99° | 66km/h | 17518m | 4.6m/s | 0°C | 0% | 0hPa | 2.6V | 00:00:00 | 01:16:37 | 00:00:00 | |
| DL1XH-west | 2026-09-04 00:13:29 | 56.62528 | 5.54102 | 100° | 66km/h | 17518m | 4.6m/s | -52.4°C | 0.2% | 84.6hPa | 2.6V | 18:12:15 | 01:16:37 | 00:00:00 | |
| DM0DOS-11 | 2026-09-04 00:13:28 | 56.62531 | 5.54072 | 99° | 66km/h | 17514m | 4.3m/s | -52.4°C | 3.7% | 84.6hPa | 2.5V | 08:30:00 | 01:16:36 | 00:00:00 | |
| DJ2DS-15 | 2026-09-04 00:13:26 | 56.62534 | 5.54042 | 100° | 68km/h | 17510m | 4.3m/s | -52.4°C | 3.7% | 84.6hPa | 2.5V | 00:00:00 | 01:16:35 | 00:00:00 | |
| DM0DOS-11 | 2026-09-04 00:13:18 | 56.62554 | 5.53761 | 95° | 69km/h | 17472m | 4.1m/s | -52.5°C | 3.9% | 85.2hPa | 2.5V | 08:30:00 | 01:16:26 | 00:00:00 | |
| DL1XH-west | 2026-09-04 00:13:17 | 56.62554 | 5.53761 | 96° | 69km/h | 17473m | 4.1m/s | -52.5°C | 0.3% | 85.2hPa | 2.5V | 18:12:15 | 01:16:26 | 00:00:00 | |
| DM0DOS-11 | 2026-09-04 00:13:08 | 56.62570 | 5.53458 | 98° | 66km/h | 17431m | 4.1m/s | -52.5°C | 3.8% | 85.7hPa | 2.5V | 08:30:00 | 01:16:16 | 00:00:00 | |
| DL1XH-west | 2026-09-04 00:13:07 | 56.62570 | 5.53458 | 98° | 66km/h | 17431m | 4.1m/s | -52.5°C | 0.2% | 85.7hPa | 2.5V | 18:12:15 | 01:16:16 | 00:00:00 | |
| DJ2DS-15 | 2026-09-04 00:13:06 | 56.62572 | 5.53428 | 99° | 66km/h | 17427m | 3.6m/s | -52.5°C | 3.8% | 85.7hPa | 2.6V | 00:00:00 | 01:16:15 | 00:00:00 | |
| DM0DOS-11 | 2026-09-04 00:12:58 | 56.62587 | 5.53154 | 94° | 69km/h | 17390m | 4m/s | -52.3°C | 3.8% | 86.3hPa | 2.6V | 08:30:00 | 01:16:06 | 00:00:00 | |
| DL1XH-west | 2026-09-04 00:12:56 | 56.62589 | 5.53123 | 95° | 68km/h | 17386m | 4.3m/s | -52.3°C | 0.2% | 86.3hPa | 2.5V | 18:12:15 | 01:16:05 | 00:00:00 | |
| DM0DOS-11 | 2026-09-04 00:12:48 | 56.62605 | 5.52854 | 90° | 66km/h | 17348m | 3.6m/s | -52°C | 3.8% | 86.8hPa | 2.6V | 08:30:00 | 01:15:56 | 00:00:00 | |
| DL1XH-west | 2026-09-04 00:12:46 | 56.62606 | 5.52793 | 91° | 66km/h | 17340m | 4.2m/s | -52°C | 0.2% | 86.9hPa | 2.6V | 18:12:15 | 01:15:54 | 00:00:00 | |
| DM0DOS-11 | 2026-09-04 00:12:38 | 56.62615 | 5.52561 | 93° | 60km/h | 17307m | 4.5m/s | -51.7°C | 3.8% | 87.4hPa | 2.5V | 08:30:00 | 01:15:46 | 00:00:00 | |
| DL1XH-west | 2026-09-04 00:12:34 | 56.62616 | 5.52477 | 93° | 60km/h | 17294m | 4.8m/s | -51.6°C | 0.2% | 87.6hPa | 2.6V | 18:12:15 | 01:15:43 | 00:00:00 | |
| DM0DOS-11 | 2026-09-04 00:12:28 | 56.62622 | 5.52281 | 90° | 58km/h | 17264m | 4.8m/s | -51.4°C | 3.7% | 88hPa | 2.6V | 08:30:00 | 01:15:36 | 00:00:00 | |
| DL1XH-west | 2026-09-04 00:12:24 | 56.62621 | 5.52200 | 90° | 57km/h | 17250m | 4.5m/s | -51.3°C | 0.2% | 88.2hPa | 2.5V | 18:12:15 | 01:15:33 | 00:00:00 | |
| DM0DOS-11 | 2026-09-04 00:12:19 | 56.62619 | 5.52009 | 88° | 60km/h | 17220m | 5.2m/s | -51.1°C | 3.7% | 88.5hPa | 2.6V | 08:30:00 | 01:15:26 | 00:00:00 | |
| DL1XH-west | 2026-09-04 00:12:14 | 56.62618 | 5.51900 | 89° | 58km/h | 17204m | 3.4m/s | -51.1°C | 0.1% | 88.8hPa | 2.5V | 18:12:15 | 01:15:22 | 00:00:00 | |
| DM0DOS-11 | 2026-09-04 00:12:08 | 56.62620 | 5.51730 | 93° | 66km/h | 17176m | 5m/s | -50.9°C | 3.7% | 89.2hPa | 2.5V | 08:30:00 | 01:15:16 | 00:00:00 | |
| DL1XH-west | 2026-09-04 00:12:03 | 56.62622 | 5.51610 | 90° | 64km/h | 17157m | 4m/s | -50.8°C | 0.2% | 89.4hPa | 2.6V | 18:12:15 | 01:15:12 | 00:00:00 | |
| DL1XH-west | 2026-09-04 00:11:53 | 56.62619 | 5.51275 | 91° | 71km/h | 17109m | 5m/s | -50.5°C | 0.2% | 90.1hPa | 2.6V | 18:12:15 | 01:15:01 | 00:00:00 | |
| DM0DOS-11 | 2026-09-04 00:11:52 | 56.62620 | 5.51120 | 88° | 64km/h | 17086m | 5m/s | -50.3°C | 3.5% | 90.4hPa | 2.5V | 08:30:00 | 01:14:56 | 00:00:00 | |
| DL1XH-west | 2026-09-04 00:11:42 | 56.62618 | 5.50944 | 90° | 69km/h | 17059m | 3.1m/s | -50.1°C | 0.1% | 90.8hPa | 2.6V | 18:12:15 | 01:14:50 | 00:00:00 | |
| DM0DOS-11 | 2026-09-04 00:11:40 | 56.62621 | 5.50814 | 90° | 71km/h | 17043m | 4.4m/s | -50°C | 3.6% | 91hPa | 2.5V | 08:30:00 | 01:14:46 | 00:00:00 | |
| DL1XH-west | 2026-09-04 00:11:31 | 56.62623 | 5.50602 | 91° | 68km/h | 17013m | 3.6m/s | -49.9°C | 0.2% | 91.5hPa | 2.6V | 18:12:15 | 01:14:39 | 00:00:00 | |
| DM0DOS-11 | 2026-09-04 00:11:29 | 56.62624 | 5.50509 | 89° | 68km/h | 17001m | 3.5m/s | -49.9°C | 3.5% | 91.6hPa | 2.5V | 08:30:00 | 01:14:36 | 00:00:00 | |
| DL1XH-west | 2026-09-04 00:11:20 | 56.62618 | 5.50282 | 91° | 71km/h | 16970m | 4.2m/s | -49.9°C | 0.2% | 92hPa | 2.5V | 18:12:15 | 01:14:29 | 00:00:00 | |
| DM0DOS-11 | 2026-09-04 00:11:18 | 56.62620 | 5.50186 | 95° | 68km/h | 16956m | 4m/s | -49.9°C | 3.5% | 92.2hPa | 2.6V | 08:30:00 | 01:14:26 | 00:00:00 | |
| DL1XH-west | 2026-09-04 00:11:09 | 56.62625 | 5.49928 | 89° | 75km/h | 16922m | 4m/s | -49.8°C | 0.1% | 92.7hPa | 2.5V | 18:12:15 | 01:14:18 | 00:00:00 | |
| DM0DOS-11 | 2026-09-04 00:11:08 | 56.62625 | 5.49860 | 92° | 73km/h | 16913m | 4.1m/s | -49.9°C | 3.5% | 92.8hPa | 2.5V | 08:30:00 | 01:14:16 | 00:00:00 | |
| DL1XH-west | 2026-09-04 00:10:59 | 56.62634 | 5.49574 | 89° | 73km/h | 16874m | 4.3m/s | -49.8°C | 0.3% | 93.4hPa | 2.5V | 18:12:15 | 01:14:07 | 00:00:00 | |
| DM0DOS-11 | 2026-09-04 00:10:59 | 56.62633 | 5.49541 | 88° | 73km/h | 16869m | 5.7m/s | -49.7°C | 3.5% | 93.5hPa | 2.5V | 08:30:00 | 01:14:06 | 00:00:00 | |
| DL1XH-west | 2026-09-04 00:10:48 | 56.62631 | 5.49237 | 91° | 75km/h | 16828m | 4.6m/s | -49.5°C | 0.1% | 94hPa | 2.5V | 18:12:15 | 01:13:57 | 00:00:00 | |
| DM0DOS-11 | 2026-09-04 00:10:48 | 56.62630 | 5.49140 | 87° | 68km/h | 16814m | 3.7m/s | -49.4°C | 3.4% | 94.2hPa | 2.5V | 08:30:00 | 01:13:54 | 00:00:00 | |
| DL1XH-west | 2026-09-04 00:10:38 | 56.62618 | 5.48910 | 87° | 78km/h | 16785m | 4.6m/s | -49.6°C | 0% | 94.7hPa | 2.5V | 18:12:15 | 01:13:47 | 00:00:00 | |
| DM0DOS-11 | 2026-09-04 00:10:36 | 56.62616 | 5.48799 | 88° | 80km/h | 16771m | 4.3m/s | -49.7°C | 3.4% | 94.9hPa | 2.5V | 08:30:00 | 01:13:44 | 00:00:00 | |
| DM0DOS-11 | 2026-09-04 00:10:29 | 56.62588 | 5.48435 | 84° | 82km/h | 16727m | 4.3m/s | -50.1°C | 3.5% | 95.5hPa | 2.5V | 08:30:00 | 01:13:34 | 00:00:00 | |
| DL1XH-west | 2026-09-04 00:10:28 | 56.62594 | 5.48510 | 81° | 82km/h | 16736m | 4.1m/s | -50.2°C | 0.2% | 95.4hPa | 2.5V | 18:12:15 | 01:13:36 | 00:00:00 | |
| DJ2DS-15 | 2026-09-04 00:10:25 | 56.62588 | 5.48435 | 85° | 77km/h | 16727m | 4.3m/s | -50.1°C | 3.5% | 95.5hPa | 2.5V | 00:00:00 | 01:13:34 | 00:00:00 | |
| DM0DOS-11 | 2026-09-04 00:10:18 | 56.62556 | 5.48081 | 80° | 73km/h | 16685m | 4.3m/s | -49.9°C | 3.4% | 96.1hPa | 2.5V | 08:30:00 | 01:13:24 | 00:00:00 | |
| DL1XH-west | 2026-09-04 00:10:17 | 56.62559 | 5.48115 | 79° | 75km/h | 16689m | 4.1m/s | -49.9°C | 0.1% | 96.1hPa | 2.5V | 18:12:15 | 01:13:25 | 00:00:00 | |
| DM0DOS-11 | 2026-09-04 00:10:09 | 56.62523 | 5.47748 | 78° | 75km/h | 16643m | 4.9m/s | -49.7°C | 3.4% | 96.8hPa | 2.5V | 08:30:00 | 01:13:14 | 00:00:00 | |
| DL1XH-west | 2026-09-04 00:10:06 | 56.62523 | 5.47748 | 79° | 75km/h | 16643m | 4.9m/s | -49.7°C | 0.1% | 96.8hPa | 2.5V | 18:12:15 | 01:13:14 | 00:00:00 | |
| DJ2DS-15 | 2026-09-04 00:10:06 | 56.62523 | 5.47748 | 78° | 73km/h | 16643m | 4.9m/s | -49.7°C | 1.0% | 96.8hPa | 2.6V | 00:00:00 | 00:00:00 | 00:00:00 | |
| DJ2DS-15 | 2026-09-04 00:10:05 | 56.62523 | 5.47748 | 79° | 71km/h | 16643m | 4.8m/s | -49.7°C | 3.4% | 96.7hPa | 2.6V | 00:00:00 | 01:13:14 | 00:00:00 | |
| DM0DOS-11 | 2026-09-04 00:09:58 | 56.62490 | 5.47428 | 78° | 71km/h | 16601m | 4.2m/s | -50.1°C | 3.4% | 97.4hPa | 2.6V | 08:30:00 | 01:13:04 | 00:00:00 | |
| DL1XH-west | 2026-09-04 00:09:56 | 56.62494 | 5.47460 | 80° | 71km/h | 16605m | 5.1m/s | -50.1°C | 0.1% | 97.4hPa | 2.6V | 18:12:15 | 01:13:05 | 00:00:00 | |
| DM0DOS-11 | 2026-09-04 00:09:48 | 56.62448 | 5.47115 | 84° | 64km/h | 16558m | 3.5m/s | -51°C | 3.6% | 98hPa | 2.6V | 08:30:00 | 01:12:54 | 00:00:00 | |
| DL1XH-west | 2026-09-04 00:09:45 | 56.62448 | 5.47115 | 84° | 64km/h | 16558m | 3.5m/s | -51°C | 0.2% | 98hPa | 2.6V | 18:12:15 | 01:12:54 | 00:00:00 | |
| DJ2DS-15 | 2026-09-04 00:09:45 | 56.62448 | 5.47115 | 85° | 73km/h | 16558m | 3.4m/s | -50.9°C | 3.6% | 98.0hPa | 2.6V | 00:00:00 | 01:12:54 | 00:00:00 | |
| DM0DOS-11 | 2026-09-04 00:09:39 | 56.62415 | 5.46797 | 76° | 73km/h | 16515m | 3.5m/s | -51.1°C | 3.7% | 98.7hPa | 2.5V | 08:30:00 | 01:12:44 | 00:00:00 | |
| DL1XH-west | 2026-09-04 00:09:34 | 56.62404 | 5.46695 | 81° | 75km/h | 16503m | 3.7m/s | -51°C | 0.3% | 98.9hPa | 2.6V | 18:12:15 | 01:12:41 | 00:00:00 | |
| DM0DOS-11 | 2026-09-04 00:09:28 | 56.62385 | 5.46460 | 78° | 71km/h | 16474m | 3.8m/s | -50.9°C | 3.6% | 99.3hPa | 2.5V | 08:30:00 | 01:12:34 | 00:00:00 | |
| DL1XH-west | 2026-09-04 00:09:21 | 56.62370 | 5.46332 | 80° | 69km/h | 16457m | 4.9m/s | -50.9°C | 0.2% | 99.6hPa | 2.6V | 18:12:15 | 01:12:30 | 00:00:00 | |
| DL1XH-west | 2026-09-04 00:09:11 | 56.62356 | 5.45966 | 90° | 71km/h | 16409m | 4.9m/s | -50.9°C | 0.3% | 100.3hPa | 2.6V | 18:12:15 | 01:12:19 | 00:00:00 | |
| DM0DOS-11 | 2026-09-04 00:09:08 | 56.62353 | 5.45799 | 86° | 75km/h | 16388m | 4.4m/s | -51.2°C | 3.6% | 100.6hPa | 2.6V | 08:30:00 | 01:12:14 | 00:00:00 | |
| DL1XH-west | 2026-09-04 00:09:00 | 56.62352 | 5.45592 | 97° | 77km/h | 16363m | 3.8m/s | -51.4°C | 0.2% | 101hPa | 2.6V | 18:12:15 | 01:12:08 | 00:00:00 | |
| DM0DOS-11 | 2026-09-04 00:08:54 | 56.62371 | 5.45248 | 94° | 78km/h | 16322m | 3.5m/s | -51.8°C | 3.7% | 101.7hPa | 2.5V | 08:30:00 | 01:11:58 | 00:00:00 | |
| DL1XH-west | 2026-09-04 00:08:49 | 56.62373 | 5.45213 | 96° | 78km/h | 16319m | 4m/s | -52.1°C | 0.4% | 101.7hPa | 2.5V | 18:12:15 | 01:11:57 | 00:00:00 | |
| DJ2DS-15 | 2026-09-04 00:08:45 | 56.62380 | 5.45109 | 98° | 78km/h | 16307m | 3.4m/s | -52.3°C | 3.9% | 101.8hPa | 2.5V | 00:00:00 | 01:11:54 | 00:00:00 | |
| DM0DOS-11 | 2026-09-04 00:08:40 | 56.62391 | 5.44887 | 92° | 82km/h | 16280m | 3.6m/s | -52.8°C | 3.9% | 102.3hPa | 2.5V | 08:30:00 | 01:11:48 | 00:00:00 | |
| DL1XH-west | 2026-09-04 00:08:38 | 56.62391 | 5.44849 | 91° | 82km/h | 16276m | 4.5m/s | -52.8°C | 0.4% | 102.4hPa | 2.5V | 18:12:15 | 01:11:47 | 00:00:00 | |
| DM0DOS-11 | 2026-09-04 00:08:35 | 56.62387 | 5.44529 | 88° | 71km/h | 16235m | 3.6m/s | -52.7°C | 4% | 103hPa | 2.5V | 08:30:00 | 01:11:38 | 00:00:00 | |
| DL1XH-west | 2026-09-04 00:08:28 | 56.62385 | 5.44464 | 85° | 73km/h | 16227m | 4.3m/s | -52.7°C | 0.4% | 103.2hPa | 2.5V | 18:12:15 | 01:11:36 | 00:00:00 | |
| DJ2DS-15 | 2026-09-04 00:08:25 | 56.62381 | 5.44397 | 85° | 71km/h | 16218m | 4.9m/s | -52.6°C | 3.9% | 103.3hPa | 2.5V | 00:00:00 | 01:11:34 | 00:00:00 | |
| DM0DOS-11 | 2026-09-04 00:08:18 | 56.62359 | 5.44146 | 79° | 69km/h | 16182m | 3.5m/s | -53.4°C | 4.2% | 103.9hPa | 2.5V | 08:30:00 | 01:11:26 | 00:00:00 | |
| DL1XH-west | 2026-09-04 00:08:17 | 56.62356 | 5.44115 | 81° | 69km/h | 16178m | 5m/s | -53.5°C | 0.6% | 104hPa | 2.5V | 18:12:15 | 01:11:25 | 00:00:00 | |
| DM0DOS-11 | 2026-09-04 00:08:09 | 56.62316 | 5.43826 | 71° | 73km/h | 16139m | 3.7m/s | -53.3°C | 4.3% | 104.6hPa | 2.5V | 08:30:00 | 01:11:16 | 00:00:00 | |
| DL1XH-west | 2026-09-04 00:08:06 | 56.62311 | 5.43795 | 72° | 71km/h | 16135m | 4.9m/s | -53.3°C | 0.6% | 104.7hPa | 2.5V | 18:12:15 | 01:11:15 | 00:00:00 | |
| DJ2DS-15 | 2026-09-04 00:08:05 | 56.62305 | 5.43764 | 73° | 68km/h | 16131m | 4.2m/s | -53.2°C | 4.2% | 104.7hPa | 2.5V | 00:00:00 | 01:11:14 | 00:00:00 | |
| DM0DOS-11 | 2026-09-04 00:07:59 | 56.62273 | 5.43517 | 78° | 68km/h | 16095m | 3.7m/s | -53.1°C | 4.3% | 105.3hPa | 2.5V | 08:30:00 | 01:11:06 | 00:00:00 | |
| DL1XH-west | 2026-09-04 00:07:56 | 56.62266 | 5.43458 | 78° | 66km/h | 16086m | 4.4m/s | -53.1°C | 0.7% | 105.5hPa | 2.5V | 18:12:15 | 01:11:04 | 00:00:00 | |
| DM0DOS-11 | 2026-09-04 00:07:49 | 56.62239 | 5.43221 | 85° | 68km/h | 16051m | 4.5m/s | -52.9°C | 4.4% | 106.1hPa | 2.6V | 08:30:00 | 01:10:56 | 00:00:00 | |
| DL1XH-west | 2026-09-04 00:07:45 | 56.62237 | 5.43159 | 88° | 68km/h | 16043m | 3.6m/s | -52.9°C | 1.1% | 106.2hPa | 2.5V | 18:12:15 | 01:10:54 | 00:00:00 | |
| DJ2DS-15 | 2026-09-04 00:07:45 | 56.62237 | 5.43159 | 88° | 69km/h | 16043m | 3.5m/s | -52.8°C | 4.5% | 106.1hPa | 2.5V | 00:00:00 | 01:10:54 | 08:30:00 | |
| DJ2DS-15 | 2026-09-04 00:07:42 | 56.62230 | 5.43033 | 82° | 68km/h | 16026m | 4.7m/s | -52.8°C | 1.6% | 106.5hPa | 2.5V | 00:00:00 | 00:00:00 | 00:00:00 | |
| DM0DOS-11 | 2026-09-04 00:07:38 | 56.62220 | 5.42910 | 81° | 68km/h | 16007m | 3.4m/s | -52.7°C | 4.6% | 106.8hPa | 2.5V | 08:30:00 | 01:10:46 | 00:00:00 | |
| DL1XH-west | 2026-09-04 00:07:35 | 56.62216 | 5.42818 | 87° | 66km/h | 15996m | 3.5m/s | -52.6°C | 1.1% | 107hPa | 2.5V | 18:12:15 | 01:10:43 | 00:00:00 | |
| DM0DOS-11 | 2026-09-04 00:07:29 | 56.62211 | 5.42597 | 86° | 71km/h | 15965m | 3.6m/s | -52.7°C | 4.2% | 107.4hPa | 2.5V | 08:30:00 | 01:10:36 | 00:00:00 | |
| DL1XH-west | 2026-09-04 00:07:24 | 56.62207 | 5.42459 | 86° | 75km/h | 15947m | 5.2m/s | -53.1°C | 0.8% | 107.7hPa | 2.5V | 18:12:15 | 01:10:32 | 00:00:00 | |
| DL1XH-west | 2026-09-04 00:07:12 | 56.62209 | 5.42066 | 93° | 84km/h | 15901m | 4.2m/s | -53.3°C | 0.5% | 108.5hPa | 2.5V | 18:12:15 | 01:10:21 | 00:00:00 | |
| DM0DOS-11 | 2026-09-04 00:07:09 | 56.62212 | 5.41872 | 89° | 80km/h | 15881m | 4.3m/s | -53.2°C | 4.1% | 108.9hPa | 2.5V | 08:30:00 | 01:10:16 | 00:00:00 | |
| DL1XH-west | 2026-09-04 00:07:01 | 56.62210 | 5.41650 | 90° | 82km/h | 15855m | 4.6m/s | -53.1°C | 0.5% | 109.3hPa | 2.6V | 18:12:15 | 01:10:10 | 00:00:00 | |
| DM0DOS-11 | 2026-09-04 00:06:58 | 56.62212 | 5.41500 | 92° | 80km/h | 15839m | 4m/s | -53.1°C | 4% | 109.6hPa | 2.5V | 08:30:00 | 01:10:06 | 00:00:00 | |
| DM0DOS-11 | 2026-09-04 00:06:52 | 56.62218 | 5.41105 | 88° | 77km/h | 15794m | 4.7m/s | -53.2°C | 4.3% | 110.3hPa | 2.6V | 08:30:00 | 01:09:55 | 00:00:00 | |
| DL1XH-west | 2026-09-04 00:06:50 | 56.62218 | 5.41248 | 91° | 80km/h | 15810m | 3.2m/s | -53.2°C | 0.5% | 110hPa | 2.6V | 18:12:15 | 01:09:59 | 00:00:00 | |
| DL1XH-west | 2026-09-04 00:06:39 | 56.62214 | 5.40861 | 89° | 75km/h | 15767m | 3.7m/s | -53.2°C | 0.6% | 110.8hPa | 2.5V | 18:12:15 | 01:09:48 | 00:00:00 | |
| DM0DOS-11 | 2026-09-04 00:06:38 | 56.62214 | 5.40794 | 89° | 73km/h | 15758m | 3.7m/s | -53.2°C | 4.1% | 110.9hPa | 2.5V | 08:30:00 | 01:09:46 | 00:00:00 | |
| DM0DOS-11 | 2026-09-04 00:06:32 | 56.62204 | 5.40481 | 83° | 68km/h | 15715m | 4.1m/s | -53.1°C | 4.2% | 111.7hPa | 2.5V | 08:30:00 | 01:09:36 | 00:00:00 | |
| DL1XH-west | 2026-09-04 00:06:28 | 56.62206 | 5.40511 | 83° | 66km/h | 15719m | 3.7m/s | -53.1°C | 0.6% | 111.7hPa | 2.5V | 18:12:15 | 01:09:37 | 00:00:00 | |
| DJ2DS-15 | 2026-09-04 00:06:25 | 56.62200 | 5.40418 | 86° | 62km/h | 15708m | 4.9m/s | -53.0°C | 4.2% | 111.8hPa | 2.5V | 00:00:00 | 01:09:34 | 00:00:00 | |
| DM0DOS-11 | 2026-09-04 00:06:20 | 56.62196 | 5.40185 | 86° | 58km/h | 15674m | 4.3m/s | -52.9°C | 4.1% | 112.4hPa | 2.5V | 08:30:00 | 01:09:26 | 00:00:00 | |
| DL1XH-west | 2026-09-04 00:06:18 | 56.62196 | 5.40212 | 88° | 58km/h | 15679m | 3.5m/s | -52.9°C | 0.6% | 112.3hPa | 2.5V | 18:12:15 | 01:09:27 | 00:00:00 | |
| DM0DOS-11 | 2026-09-04 00:06:09 | 56.62187 | 5.39904 | 89° | 60km/h | 15634m | 4m/s | -52.9°C | 4.1% | 113.1hPa | 2.5V | 08:30:00 | 01:09:16 | 00:00:00 | |
| DL1XH-west | 2026-09-04 00:06:07 | 56.62187 | 5.39904 | 89° | 60km/h | 15634m | 4m/s | -52.9°C | 0.6% | 113.1hPa | 2.5V | 18:12:15 | 01:09:16 | 00:00:00 | |
| DJ2DS-15 | 2026-09-04 00:06:05 | 56.62186 | 5.39850 | 89° | 64km/h | 15626m | 4.0m/s | -52.8°C | 4.1% | 113.2hPa | 2.5V | 00:00:00 | 01:09:14 | 00:00:00 | |
| DM0DOS-11 | 2026-09-04 00:05:59 | 56.62186 | 5.39621 | 90° | 64km/h | 15593m | 3.2m/s | -52.8°C | 4.1% | 113.8hPa | 2.5V | 08:30:00 | 01:09:06 | 00:00:00 | |
| DL1XH-west | 2026-09-04 00:05:57 | 56.62186 | 5.39621 | 91° | 66km/h | 15593m | 3.2m/s | -52.8°C | 0.6% | 113.8hPa | 2.5V | 18:12:15 | 01:09:06 | 00:00:00 | |
| DJ2DS-15 | 2026-09-04 00:05:53 | 56.62187 | 5.39505 | 91° | 64km/h | 15577m | 3.7m/s | -52.7°C | 1.3% | 114.1hPa | 2.5V | 00:00:00 | 00:00:00 | 00:00:00 | |
| DM0DOS-11 | 2026-09-04 00:05:49 | 56.62191 | 5.39319 | 96° | 68km/h | 15553m | 4.3m/s | -52.6°C | 4.1% | 114.6hPa | 2.5V | 08:30:00 | 01:08:56 | 00:00:00 | |
| DL1XH-west | 2026-09-04 00:05:47 | 56.62191 | 5.39319 | 96° | 68km/h | 15553m | 4.3m/s | -52.6°C | 0.6% | 114.6hPa | 2.5V | 18:12:15 | 01:08:56 | 00:00:00 | |
| DJ2DS-15 | 2026-09-04 00:05:45 | 56.62196 | 5.39259 | 100° | 69km/h | 15545m | 4.7m/s | -52.5°C | 4.1% | 114.6hPa | 2.6V | 00:00:00 | 01:08:54 | 00:00:00 | |
| DM0DOS-11 | 2026-09-04 00:05:38 | 56.62208 | 5.39010 | 92° | 71km/h | 15512m | 3m/s | -52.6°C | 4.1% | 115.3hPa | 2.5V | 08:30:00 | 01:08:46 | 00:00:00 | |
| DL1XH-west | 2026-09-04 00:05:36 | 56.62209 | 5.38978 | 94° | 71km/h | 15509m | 4.3m/s | -52.7°C | 0.8% | 115.3hPa | 2.6V | 18:12:15 | 01:08:45 | 00:00:00 | |
| DM0DOS-11 | 2026-09-04 00:05:28 | 56.62226 | 5.38695 | 94° | 69km/h | 15472m | 4.3m/s | -52.7°C | 4.2% | 116hPa | 2.5V | 08:30:00 | 01:08:36 | 00:00:00 | |
| DL1XH-west | 2026-09-04 00:05:25 | 56.62230 | 5.38629 | 97° | 73km/h | 15464m | 3.8m/s | -52.7°C | 0.5% | 116.2hPa | 2.6V | 18:12:15 | 01:08:34 | 00:00:00 | |
| DJ2DS-15 | 2026-09-04 00:05:25 | 56.62230 | 5.38629 | 97° | 77km/h | 15464m | 3.7m/s | -52.7°C | 4.1% | 116.1hPa | 2.5V | 00:00:00 | 01:08:34 | 00:00:00 | |
| DM0DOS-11 | 2026-09-04 00:05:18 | 56.62245 | 5.38363 | 90° | 71km/h | 15431m | 5.1m/s | -52.7°C | 4.2% | 116.7hPa | 2.5V | 08:30:00 | 01:08:26 | 00:00:00 | |
| DL1XH-west | 2026-09-04 00:05:14 | 56.62246 | 5.38262 | 94° | 75km/h | 15418m | 4.1m/s | -52.7°C | 0.6% | 117hPa | 2.5V | 18:12:15 | 01:08:23 | 00:00:00 | |
| DM0DOS-11 | 2026-09-04 00:05:08 | 56.62260 | 5.38003 | 95° | 82km/h | 15390m | 3.4m/s | -52.9°C | 4.3% | 117.5hPa | 2.5V | 08:30:00 | 01:08:16 | 00:00:00 | |
| DL1XH-west | 2026-09-04 00:05:04 | 56.62264 | 5.37890 | 92° | 80km/h | 15378m | 4.5m/s | -52.9°C | 0.6% | 117.7hPa | 2.5V | 18:12:15 | 01:08:13 | 00:00:00 | |
| DM0DOS-11 | 2026-09-04 00:04:58 | 56.62270 | 5.37626 | 93° | 88km/h | 15349m | 4.5m/s | -53°C | 4.2% | 118.2hPa | 2.5V | 08:30:00 | 01:08:06 | 00:00:00 | |
| DL1XH-west | 2026-09-04 00:04:54 | 56.62286 | 5.36937 | 91° | 80km/h | 15275m | 3.7m/s | -52.4°C | 0.6% | 119.6hPa | 2.5V | 18:12:15 | 01:07:48 | 00:00:00 | |
| DM0DOS-11 | 2026-09-04 00:04:53 | 56.62282 | 5.37232 | 92° | 80km/h | 15309m | 3.6m/s | -52.7°C | 4.2% | 119hPa | 2.5V | 08:30:00 | 01:07:56 | 00:00:00 | |
| DJ2DS-15 | 2026-09-04 00:04:45 | 56.62283 | 5.37159 | 90° | 80km/h | 15300m | 4.0m/s | -52.6°C | 4.1% | 119.1hPa | 2.6V | 00:00:00 | 01:07:54 | 08:30:00 | |
| DM0DOS-11 | 2026-09-04 00:04:43 | 56.62287 | 5.36864 | 92° | 80km/h | 15267m | 3.7m/s | -52.4°C | 4.2% | 119.8hPa | 2.5V | 08:30:00 | 01:07:46 | 00:00:00 | |
| DL1XH-west | 2026-09-04 00:04:29 | 56.62288 | 5.36532 | 90° | 80km/h | 15228m | 3.4m/s | -52.3°C | 0.5% | 120.5hPa | 2.5V | 18:12:15 | 01:07:37 | 00:00:00 | |
| DM0DOS-11 | 2026-09-04 00:04:29 | 56.62288 | 5.36496 | 88° | 78km/h | 15224m | 4.8m/s | -52.2°C | 4.1% | 120.5hPa | 2.5V | 08:30:00 | 01:07:36 | 00:00:00 | |
| DJ2DS-15 | 2026-09-04 00:04:26 | 56.62287 | 5.36424 | 90° | 75km/h | 15215m | 4.9m/s | -52.1°C | 4.1% | 120.7hPa | 2.6V | 00:00:00 | 01:07:34 | 00:00:00 | |
| DM0DOS-11 | 2026-09-04 00:04:23 | 56.62284 | 5.36109 | 88° | 77km/h | 15176m | 4.6m/s | -52°C | 4% | 121.5hPa | 2.6V | 08:30:00 | 01:07:25 | 00:00:00 | |
| DL1XH-west | 2026-09-04 00:04:18 | 56.62284 | 5.36144 | 88° | 77km/h | 15181m | 4.2m/s | -52°C | 0.5% | 121.3hPa | 2.5V | 18:12:15 | 01:07:26 | 00:00:00 | |
| DM0DOS-11 | 2026-09-04 00:04:11 | 56.62283 | 5.35772 | 89° | 69km/h | 15131m | 4.5m/s | -52°C | 3.9% | 122.3hPa | 2.6V | 08:30:00 | 01:07:15 | 00:00:00 | |
| DL1XH-west | 2026-09-04 00:04:08 | 56.62283 | 5.35772 | 90° | 69km/h | 15131m | 4.6m/s | -52°C | 0.5% | 122.3hPa | 2.6V | 18:12:15 | 01:07:15 | 00:00:00 | |
| DJ2DS-15 | 2026-09-04 00:04:07 | 56.62283 | 5.35741 | 89° | 68km/h | 15127m | 3.9m/s | -52.0°C | 1.4% | 122.4hPa | 2.6V | 00:00:00 | 00:00:00 | 00:00:00 | |
| DJ2DS-15 | 2026-09-04 00:04:05 | 56.62282 | 5.35741 | 90° | 66km/h | 15127m | 3.8m/s | -52.0°C | 4.1% | 122.3hPa | 2.6V | 00:00:00 | 01:07:14 | 00:00:00 | |
| DM0DOS-11 | 2026-09-04 00:03:59 | 56.62274 | 5.35456 | 86° | 66km/h | 15089m | 3.6m/s | -52°C | 4.1% | 123.1hPa | 2.6V | 08:30:00 | 01:07:05 | 00:00:00 | |
| DL1XH-west | 2026-09-04 00:03:56 | 56.62273 | 5.35426 | 86° | 66km/h | 15085m | 4.6m/s | -52°C | 0.9% | 123.1hPa | 2.6V | 18:12:15 | 01:07:04 | 00:00:00 | |
| DM0DOS-11 | 2026-09-04 00:03:48 | 56.62265 | 5.35134 | 87° | 66km/h | 15042m | 4.3m/s | -51.9°C | 4.3% | 124hPa | 2.6V | 08:30:00 | 01:06:54 | 00:00:00 | |
| DL1XH-west | 2026-09-04 00:03:45 | 56.62265 | 5.35134 | 88° | 66km/h | 15042m | 4.3m/s | -51.9°C | 0.9% | 124hPa | 2.6V | 18:12:15 | 01:06:54 | 00:00:00 | |
| DJ2DS-15 | 2026-09-04 00:03:45 | 56.62264 | 5.35134 | 88° | 62km/h | 15042m | 4.2m/s | -51.8°C | 4.3% | 123.9hPa | 2.6V | 00:00:00 | 01:06:54 | 00:00:00 | |
| DM0DOS-11 | 2026-09-04 00:03:42 | 56.62265 | 5.34857 | 92° | 64km/h | 15001m | 3.4m/s | -51.7°C | 4.4% | 124.8hPa | 2.6V | 08:30:00 | 01:06:44 | 00:00:00 | |
| DL1XH-west | 2026-09-04 00:03:35 | 56.62267 | 5.34797 | 97° | 68km/h | 14993m | 3.9m/s | -51.7°C | 1% | 125hPa | 2.5V | 18:12:15 | 01:06:42 | 00:00:00 | |
| DJ2DS-15 | 2026-09-04 00:03:30 | 56.62275 | 5.34677 | 96° | 64km/h | 14976m | 4.8m/s | -51.7°C | 1.6% | 125.3hPa | 2.6V | 00:00:00 | 00:00:00 | 00:00:00 | |
| DM0DOS-11 | 2026-09-04 00:03:29 | 56.62279 | 5.34564 | 91° | 62km/h | 14960m | 3.5m/s | -51.7°C | 4.3% | 125.6hPa | 2.6V | 08:30:00 | 01:06:34 | 00:00:00 | |
| DL1XH-west | 2026-09-04 00:03:24 | 56.62282 | 5.34475 | 94° | 69km/h | 14949m | 4.4m/s | -51.7°C | 0.9% | 125.8hPa | 2.5V | 18:12:15 | 01:06:31 | 00:00:00 | |
| DM0DOS-11 | 2026-09-04 00:03:17 | 56.62296 | 5.34258 | 96° | 64km/h | 14921m | 4.3m/s | -51.5°C | 4% | 126.3hPa | 2.6V | 08:30:00 | 01:06:24 | 00:00:00 | |
| DL1XH-west | 2026-09-04 00:03:13 | 56.62305 | 5.34140 | 97° | 68km/h | 14906m | 4.5m/s | -51.5°C | 0.8% | 126.6hPa | 2.6V | 18:12:15 | 01:06:20 | 00:00:00 | |
| DM0DOS-11 | 2026-09-04 00:03:11 | 56.62320 | 5.33936 | 99° | 77km/h | 14880m | 4.3m/s | -51.4°C | 4.2% | 127.1hPa | 2.6V | 08:30:00 | 01:06:14 | 00:00:00 | |
| DL1XH-west | 2026-09-04 00:03:02 | 56.62338 | 5.33795 | 106° | 78km/h | 14863m | 4m/s | -51.3°C | 0.8% | 127.4hPa | 2.6V | 18:12:15 | 01:06:10 | 00:00:00 | |
| DM0DOS-11 | 2026-09-04 00:02:54 | 56.62391 | 5.33277 | 101° | 86km/h | 14804m | 3.2m/s | -51°C | 4.2% | 128.6hPa | 2.5V | 08:30:00 | 01:05:56 | 00:00:00 | |
| DL1XH-west | 2026-09-04 00:02:52 | 56.62369 | 5.33479 | 100° | 88km/h | 14825m | 5m/s | -51°C | 0.8% | 128.2hPa | 2.5V | 18:12:15 | 01:06:01 | 00:00:00 | |
| DM0DOS-11 | 2026-09-04 00:02:42 | 56.62427 | 5.32897 | 97° | 86km/h | 14761m | 3.7m/s | -51.2°C | 4.3% | 129.5hPa | 2.5V | 08:30:00 | 01:05:46 | 00:00:00 | |
| DL1XH-west | 2026-09-04 00:02:41 | 56.62418 | 5.33013 | 100° | 86km/h | 14774m | 5.1m/s | -51°C | 1% | 129.2hPa | 2.6V | 18:12:15 | 01:05:49 | 00:00:00 | |
| DM0DOS-11 | 2026-09-04 00:02:32 | 56.62460 | 5.32489 | 98° | 91km/h | 14719m | 3m/s | -51.9°C | 4.4% | 130.3hPa | 2.5V | 08:30:00 | 01:05:36 | 00:00:00 | |
| DL1XH-west | 2026-09-04 00:02:31 | 56.62450 | 5.32612 | 99° | 91km/h | 14731m | 4.5m/s | -51.7°C | 1.2% | 130.1hPa | 2.6V | 18:12:15 | 01:05:39 | 00:00:00 | |
| DJ2DS-15 | 2026-09-04 00:02:25 | 56.62532 | 5.31479 | 92° | 102km/h | 14627m | 3.2m/s | -52.0°C | 4.3% | 132.1hPa | 2.6V | 00:00:00 | 01:05:14 | 00:00:00 | |
| DL1XH-west | 2026-09-04 00:02:21 | 56.62489 | 5.32181 | 99° | 102km/h | 14690m | 4.7m/s | -51.9°C | 1.1% | 130.9hPa | 2.6V | 18:12:15 | 01:05:29 | 00:00:00 | |
| DM0DOS-11 | 2026-09-04 00:02:20 | 56.62500 | 5.32042 | 96° | 100km/h | 14677m | 4m/s | -51.9°C | 4.4% | 131.2hPa | 2.5V | 08:30:00 | 01:05:26 | 00:00:00 | |
| DM0DOS-11 | 2026-09-04 00:02:14 | 56.62531 | 5.31527 | 92° | 106km/h | 14630m | 4.3m/s | -52°C | 4.3% | 132.1hPa | 2.6V | 08:30:00 | 01:05:15 | 00:00:00 | |
| DL1XH-west | 2026-09-04 00:02:10 | 56.62525 | 5.31672 | 96° | 104km/h | 14644m | 4.6m/s | -52°C | 1% | 131.8hPa | 2.5V | 18:12:15 | 01:05:18 | 00:00:00 | |
| DL1XH-west | 2026-09-04 00:01:59 | 56.62536 | 5.31192 | 92° | 104km/h | 14602m | 4.6m/s | -52.2°C | 1% | 132.7hPa | 2.5V | 18:12:15 | 01:05:08 | 00:00:00 | |
| DJ2DS-15 | 2026-09-04 00:01:58 | 56.62521 | 5.30547 | 89° | 99km/h | 14542m | 3.9m/s | -52.2°C | 4.3% | 133.8hPa | 2.6V | 00:00:00 | 01:04:54 | 08:30:00 | |
| DM0DOS-11 | 2026-09-04 00:01:55 | 56.62524 | 5.30680 | 86° | 97km/h | 14555m | 4.7m/s | -52.4°C | 4.4% | 133.7hPa | 2.5V | 08:30:00 | 01:04:57 | 00:00:00 | |
| DJ2DS-15 | 2026-09-04 00:01:54 | 56.62516 | 5.30322 | 88° | 100km/h | 14521m | 3.9m/s | -52.1°C | 1.6% | 134.3hPa | 2.5V | 00:00:00 | 00:00:00 | 00:00:00 | |
| DL1XH-west | 2026-09-04 00:01:48 | 56.62524 | 5.30680 | 86° | 97km/h | 14555m | 4.7m/s | -52.4°C | 1.1% | 133.7hPa | 2.5V | 18:12:15 | 01:04:57 | 00:00:00 | |
| DM0DOS-11 | 2026-09-04 00:01:43 | 56.62514 | 5.30230 | 88° | 99km/h | 14513m | 3.9m/s | -52.1°C | 4.2% | 134.5hPa | 2.5V | 08:30:00 | 01:04:47 | 00:00:00 | |
| DL1XH-west | 2026-09-04 00:01:37 | 56.62512 | 5.30095 | 89° | 99km/h | 14501m | 4m/s | -52°C | 1.1% | 134.8hPa | 2.6V | 18:12:15 | 01:04:44 | 00:00:00 | |
| DM0DOS-11 | 2026-09-04 00:01:35 | 56.62513 | 5.29777 | 89° | 100km/h | 14473m | 3.4m/s | -51.9°C | 4.2% | 135.3hPa | 2.5V | 08:30:00 | 01:04:37 | 00:00:00 | |
| DL1XH-west | 2026-09-04 00:01:27 | 56.62513 | 5.29685 | 90° | 102km/h | 14465m | 3.8m/s | -51.9°C | 0.8% | 135.5hPa | 2.5V | 18:12:15 | 01:04:35 | 00:00:00 | |
| DL1XH-west | 2026-09-04 00:01:16 | 56.62511 | 5.29140 | 92° | 97km/h | 14415m | 4m/s | -51.8°C | 0.9% | 136.6hPa | 2.7V | 18:12:15 | 01:04:23 | 00:00:00 | |
| DM0DOS-11 | 2026-09-04 00:01:10 | 56.62520 | 5.28872 | 93° | 99km/h | 14390m | 4.4m/s | -51.6°C | 4.1% | 137.1hPa | 2.6V | 08:30:00 | 01:04:17 | 00:00:00 | |
| DL1XH-west | 2026-09-04 00:01:06 | 56.62527 | 5.28604 | 93° | 99km/h | 14368m | 3.5m/s | -51.6°C | 0.8% | 137.6hPa | 2.5V | 18:12:15 | 01:04:11 | 00:00:00 | |
| DM0DOS-11 | 2026-09-04 00:01:04 | 56.62536 | 5.28382 | 93° | 95km/h | 14347m | 3.9m/s | -51.5°C | 4.1% | 138hPa | 2.5V | 08:30:00 | 01:04:06 | 00:00:00 | |
| DL1XH-west | 2026-09-04 00:00:56 | 56.62538 | 5.28296 | 91° | 93km/h | 14339m | 2.9m/s | -51.7°C | 0.8% | 138.2hPa | 2.5V | 18:12:15 | 01:04:04 | 00:00:00 | |
| DM0DOS-11 | 2026-09-04 00:00:52 | 56.62541 | 5.28002 | 93° | 93km/h | 14311m | 3m/s | -51.9°C | 4.3% | 138.7hPa | 2.5V | 08:30:00 | 01:03:57 | 00:00:00 | |
| DJ2DS-15 | 2026-09-04 00:00:46 | 56.62547 | 5.27877 | 95° | 91km/h | 14300m | 3.5m/s | -51.8°C | 4.2% | 139.0hPa | 2.5V | 00:00:00 | 01:03:54 | 00:00:00 | |
| DL1XH-west | 2026-09-04 00:00:45 | 56.62550 | 5.27795 | 91° | 89km/h | 14291m | 3.9m/s | -51.9°C | 0.9% | 139.2hPa | 2.5V | 18:12:15 | 01:03:52 | 00:00:00 | |
| DJ2DS-15 | 2026-09-04 00:00:35 | 56.62547 | 5.27174 | 89° | 91km/h | 14232m | 3.6m/s | -51.8°C | 1.6% | 140.5hPa | 2.7V | 00:00:00 | 00:00:00 | 00:00:00 | |
| DL1XH-west | 2026-09-04 00:00:34 | 56.62547 | 5.27298 | 91° | 89km/h | 14243m | 3.5m/s | -51.8°C | 0.9% | 140.2hPa | 2.7V | 18:12:15 | 01:03:40 | 00:00:00 | |
| DJ2DS-15 | 2026-09-04 00:00:28 | 56.62548 | 5.27048 | 92° | 93km/h | 14220m | 4.1m/s | -51.8°C | 4.2% | 140.7hPa | 2.6V | 00:00:00 | 01:03:34 | 00:00:00 | |
| DM0DOS-11 | 2026-09-04 00:00:25 | 56.62561 | 5.26670 | 95° | 91km/h | 14184m | 3.6m/s | -51.7°C | 4.3% | 141.5hPa | 2.6V | 08:30:00 | 01:03:25 | 00:00:00 | |
| DL1XH-west | 2026-09-04 00:00:22 | 56.62550 | 5.26921 | 93° | 91km/h | 14209m | 4.1m/s | -51.8°C | 1% | 141hPa | 2.5V | 18:12:15 | 01:03:31 | 00:00:00 | |
| DL1XH-west | 2026-09-04 00:00:12 | 56.62569 | 5.26499 | 94° | 93km/h | 14167m | 3.7m/s | -51.7°C | 1.1% | 141.9hPa | 2.7V | 18:12:15 | 01:03:21 | 00:00:00 | |
| DJ2DS-15 | 2026-09-04 00:00:05 | 56.62589 | 5.26197 | 99° | 100km/h | 14139m | 4.1m/s | -51.7°C | 4.4% | 142.5hPa | 2.5V | 00:00:00 | 01:03:14 | 00:00:00 | |
| DL1XH-west | 2026-09-04 00:00:03 | 56.62600 | 5.26023 | 95° | 99km/h | 14123m | 4.5m/s | -51.7°C | 1.4% | 142.9hPa | 2.5V | 18:12:15 | 01:03:10 | 00:00:00 | |
| DM0DOS-11 | 2026-09-04 00:00:01 | 56.62608 | 5.25844 | 96° | 99km/h | 14106m | 4m/s | -51.7°C | 4.6% | 143.3hPa | 2.7V | 08:30:00 | 01:03:06 | 00:00:00 | |
| DL1XH-west | 2026-09-03 23:59:51 | 56.62629 | 5.25568 | 99° | 102km/h | 14081m | 4.7m/s | -52°C | 1.8% | 143.8hPa | 2.7V | 18:12:15 | 01:03:00 | 00:00:00 | |
| DM0DOS-11 | 2026-09-03 23:59:51 | 56.62642 | 5.25382 | 95° | 102km/h | 14065m | 3.4m/s | -52.1°C | 4.9% | 144.2hPa | 2.6V | 08:30:00 | 01:02:56 | 00:00:00 | |
| DJ2DS-15 | 2026-09-03 23:59:42 | 56.62655 | 5.25140 | 96° | 113km/h | 14044m | 3.1m/s | -52.7°C | 5.2% | 144.6hPa | 2.5V | 00:00:00 | 01:02:51 | 00:00:00 | |
| DM0DOS-11 | 2026-09-03 23:59:41 | 56.62667 | 5.24892 | 93° | 110km/h | 14023m | 4.3m/s | -52.7°C | 5.1% | 145.1hPa | 2.5V | 08:30:00 | 01:02:46 | 00:00:00 | |
| DL1XH-west | 2026-09-03 23:59:40 | 56.62660 | 5.25041 | 95° | 110km/h | 14035m | 3.6m/s | -52.7°C | 2.1% | 144.8hPa | 2.7V | 18:12:15 | 01:02:49 | 00:00:00 | |
| DM0DOS-11 | 2026-09-03 23:59:31 | 56.62684 | 5.24325 | 92° | 117km/h | 13978m | 3.5m/s | -52.7°C | 4.6% | 146.1hPa | 2.7V | 08:30:00 | 01:02:35 | 00:00:00 | |
| DL1XH-west | 2026-09-03 23:59:29 | 56.62679 | 5.24485 | 93° | 117km/h | 13991m | 4.6m/s | -52.8°C | 1.5% | 145.8hPa | 2.6V | 18:12:15 | 01:02:38 | 00:00:00 | |
| DJ2DS-15 | 2026-09-03 23:59:22 | 56.62687 | 5.24110 | 91° | 122km/h | 13962m | 3.2m/s | -52.6°C | 4.5% | 146.4hPa | 2.7V | 00:00:00 | 01:02:31 | 00:00:00 | |
| DM0DOS-11 | 2026-09-03 23:59:21 | 56.62685 | 5.23780 | 88° | 120km/h | 13937m | 3.4m/s | -52.5°C | 4.5% | 147hPa | 2.7V | 08:30:00 | 01:02:25 | 00:00:00 | |
| DL1XH-west | 2026-09-03 23:59:18 | 56.62687 | 5.23892 | 89° | 122km/h | 13946m | 4.4m/s | -52.6°C | 1.2% | 146.9hPa | 2.5V | 18:12:15 | 01:02:27 | 00:00:00 | |
| DM0DOS-11 | 2026-09-03 23:59:11 | 56.62679 | 5.23215 | 87° | 122km/h | 13895m | 3.8m/s | -52.4°C | 0% | 148hPa | 2.6V | 08:30:00 | 01:02:15 | 00:00:00 | |
| DL1XH-west | 2026-09-03 23:59:08 | 56.62682 | 5.23328 | 88° | 124km/h | 13903m | 5.3m/s | -52.4°C | 1.3% | 147.8hPa | 2.5V | 18:12:15 | 01:02:17 | 00:00:00 | |
| DJ2DS-15 | 2026-09-03 23:59:02 | 56.62672 | 5.22985 | 87° | 131km/h | 13876m | 4.6m/s | -52.4°C | 4.6% | 148.4hPa | 2.5V | 00:00:00 | 01:02:11 | 00:00:00 | |
| DM0DOS-11 | 2026-09-03 23:59:01 | 56.62661 | 5.22630 | 87° | 130km/h | 13851m | 4.6m/s | -53.3°C | 0% | 149hPa | 2.5V | 08:30:00 | 01:02:05 | 00:00:00 | |
| DL1XH-west | 2026-09-03 23:58:58 | 56.62665 | 5.22749 | 87° | 130km/h | 13860m | 4.3m/s | -53.1°C | 1.5% | 148.8hPa | 2.7V | 18:12:15 | 01:02:07 | 00:00:00 | |
| DM0DOS-11 | 2026-09-03 23:58:51 | 56.62629 | 5.22025 | 84° | 135km/h | 13810m | 3.5m/s | -53.1°C | 0% | 149.9hPa | 2.7V | 00:00:00 | 01:01:55 | 00:00:00 | |
| DL1XH-west | 2026-09-03 23:58:48 | 56.62637 | 5.22148 | 83° | 133km/h | 13818m | 3.6m/s | -53.1°C | 1.4% | 149.8hPa | 2.6V | 18:12:15 | 01:01:57 | 00:00:00 | |
| DJ2DS-15 | 2026-09-03 23:58:42 | 56.62613 | 5.21780 | 83° | 130km/h | 13794m | 3.8m/s | -52.9°C | 4.7% | 150.3hPa | 2.6V | 00:00:00 | 01:01:51 | 08:30:00 | |
| DM0DOS-11 | 2026-09-03 23:58:41 | 56.62587 | 5.21422 | 83° | 128km/h | 13771m | 3.4m/s | -53.2°C | 0% | 0hPa | 2.6V | 00:00:00 | 01:01:45 | 00:00:00 | |
| DL1XH-west | 2026-09-03 23:58:38 | 56.62595 | 5.21538 | 82° | 130km/h | 13778m | 3.4m/s | -53.2°C | 1.5% | 150.7hPa | 2.7V | 18:12:15 | 01:01:47 | 00:00:00 | |
| DM0DOS-11 | 2026-09-03 23:58:31 | 56.62541 | 5.20776 | 82° | 122km/h | 13728m | 4.7m/s | -53°C | 0% | 0hPa | 2.6V | 00:00:00 | 01:01:34 | 00:00:00 | |
| DL1XH-west | 2026-09-03 23:58:27 | 56.62549 | 5.20889 | 82° | 128km/h | 13736m | 4.2m/s | -53°C | 1.4% | 151.7hPa | 2.7V | 18:12:15 | 01:01:36 | 00:00:00 | |
| DJ2DS-15 | 2026-09-03 23:58:22 | 56.62528 | 5.20610 | 83° | 122km/h | 13716m | 3.9m/s | -52.8°C | 4.7% | 152.1hPa | 2.7V | 00:00:00 | 01:01:31 | 00:00:00 | |
| DM0DOS-11 | 2026-09-03 23:58:20 | 56.62503 | 5.20274 | 82° | 126km/h | 13693m | 2.9m/s | -52.8°C | 0% | 0hPa | 2.7V | 00:00:00 | 01:01:25 | 00:00:00 | |
| DL1XH-west | 2026-09-03 23:58:16 | 56.62504 | 5.20274 | 83° | 126km/h | 13693m | 2.9m/s | -52.8°C | 1.4% | 152.7hPa | 2.7V | 18:12:15 | 01:01:25 | 00:00:00 | |
| DM0DOS-11 | 2026-09-03 23:58:10 | 56.62463 | 5.19724 | 81° | 122km/h | 13654m | 3.5m/s | 0°C | 0% | 0hPa | 2.6V | 00:00:00 | 01:01:15 | 00:00:00 | |
| DL1XH-west | 2026-09-03 23:58:05 | 56.62458 | 5.19668 | 81° | 122km/h | 13650m | 4.5m/s | -52.7°C | 1.3% | 153.8hPa | 2.6V | 18:12:15 | 01:01:14 | 00:00:00 | |
| DL1XH-west | 2026-09-03 23:57:55 | 56.62410 | 5.19068 | 81° | 115km/h | 13606m | 3.7m/s | -52.6°C | 1.4% | 154.7hPa | 2.6V | 18:12:15 | 01:01:03 | 00:00:00 | |
| DM0DOS-11 | 2026-09-03 23:57:50 | 56.62383 | 5.18756 | 81° | 115km/h | 13582m | 4.5m/s | 0°C | 0% | 0hPa | 2.7V | 00:00:00 | 01:00:57 | 00:00:00 | |
| DL1XH-west | 2026-09-03 23:57:43 | 56.62362 | 5.18492 | 83° | 115km/h | 13562m | 4.3m/s | -52.6°C | 1.6% | 155.8hPa | 2.7V | 18:12:15 | 01:00:52 | 00:00:00 | |
| DL1XH-west | 2026-09-03 23:57:33 | 56.62323 | 5.17966 | 83° | 115km/h | 13523m | 3.9m/s | -52.4°C | 1.7% | 156.8hPa | 2.6V | 18:12:15 | 01:00:42 | 00:00:00 | |
| DM0DOS-11 | 2026-09-03 23:57:33 | 56.62320 | 5.17914 | 83° | 113km/h | 13518m | 4.3m/s | 0°C | 0% | 0hPa | 2.6V | 00:00:00 | 01:00:41 | 00:00:00 | |
| DM0DOS-11 | 2026-09-03 23:57:26 | 56.62296 | 5.17390 | 84° | 115km/h | 13477m | 3.7m/s | 0°C | 0% | 0hPa | 2.7V | 00:00:00 | 01:00:31 | 00:00:00 | |
| DL1XH-west | 2026-09-03 23:57:23 | 56.62296 | 5.17390 | 85° | 115km/h | 13477m | 3.7m/s | -52.4°C | 1.8% | 157.9hPa | 2.7V | 18:12:15 | 01:00:31 | 00:00:00 | |
| DJ2DS-15 | 2026-09-03 23:57:22 | 56.62295 | 5.17390 | 85° | 117km/h | 13478m | 3.6m/s | -52.3°C | 4.9% | 157.8hPa | 2.7V | 00:00:00 | 01:00:31 | 00:00:00 | |
| DM0DOS-11 | 2026-09-03 23:57:12 | 56.62272 | 5.16690 | 88° | 115km/h | 13427m | 3.6m/s | 0°C | 0% | 0hPa | 2.7V | 00:00:00 | 01:00:18 | 00:00:00 | |
| DL1XH-west | 2026-09-03 23:57:11 | 56.62274 | 5.16796 | 87° | 117km/h | 13435m | 3.7m/s | -52.4°C | 1.7% | 158.9hPa | 2.6V | 18:12:15 | 01:00:20 | 00:00:00 | |
| DL1XH-west | 2026-09-03 23:57:01 | 56.62266 | 5.16260 | 90° | 119km/h | 13395m | 3.8m/s | -52.5°C | 1.6% | 159.9hPa | 2.7V | 18:12:15 | 01:00:10 | 00:00:00 | |
| DM0DOS-11 | 2026-09-03 23:56:53 | 56.62262 | 5.15660 | 89° | 120km/h | 13351m | 4.8m/s | 0°C | 0% | 0hPa | 2.6V | 00:00:00 | 00:59:59 | 00:00:00 | |
| DL1XH-west | 2026-09-03 23:56:51 | 56.62262 | 5.15716 | 91° | 120km/h | 13355m | 3.2m/s | -52.4°C | 1.7% | 160.9hPa | 2.6V | 18:12:15 | 01:00:00 | 00:00:00 | |
| DL1XH-west | 2026-09-03 23:56:40 | 56.62261 | 5.15089 | 91° | 128km/h | 13312m | 4m/s | -52.6°C | 1.8% | 162hPa | 2.7V | 18:12:15 | 00:59:49 | 00:00:00 | |
| DL1XH-west | 2026-09-03 23:56:29 | 56.62263 | 5.14443 | 89° | 128km/h | 13269m | 3.7m/s | -53°C | 2% | 163hPa | 2.6V | 18:12:15 | 00:59:38 | 00:00:00 | |
| DL1XH-west | 2026-09-03 23:56:19 | 56.62251 | 5.13845 | 87° | 137km/h | 13230m | 3.7m/s | -53°C | 2.1% | 164hPa | 2.7V | 18:12:15 | 00:59:28 | 00:00:00 | |
| DL1XH-west | 2026-09-03 23:56:08 | 56.62226 | 5.13166 | 85° | 131km/h | 13187m | 3m/s | -53.1°C | 2.6% | 165.1hPa | 2.6V | 18:12:15 | 00:59:17 | 00:00:00 | |
| DL1XH-west | 2026-09-03 23:55:57 | 56.62210 | 5.12498 | 89° | 137km/h | 13143m | 3.8m/s | -53.7°C | 3% | 166.3hPa | 2.6V | 18:12:15 | 00:59:06 | 00:00:00 | |
| DL1XH-west | 2026-09-03 23:55:47 | 56.62196 | 5.11873 | 87° | 135km/h | 13102m | 3.6m/s | -54.1°C | 2.9% | 167.3hPa | 2.6V | 18:12:15 | 00:58:56 | 00:00:00 | |
| DL1XH-west | 2026-09-03 23:55:37 | 56.62174 | 5.11259 | 87° | 137km/h | 13064m | 3.6m/s | -54.3°C | 2.8% | 168.3hPa | 2.7V | 18:12:15 | 00:58:46 | 00:00:00 | |
| DL1XH-west | 2026-09-03 23:55:27 | 56.62149 | 5.10625 | 87° | 139km/h | 13025m | 3.5m/s | -54.4°C | 2.8% | 169.3hPa | 2.6V | 18:12:15 | 00:58:36 | 00:00:00 | |
| DM0DOS-11 | 2026-09-03 23:55:23 | 56.62138 | 5.10042 | 86° | 144km/h | 12989m | 4.5m/s | 0°C | 0% | 0hPa | 2.7V | 00:00:00 | 00:58:27 | 00:00:00 | |
| DL1XH-west | 2026-09-03 23:55:16 | 56.62134 | 5.09911 | 86° | 144km/h | 12981m | 4.9m/s | -54.1°C | 3% | 170.5hPa | 2.7V | 18:12:15 | 00:58:25 | 00:00:00 | |
| DL1XH-west | 2026-09-03 23:55:05 | 56.62114 | 5.09200 | 88° | 141km/h | 12937m | 4.5m/s | -54°C | 3.4% | 171.6hPa | 2.7V | 18:12:15 | 00:58:14 | 00:00:00 | |
| DL1XH-west | 2026-09-03 23:54:55 | 56.62094 | 5.08555 | 87° | 141km/h | 12898m | 3.5m/s | -53.9°C | 3.8% | 172.8hPa | 2.6V | 18:12:15 | 00:58:04 | 00:00:00 | |
| DL1XH-west | 2026-09-03 23:54:45 | 56.62070 | 5.07902 | 86° | 142km/h | 12858m | 4.7m/s | -54.1°C | 4.1% | 173.8hPa | 2.7V | 18:12:15 | 00:57:54 | 00:00:00 | |
| DL1XH-west | 2026-09-03 23:54:34 | 56.62045 | 5.07192 | 86° | 144km/h | 12814m | 3.5m/s | -54.4°C | 4.3% | 175hPa | 2.7V | 18:12:15 | 00:57:43 | 00:00:00 | |
| DL1XH-west | 2026-09-03 23:54:24 | 56.62027 | 5.06535 | 88° | 142km/h | 12774m | 4.5m/s | -54.8°C | 4.4% | 176.1hPa | 2.6V | 18:12:15 | 00:57:33 | 00:00:00 | |
| DL1XH-west | 2026-09-03 23:54:13 | 56.62009 | 5.05799 | 89° | 146km/h | 12732m | 4.7m/s | -54.9°C | 5.2% | 177.2hPa | 2.6V | 18:12:15 | 00:57:22 | 00:00:00 | |
| DL1XH-west | 2026-09-03 23:54:03 | 56.61995 | 5.05116 | 87° | 150km/h | 12692m | 4.4m/s | -54.9°C | 6% | 178.4hPa | 2.7V | 18:12:15 | 00:57:12 | 00:00:00 | |
| DL1XH-west | 2026-09-03 23:53:52 | 56.61982 | 5.04366 | 89° | 150km/h | 12648m | 3.6m/s | -55.2°C | 7.1% | 179.6hPa | 2.7V | 18:12:15 | 00:57:01 | 00:00:00 | |
| DJ2DS-15 | 2026-09-03 23:53:52 | 56.61981 | 5.04297 | 88° | 146km/h | 12644m | 4.6m/s | -55.2°C | 5.5% | 179.7hPa | 2.7V | 00:00:00 | 00:00:00 | 00:00:00 | |
| DL1XH-west | 2026-09-03 23:53:41 | 56.61974 | 5.03609 | 87° | 159km/h | 12604m | 3.7m/s | -55°C | 8.3% | 180.8hPa | 2.7V | 18:12:15 | 00:56:50 | 00:00:00 | |
| DL1XH-west | 2026-09-03 23:53:30 | 56.61965 | 5.02806 | 89° | 159km/h | 12559m | 3.7m/s | -55.1°C | 10.5% | 182.1hPa | 2.7V | 18:12:15 | 00:56:39 | 00:00:00 | |
| DL1XH-west | 2026-09-03 23:53:19 | 56.61960 | 5.02006 | 90° | 161km/h | 12517m | 4.6m/s | -56°C | 13% | 183.3hPa | 2.7V | 18:12:15 | 00:56:28 | 00:00:00 | |
| DL1XH-west | 2026-09-03 23:53:09 | 56.61961 | 5.01268 | 90° | 159km/h | 12476m | 4.2m/s | -56.5°C | 16.1% | 184.5hPa | 2.7V | 18:12:15 | 00:56:18 | 00:00:00 | |
| DL1XH-west | 2026-09-03 23:52:58 | 56.61955 | 5.00434 | 90° | 168km/h | 12434m | 3.8m/s | -57°C | 19.7% | 185.7hPa | 2.7V | 18:12:15 | 00:56:07 | 00:00:00 | |
| DL1XH-west | 2026-09-03 23:52:48 | 56.61964 | 4.99660 | 91° | 172km/h | 12393m | 4.1m/s | -57.5°C | 23% | 186.9hPa | 2.6V | 18:12:15 | 00:55:57 | 00:00:00 | |
| DL1XH-west | 2026-09-03 23:52:37 | 56.61982 | 4.98775 | 93° | 183km/h | 12351m | 4.4m/s | -57.8°C | 26.7% | 188.1hPa | 2.6V | 18:12:15 | 00:55:46 | 00:00:00 | |
| DL1XH-west | 2026-09-03 23:52:26 | 56.62012 | 4.97847 | 94° | 188km/h | 12305m | 3.5m/s | -58.1°C | 29.3% | 189.5hPa | 2.6V | 18:12:15 | 00:55:35 | 00:00:00 | |
| DL1XH-west | 2026-09-03 23:52:16 | 56.62053 | 4.96977 | 95° | 197km/h | 12265m | 4m/s | -57.9°C | 31.4% | 190.7hPa | 2.7V | 18:12:15 | 00:55:25 | 00:00:00 | |
| DL1XH-west | 2026-09-03 23:52:05 | 56.62104 | 4.95977 | 96° | 201km/h | 12215m | 6.3m/s | -58.1°C | 34.6% | 192.2hPa | 2.6V | 18:12:15 | 00:55:14 | 00:00:00 | |
| DL1XH-west | 2026-09-03 23:51:55 | 56.62154 | 4.95033 | 96° | 208km/h | 12167m | 5.6m/s | -58°C | 37.2% | 193.7hPa | 2.7V | 18:12:15 | 00:55:04 | 00:00:00 | |
| DL1XH-west | 2026-09-03 23:51:45 | 56.62210 | 4.94053 | 97° | 219km/h | 12119m | 4.1m/s | -57.7°C | 41.3% | 195.2hPa | 2.6V | 18:12:15 | 00:54:54 | 00:00:00 | |
| DL1XH-west | 2026-09-03 23:51:34 | 56.62282 | 4.92946 | 96° | 226km/h | 12066m | 5.9m/s | -57.6°C | 45.7% | 196.8hPa | 2.6V | 18:12:15 | 00:54:43 | 00:00:00 | |
| DL1XH-west | 2026-09-03 23:51:24 | 56.62337 | 4.91907 | 96° | 230km/h | 12020m | 5.5m/s | -57.6°C | 53% | 198.2hPa | 2.7V | 18:12:15 | 00:54:33 | 00:00:00 | |
| DL1XH-west | 2026-09-03 23:51:13 | 56.62396 | 4.90736 | 96° | 235km/h | 11969m | 3.4m/s | -58.2°C | 61.3% | 199.9hPa | 2.7V | 18:12:15 | 00:54:22 | 00:00:00 | |
| DL1XH-west | 2026-09-03 23:51:03 | 56.62441 | 4.89639 | 94° | 248km/h | 11925m | 4.5m/s | -58.2°C | 61.8% | 201.3hPa | 2.6V | 18:12:15 | 00:54:12 | 00:00:00 | |
| DL1XH-west | 2026-09-03 23:50:52 | 56.62486 | 4.88381 | 93° | 252km/h | 11881m | 4.8m/s | -58.4°C | 65% | 202.7hPa | 2.6V | 18:12:15 | 00:54:01 | 00:00:00 | |
| DL1XH-west | 2026-09-03 23:50:41 | 56.62520 | 4.87134 | 92° | 246km/h | 11834m | 5.2m/s | -58.3°C | 69.7% | 204.2hPa | 2.7V | 18:12:15 | 00:53:50 | 00:00:00 | |
| DL1XH-west | 2026-09-03 23:50:31 | 56.62537 | 4.85994 | 91° | 246km/h | 11794m | 4.5m/s | -58.4°C | 73.8% | 205.5hPa | 2.7V | 18:12:15 | 00:53:40 | 00:00:00 | |
| DL1XH-west | 2026-09-03 23:50:20 | 56.62551 | 4.84742 | 91° | 250km/h | 11747m | 4.6m/s | -58.6°C | 71% | 207hPa | 2.7V | 18:12:15 | 00:53:29 | 00:00:00 | |
| DL1XH-west | 2026-09-03 23:50:09 | 56.62568 | 4.83492 | 91° | 243km/h | 11704m | 4.1m/s | -58.6°C | 68.7% | 208.4hPa | 2.6V | 18:12:15 | 00:53:18 | 00:00:00 | |
| DL1XH-west | 2026-09-03 23:49:58 | 56.62582 | 4.82276 | 92° | 243km/h | 11658m | 3.4m/s | -58.2°C | 68.8% | 209.9hPa | 2.6V | 18:12:15 | 00:53:07 | 00:00:00 | |
| DL1XH-west | 2026-09-03 23:49:48 | 56.62597 | 4.81166 | 92° | 241km/h | 11615m | 4.8m/s | -57.8°C | 68.1% | 211.4hPa | 2.6V | 18:12:15 | 00:52:57 | 00:00:00 | |
| DL1XH-west | 2026-09-03 23:49:37 | 56.62619 | 4.79945 | 91° | 241km/h | 11568m | 4.1m/s | -57.3°C | 69.6% | 212.9hPa | 2.6V | 18:12:15 | 00:52:46 | 00:00:00 | |
| DL1XH-west | 2026-09-03 23:49:26 | 56.62631 | 4.78715 | 91° | 246km/h | 11520m | 4m/s | -56.9°C | 72.7% | 214.6hPa | 2.6V | 18:12:15 | 00:52:35 | 00:00:00 | |
| DL1XH-west | 2026-09-03 23:49:16 | 56.62644 | 4.77600 | 91° | 241km/h | 11478m | 4.8m/s | -56.5°C | 74.8% | 216hPa | 2.7V | 18:12:15 | 00:52:25 | 00:00:00 | |
| DL1XH-west | 2026-09-03 23:49:05 | 56.62651 | 4.76379 | 91° | 241km/h | 11432m | 4.3m/s | -56.3°C | 75.9% | 217.6hPa | 2.7V | 18:12:15 | 00:52:14 | 00:00:00 | |
| DL1XH-west | 2026-09-03 23:48:55 | 56.62651 | 4.75265 | 90° | 243km/h | 11391m | 4.3m/s | -55.9°C | 76% | 218.9hPa | 2.6V | 18:12:15 | 00:52:04 | 00:00:00 | |
| DL1XH-west | 2026-09-03 23:48:44 | 56.62649 | 4.73919 | 88° | 243km/h | 11339m | 4m/s | -55.4°C | 76.1% | 220.7hPa | 2.6V | 18:12:15 | 00:51:52 | 00:00:00 | |
| DL1XH-west | 2026-09-03 23:48:32 | 56.62652 | 4.72685 | 90° | 243km/h | 11280m | 4.9m/s | -54.8°C | 78.2% | 222.8hPa | 2.6V | 18:12:15 | 00:51:41 | 00:00:00 | |
| DL1XH-west | 2026-09-03 23:48:22 | 56.62661 | 4.71556 | 91° | 245km/h | 11229m | 5.3m/s | -54.3°C | 78.9% | 224.5hPa | 2.6V | 18:12:15 | 00:51:31 | 00:00:00 | |
| DL1XH-west | 2026-09-03 23:48:12 | 56.62680 | 4.70314 | 91° | 248km/h | 11174m | 5m/s | -53.8°C | 80.6% | 226.5hPa | 2.7V | 18:12:15 | 00:51:20 | 00:00:00 | |
| DL1XH-west | 2026-09-03 23:48:00 | 56.62695 | 4.69073 | 91° | 245km/h | 11122m | 3.8m/s | -53.3°C | 81.6% | 228.3hPa | 2.7V | 18:12:15 | 00:51:09 | 00:00:00 | |
| DL1XH-west | 2026-09-03 23:47:50 | 56.62711 | 4.67945 | 92° | 246km/h | 11077m | 5m/s | -52.8°C | 80.9% | 229.9hPa | 2.6V | 18:12:15 | 00:50:59 | 00:00:00 | |
| DL1XH-west | 2026-09-03 23:47:40 | 56.62723 | 4.66819 | 91° | 245km/h | 11032m | 4m/s | -52.4°C | 80.8% | 231.5hPa | 2.7V | 18:12:15 | 00:50:49 | 00:00:00 | |
| DL1XH-west | 2026-09-03 23:47:30 | 56.62736 | 4.65690 | 92° | 248km/h | 10988m | 5m/s | -52°C | 79.1% | 233.1hPa | 2.6V | 18:12:15 | 00:50:39 | 00:00:00 | |
| DL1XH-west | 2026-09-03 23:47:19 | 56.62750 | 4.64445 | 92° | 246km/h | 10937m | 4.1m/s | -51.6°C | 77.1% | 234.9hPa | 2.7V | 18:12:15 | 00:50:28 | 00:00:00 | |
| DL1XH-west | 2026-09-03 23:47:08 | 56.62768 | 4.63197 | 91° | 246km/h | 10887m | 5.5m/s | -51.2°C | 75.6% | 236.7hPa | 2.7V | 18:12:15 | 00:50:17 | 00:00:00 | |
| DL1XH-west | 2026-09-03 23:46:57 | 56.62788 | 4.61951 | 93° | 246km/h | 10837m | 4.5m/s | 0°C | 0% | 238.5hPa | 2.6V | 18:12:15 | 00:50:06 | 00:00:00 | |
| DL1XH-west | 2026-09-03 23:46:47 | 56.62807 | 4.60818 | 91° | 248km/h | 10792m | 4.2m/s | 0°C | 0% | 0hPa | 2.7V | 18:12:15 | 00:49:56 | 00:00:00 | |
| DL1XH-west | 2026-09-03 23:46:36 | 56.62825 | 4.59567 | 92° | 250km/h | 10746m | 3.9m/s | 0°C | 0% | 0hPa | 2.6V | 18:12:15 | 00:49:45 | 00:00:00 | |
| DL1XH-west | 2026-09-03 23:46:26 | 56.62843 | 4.58431 | 91° | 248km/h | 10703m | 3.9m/s | 0°C | 0% | 0hPa | 2.6V | 18:12:15 | 00:49:35 | 00:00:00 | |
| DL1XH-west | 2026-09-03 23:46:15 | 56.62856 | 4.57177 | 92° | 248km/h | 10655m | 4m/s | 0°C | 0% | 0hPa | 2.6V | 18:12:15 | 00:49:24 | 00:00:00 | |
| DJ2DS-15 | 2026-09-03 23:46:02 | 56.62877 | 4.55692 | 93° | 252km/h | 10595m | 5.5m/s | -48.4°C | 83.2% | 247.4hPa | 2.7V | 00:00:00 | 00:49:11 | 00:00:00 | |
| DJ2DS-15 | 2026-09-03 23:45:42 | 56.62910 | 4.53389 | 91° | 248km/h | 10505m | 4.3m/s | -47.5°C | 78.0% | 250.9hPa | 2.7V | 00:00:00 | 00:48:51 | 00:00:00 | |
| DJ2DS-15 | 2026-09-03 23:45:27 | 56.62929 | 4.51687 | 91° | 246km/h | 10430m | 5.6m/s | -46.8°C | 66.7% | 253.8hPa | 2.6V | 00:00:00 | 00:00:00 | 00:00:00 | |
| DJ2DS-15 | 2026-09-03 23:45:21 | 56.62930 | 4.51001 | 91° | 248km/h | 10402m | 3.7m/s | -46.5°C | 76.3% | 254.8hPa | 2.6V | 00:00:00 | 00:48:30 | 00:00:00 | |
| DJ2DS-15 | 2026-09-03 23:44:51 | 56.62925 | 4.47476 | 87° | 245km/h | 10260m | 3.9m/s | -45.8°C | 73.0% | 260.3hPa | 2.6V | 00:00:00 | 00:00:00 | 00:00:00 | |
| DJ2DS-15 | 2026-09-03 23:44:41 | 56.62904 | 4.46455 | 89° | 252km/h | 10225m | 4.2m/s | -45.4°C | 85.5% | 261.7hPa | 2.6V | 00:00:00 | 00:47:50 | 00:00:00 | |
| DJ2DS-15 | 2026-09-03 23:44:21 | 56.62846 | 4.44156 | 87° | 252km/h | 10141m | 4.9m/s | -44.7°C | 85.0% | 264.9hPa | 2.7V | 00:00:00 | 00:47:30 | 00:00:00 | |
| DJ2DS-15 | 2026-09-03 23:44:01 | 56.62771 | 4.41854 | 87° | 252km/h | 10057m | 3.8m/s | -43.9°C | 85.4% | 268.3hPa | 2.7V | 00:00:00 | 00:47:10 | 00:00:00 | |
| DJ2DS-15 | 2026-09-03 23:43:41 | 56.62681 | 4.39549 | 86° | 252km/h | 9973m | 3.9m/s | -43.2°C | 79.2% | 271.7hPa | 2.7V | 00:00:00 | 00:46:50 | 08:30:00 | |
| DJ2DS-15 | 2026-09-03 23:43:21 | 56.62586 | 4.37249 | 86° | 250km/h | 9891m | 3.7m/s | -42.5°C | 75.9% | 275.0hPa | 0V | 00:00:00 | 00:46:30 | 00:00:00 | |
| DJ2DS-15 | 2026-09-03 23:43:03 | 56.62479 | 4.35078 | 85° | 252km/h | 9812m | 3.5m/s | -41.9°C | 65.8% | 278.3hPa | 0V | 00:00:00 | 00:00:00 | 00:00:00 | |
| DJ2DS-15 | 2026-09-03 23:43:01 | 56.62473 | 4.34962 | 86° | 248km/h | 9808m | 4.2m/s | 0°C | 0% | 0hPa | 0V | 00:00:00 | 00:46:10 | 00:00:00 | |
| DJ2DS-15 | 2026-09-03 23:42:41 | 56.62356 | 4.32693 | 86° | 250km/h | 9723m | 3.5m/s | 0°C | 0% | 0hPa | 0V | 00:00:00 | 00:45:50 | 00:00:00 | |
| DJ2DS-15 | 2026-09-03 23:42:27 | 56.62277 | 4.30982 | 85° | 250km/h | 9663m | 4.2m/s | -40.6°C | 70.0% | 284.4hPa | 0V | 00:00:00 | 00:00:00 | 00:00:00 | |
| DJ2DS-15 | 2026-09-03 23:42:21 | 56.62250 | 4.30411 | 86° | 250km/h | 9644m | 3.5m/s | 0°C | 0% | 0hPa | 0V | 00:00:00 | 00:45:30 | 00:00:00 | |
| DJ2DS-15 | 2026-09-03 23:42:01 | 56.62142 | 4.28124 | 86° | 248km/h | 9564m | 3.3m/s | 0°C | 0% | 0hPa | 0V | 00:00:00 | 00:45:10 | 00:00:00 | |
| DJ2DS-15 | 2026-09-03 23:41:41 | 56.62030 | 4.25854 | 85° | 248km/h | 9488m | 2.9m/s | 0°C | 0% | 0hPa | 0V | 00:00:00 | 00:44:50 | 00:00:00 | |
| DJ2DS-15 | 2026-09-03 23:41:21 | 56.61915 | 4.23583 | 86° | 246km/h | 9411m | 4.0m/s | 0°C | 0% | 0hPa | 0V | 00:00:00 | 00:44:30 | 00:00:00 | |
| DJ2DS-15 | 2026-09-03 23:40:59 | 56.61794 | 4.21097 | 85° | 246km/h | 9326m | 3.2m/s | 0°C | 0% | 0hPa | 0V | 00:00:00 | 00:44:08 | 00:00:00 | |
| DJ2DS-15 | 2026-09-03 23:40:39 | 56.61682 | 4.18849 | 85° | 246km/h | 9251m | 3.2m/s | 0°C | 0% | 0hPa | 0V | 00:00:00 | 00:43:48 | 00:00:00 |